Provisional Data: Blockhouse Creek near English Center, PA


Please select a monitoring station.
Please select start date.
Please select start date.

Toggle Unit: C/F Toggle Unit: C/F
Sample Time Temperature (C) Temperature (F) Specific Conductivity (mS/cm) pH   Turbidity (NTU+) DO (mg/L)
5/17/2022 12:00:00 AM 13.18 55.724 0.113 7.21 9.27 9.69
5/17/2022 12:15:00 AM 13.09 55.562 0.112 7.22 9.57 9.71
5/17/2022 12:30:00 AM 13 55.4 0.112 7.2 9.1 9.73
5/17/2022 12:45:00 AM 12.92 55.256 0.111 7.18 8.71 9.76
5/17/2022 1:00:00 AM 12.84 55.112 0.111 7.19 8.44 9.78
5/17/2022 1:15:00 AM 12.77 54.986 0.11 7.2 8.29 9.8
5/17/2022 1:30:00 AM 12.7 54.86 0.11 7.19 8.11 9.81
5/17/2022 1:45:00 AM 12.61 54.698 0.109 7.2 7.82 9.83
5/17/2022 2:00:00 AM 12.52 54.536 0.109 7.19 7.64 9.85
5/17/2022 2:15:00 AM 12.45 54.41 0.109 7.18 7.39 9.87
5/17/2022 2:30:00 AM 12.39 54.302 0.109 7.19 7.08 9.89
5/17/2022 2:45:00 AM 12.35 54.23 0.108 7.21 6.93 9.9
5/17/2022 3:00:00 AM 12.31 54.158 0.108 7.19 6.78 9.91
5/17/2022 3:15:00 AM 12.27 54.086 0.108 7.19 6.84 9.92
5/17/2022 3:30:00 AM 12.23 54.014 0.108 7.2 6.59 9.93
5/17/2022 3:45:00 AM 12.19 53.942 0.108 7.2 6.59 9.94
5/17/2022 4:00:00 AM 12.14 53.852 0.108 7.19 6.46 9.95
5/17/2022 4:15:00 AM 12.09 53.762 0.107 7.2 6.25 9.96
5/17/2022 4:30:00 AM 12.03 53.654 0.107 7.2 6.13 9.98
5/17/2022 4:45:00 AM 11.99 53.582 0.107 7.19 6.11 9.99
5/17/2022 5:00:00 AM 11.94 53.492 0.107 7.19 5.92 10.01
5/17/2022 5:15:00 AM 11.9 53.42 0.107 7.18 5.93 10.02
5/17/2022 5:30:00 AM 11.85 53.33 0.107 7.2 5.77 10.03
5/17/2022 5:45:00 AM 11.79 53.222 0.107 7.18 5.73 10.04
5/17/2022 6:00:00 AM 11.74 53.132 0.107 7.2 5.61 10.07
5/17/2022 6:15:00 AM 11.69 53.042 0.107 7.19 5.46 10.09
5/17/2022 6:30:00 AM 11.64 52.952 0.107 7.19 5.22 10.12
5/17/2022 6:45:00 AM 11.6 52.88 0.107 7.2 5.11 10.16
5/17/2022 7:00:00 AM 11.56 52.808 0.106 7.21 5.1 10.22
5/17/2022 7:15:00 AM 11.52 52.736 0.106 7.22 4.93 10.26
5/17/2022 7:30:00 AM 11.51 52.718 0.106 7.23 4.72 10.31
5/17/2022 7:45:00 AM 11.5 52.7 0.106 7.25 4.72 10.37
5/17/2022 8:00:00 AM 11.51 52.718 0.106 7.27 4.8 10.44
5/17/2022 8:15:00 AM 11.52 52.736 0.106 7.29 4.52 10.47
5/17/2022 8:30:00 AM 11.53 52.754 0.105 7.31 4.45 10.51
5/17/2022 8:45:00 AM 11.56 52.808 0.105 7.32 4.23 10.54
5/17/2022 9:00:00 AM 11.61 52.898 0.105 7.33 4.35 10.56
5/17/2022 9:15:00 AM 11.7 53.06 0.105 7.34 4.21 10.58
5/17/2022 9:30:00 AM 11.8 53.24 0.105 7.35 4.18 10.58
5/17/2022 9:45:00 AM 11.98 53.564 0.105 7.37 4.07 10.59
5/17/2022 10:00:00 AM 12.16 53.888 0.104 7.39 3.96 10.58
5/17/2022 10:15:00 AM 12.35 54.23 0.104 7.41 3.91 10.56
5/17/2022 10:30:00 AM 12.55 54.59 0.104 7.42 3.9 10.54
5/17/2022 10:45:00 AM 12.75 54.95 0.104 7.43 3.89 10.52
5/17/2022 11:00:00 AM 12.96 55.328 0.104 7.45 3.74 10.49
5/17/2022 11:15:00 AM 13.15 55.67 0.104 7.45 3.77 10.45
5/17/2022 11:30:00 AM 13.32 55.976 0.103 7.45 3.73 10.39
5/17/2022 11:45:00 AM 13.56 56.408 0.103 7.47 3.59 10.36
5/17/2022 12:00:00 PM 13.83 56.894 0.103 7.49 3.66 10.36
5/17/2022 12:15:00 PM 14.01 57.218 0.103 7.5 3.59 10.3
5/17/2022 12:30:00 PM 14.13 57.434 0.103 7.5 3.65 10.28
5/17/2022 12:45:00 PM 14.37 57.866 0.103 7.53 3.51 10.28
5/17/2022 1:00:00 PM 14.59 58.262 0.103 7.54 3.56 10.24
5/17/2022 1:15:00 PM 14.83 58.694 0.102 7.55 3.58 10.2
5/17/2022 1:30:00 PM 15.08 59.144 0.102 7.56 3.49 10.16
5/17/2022 1:45:00 PM 15.2 59.36 0.102 7.55 3.46 10.08
5/17/2022 2:00:00 PM 15.37 59.666 0.102 7.55 7.46 10.06
5/17/2022 2:15:00 PM 15.64 60.152 0.102 7.58 3.47 10.03
5/17/2022 2:30:00 PM 15.89 60.602 0.102 7.58 7.54 10
5/17/2022 2:45:00 PM 16.07 60.926 0.102 7.6 3.43 9.96
5/17/2022 3:00:00 PM 16.24 61.232 0.102 7.6 3.39 9.93
5/17/2022 3:15:00 PM 16.39 61.502 0.101 7.6 3.42 9.9
5/17/2022 3:30:00 PM 16.53 61.754 0.101 7.63 3.49 9.87
5/17/2022 3:45:00 PM 16.6 61.88 0.101 7.6 3.36 9.81
5/17/2022 4:00:00 PM 16.61 61.898 0.101 7.6 3.26 9.79
5/17/2022 4:15:00 PM 16.66 61.988 0.101 7.6 3.28 9.77
5/17/2022 4:30:00 PM 16.66 61.988 0.101 7.6 3.31 9.75
5/17/2022 4:45:00 PM 16.62 61.916 0.101 7.57 3.29 9.72
5/17/2022 5:00:00 PM 16.56 61.808 0.101 7.56 3.29 9.7
5/17/2022 5:15:00 PM 16.52 61.736 0.101 7.55 3.28 9.69
5/17/2022 5:30:00 PM 16.41 61.538 0.101 7.53 3.25 9.67
5/17/2022 5:45:00 PM 16.26 61.268 0.101 7.49 3.32 9.64
5/17/2022 6:00:00 PM 16.11 60.998 0.101 7.48 3.32 9.62
5/17/2022 6:15:00 PM 15.99 60.782 0.101 7.43 7.65 9.59
5/17/2022 6:30:00 PM 15.84 60.512 0.101 7.42 3.27 9.57
5/17/2022 6:45:00 PM 15.73 60.314 0.101 7.39 3.26 9.55
5/17/2022 7:00:00 PM 15.56 60.008 0.101 7.37 3.28 9.52
5/17/2022 7:15:00 PM 15.41 59.738 0.101 7.33 7.43 9.5
5/17/2022 7:30:00 PM 15.27 59.486 0.101 7.32 3.22 9.48
5/17/2022 7:45:00 PM 15.14 59.252 0.101 7.3 3.38 9.46
5/17/2022 8:00:00 PM 15.01 59.018 0.101 7.28 3.32 9.45
5/17/2022 8:15:00 PM 14.89 58.802 0.101 7.26 3.42 9.44
5/17/2022 8:30:00 PM 14.77 58.586 0.101 7.24 3.38 9.44
5/17/2022 8:45:00 PM 14.65 58.37 0.101 7.23 3.47 9.44
5/17/2022 9:00:00 PM 14.53 58.154 0.1 7.21 3.53 9.44
5/17/2022 9:15:00 PM 14.39 57.902 0.1 7.21 3.61 9.46
5/17/2022 9:30:00 PM 14.25 57.65 0.1 7.19 3.76 9.48
5/17/2022 9:45:00 PM 14.1 57.38 0.1 7.19 3.77 9.51
5/17/2022 10:00:00 PM 13.96 57.128 0.1 7.18 3.58 9.54
5/17/2022 10:15:00 PM 13.81 56.858 0.1 7.17 3.72 9.57
5/17/2022 10:30:00 PM 13.68 56.624 0.1 7.18 3.94 9.6
5/17/2022 10:45:00 PM 13.55 56.39 0.1 7.17 3.84 9.63
5/17/2022 11:00:00 PM 13.42 56.156 0.1 7.17 3.81 9.66
5/17/2022 11:15:00 PM 13.29 55.922 0.1 7.17 3.75 9.69
5/17/2022 11:30:00 PM 13.16 55.688 0.1 7.16 3.72 9.72
5/17/2022 11:45:00 PM 13.03 55.454 0.096 7.16 7.97 9.75
5/18/2022 12:00:00 AM 12.9 55.22 0.1 7.16 3.77 9.78
5/18/2022 12:15:00 AM 12.77 54.986 0.1 7.16 3.77 9.81
5/18/2022 12:30:00 AM 12.65 54.77 0.1 7.16 3.77 9.85
5/18/2022 12:45:00 AM 12.52 54.536 0.1 7.16 3.64 9.88
5/18/2022 1:00:00 AM 12.4 54.32 0.1 7.16 3.51 9.91
5/18/2022 1:15:00 AM 12.28 54.104 0.1 7.15 3.53 9.94
5/18/2022 1:30:00 AM 12.16 53.888 0.1 7.16 3.52 9.97
5/18/2022 1:45:00 AM 12.05 53.69 0.1 7.15 3.6 9.99
5/18/2022 2:00:00 AM 11.94 53.492 0.1 7.15 3.44 10.02
5/18/2022 2:15:00 AM 11.82 53.276 0.1 7.15 3.51 10.05
5/18/2022 2:30:00 AM 11.72 53.096 0.1 7.15 3.51 10.08
5/18/2022 2:45:00 AM 11.61 52.898 0.1 7.15 3.49 10.1
5/18/2022 3:00:00 AM 11.51 52.718 0.1 7.14 3.45 10.14
5/18/2022 3:15:00 AM 11.41 52.538 0.1 7.14 3.44 10.17
5/18/2022 3:30:00 AM 11.3 52.34 0.1 7.15 3.38 10.19
5/18/2022 3:45:00 AM 11.2 52.16 0.1 7.15 3.49 10.21
5/18/2022 4:00:00 AM 11.11 51.998 0.1 7.15 3.38 10.23
5/18/2022 4:15:00 AM 11.01 51.818 0.1 7.14 3.29 10.26
5/18/2022 4:30:00 AM 10.92 51.656 0.1 7.15 3.33 10.29
5/18/2022 4:45:00 AM 10.82 51.476 0.099 7.14 3.3 10.31
5/18/2022 5:00:00 AM 10.73 51.314 0.099 7.13 3.36 10.34
5/18/2022 5:15:00 AM 10.64 51.152 0.099 7.14 3.23 10.36
5/18/2022 5:30:00 AM 10.55 50.99 0.099 7.14 3.26 10.38
5/18/2022 5:45:00 AM 10.46 50.828 0.099 7.14 3.32 10.41
5/18/2022 6:00:00 AM 10.39 50.702 0.099 7.14 3.06 10.44
5/18/2022 6:15:00 AM 10.31 50.558 0.099 7.14 3.03 10.49
5/18/2022 6:30:00 AM 10.25 50.45 0.1 7.16 3.06 10.54
5/18/2022 6:45:00 AM 10.22 50.396 0.1 7.16 3.05 10.6
5/18/2022 7:00:00 AM 10.2 50.36 0.1 7.18 2.88 10.67
5/18/2022 7:15:00 AM 10.18 50.324 0.099 7.21 2.91 10.74
5/18/2022 7:30:00 AM 10.17 50.306 0.099 7.23 2.81 10.8
5/18/2022 7:45:00 AM 10.16 50.288 0.099 7.24 2.81 10.86
5/18/2022 8:00:00 AM 10.18 50.324 0.099 7.26 2.79 10.9
5/18/2022 8:15:00 AM 10.22 50.396 0.099 7.29 2.75 10.94
5/18/2022 8:30:00 AM 10.29 50.522 0.099 7.31 2.75 11
5/18/2022 8:45:00 AM 10.33 50.594 0.099 7.32 2.75 11.03
5/18/2022 9:00:00 AM 10.44 50.792 0.099 7.35 2.69 11.05
5/18/2022 9:15:00 AM 10.57 51.026 0.098 7.37 2.66 11.05
5/18/2022 9:30:00 AM 10.67 51.206 0.098 7.38 2.69 11.05
5/18/2022 9:45:00 AM 10.83 51.494 0.098 7.39 2.68 11.04
5/18/2022 10:00:00 AM 11 51.8 0.098 7.4 2.67 11.01
5/18/2022 10:15:00 AM 11.22 52.196 0.098 7.42 2.65 10.99
5/18/2022 10:30:00 AM 11.43 52.574 0.098 7.44 2.6 10.96
5/18/2022 10:45:00 AM 11.65 52.97 0.098 7.45 2.62 10.93
5/18/2022 11:00:00 AM 11.89 53.402 0.098 7.46 2.58 10.89
5/18/2022 11:15:00 AM 12.15 53.87 0.098 7.48 2.63 10.85
5/18/2022 11:30:00 AM 12.4 54.32 0.097 7.5 2.6 10.81
5/18/2022 11:45:00 AM 12.67 54.806 0.097 7.51 2.49 10.76
5/18/2022 12:00:00 PM 12.94 55.292 0.097 7.52 2.56 10.72
5/18/2022 12:15:00 PM 13.22 55.796 0.097 7.53 2.57 10.66
5/18/2022 12:30:00 PM 13.5 56.3 0.097 7.54 2.6 10.61
5/18/2022 12:45:00 PM 13.78 56.804 0.097 7.55 2.63 10.56
5/18/2022 1:00:00 PM 13.99 57.182 0.097 7.57 2.56 10.53
5/18/2022 1:15:00 PM 14.17 57.506 0.097 7.59 2.7 10.49
5/18/2022 1:30:00 PM 14.41 57.938 0.096 7.61 2.51 10.45
5/18/2022 1:45:00 PM 14.59 58.262 0.096 7.62 2.61 10.41
5/18/2022 2:00:00 PM 14.75 58.55 0.096 7.63 2.64 10.36
5/18/2022 2:15:00 PM 14.88 58.784 0.096 7.63 2.67 10.32
5/18/2022 2:30:00 PM 14.96 58.928 0.096 7.64 2.62 10.3
5/18/2022 2:45:00 PM 15.07 59.126 0.096 7.66 2.58 10.28
5/18/2022 3:00:00 PM 15.26 59.468 0.096 7.66 2.58 10.24
5/18/2022 3:15:00 PM 15.42 59.756 0.096 7.65 2.59 10.2
5/18/2022 3:30:00 PM 15.47 59.846 0.096 7.64 6.5 10.16
5/18/2022 3:45:00 PM 15.39 59.702 0.096 7.61 2.58 10.07
5/18/2022 4:00:00 PM 15.26 59.468 0.096 7.52 2.56 9.92
5/18/2022 4:15:00 PM 15.17 59.306 0.096 7.46 2.62 9.84
5/18/2022 4:30:00 PM 15.09 59.162 0.096 7.43 2.66 9.79
5/18/2022 4:45:00 PM 15.01 59.018 0.096 7.4 2.68 9.75
5/18/2022 5:00:00 PM 14.93 58.874 0.096 7.36 2.67 9.72
5/18/2022 5:15:00 PM 14.86 58.748 0.096 7.34 2.65 9.67
5/18/2022 5:30:00 PM 14.78 58.604 0.096 7.32 2.69 9.65
5/18/2022 5:45:00 PM 14.69 58.442 0.096 7.31 2.65 9.66
5/18/2022 6:00:00 PM 14.6 58.28 0.096 7.3 2.69 9.68
5/18/2022 6:15:00 PM 14.5 58.1 0.096 7.3 2.73 9.69
5/18/2022 6:30:00 PM 14.42 57.956 0.096 7.29 2.71 9.69
5/18/2022 6:45:00 PM 14.34 57.812 0.096 7.28 2.67 9.69
5/18/2022 7:00:00 PM 14.26 57.668 0.096 7.26 2.81 9.68
5/18/2022 7:15:00 PM 14.19 57.542 0.096 7.25 2.71 9.67
5/18/2022 7:30:00 PM 14.11 57.398 0.096 7.24 2.73 9.66
5/18/2022 7:45:00 PM 14.04 57.272 0.096 7.23 2.79 9.65
5/18/2022 8:00:00 PM 13.96 57.128 0.096 7.22 2.76 9.63
5/18/2022 8:15:00 PM 13.89 57.002 0.096 7.21 2.76 9.62
5/18/2022 8:30:00 PM 13.81 56.858 0.096 7.19 2.77 9.6
5/18/2022 8:45:00 PM 13.73 56.714 0.096 7.18 2.91 9.61
5/18/2022 9:00:00 PM 13.65 56.57 0.096 7.18 3.08 9.62
5/18/2022 9:15:00 PM 13.57 56.426 0.096 7.18 3.09 9.63
5/18/2022 9:30:00 PM 13.48 56.264 0.096 7.18 3.09 9.65
5/18/2022 9:45:00 PM 13.39 56.102 0.096 7.17 3.18 9.67
5/18/2022 10:00:00 PM 13.3 55.94 0.096 7.17 3.19 9.68
5/18/2022 10:15:00 PM 13.21 55.778 0.096 7.17 3.35 9.7
5/18/2022 10:30:00 PM 13.12 55.616 0.096 7.17 3.33 9.72
5/18/2022 10:45:00 PM 13.04 55.472 0.096 7.16 3.25 9.74
5/18/2022 11:00:00 PM 12.97 55.346 0.096 7.16 3.35 9.75
5/18/2022 11:15:00 PM 12.9 55.22 0.095 7.16 3.3 9.77
5/18/2022 11:30:00 PM 12.83 55.094 0.095 7.15 3.22 9.78
5/18/2022 11:45:00 PM 12.76 54.968 0.095 7.15 3.22 9.8
5/19/2022 12:00:00 AM 12.7 54.86 0.095 7.14 3.27 9.81
5/19/2022 12:15:00 AM 12.64 54.752 0.095 7.14 3.24 9.82
5/19/2022 12:30:00 AM 12.58 54.644 0.095 7.14 3.21 9.83
5/19/2022 12:45:00 AM 12.53 54.554 0.095 7.15 3.14 9.84
5/19/2022 1:00:00 AM 12.49 54.482 0.095 7.15 3.23 9.86
5/19/2022 1:15:00 AM 12.44 54.392 0.095 7.15 3.22 9.87
5/19/2022 1:30:00 AM 12.4 54.32 0.095 7.14 3.26 9.88
5/19/2022 1:45:00 AM 12.36 54.248 0.095 7.15 3.2 9.88
5/19/2022 2:00:00 AM 12.32 54.176 0.095 7.15 3.1 9.89
5/19/2022 2:15:00 AM 12.27 54.086 0.095 7.15 3.17 9.9
5/19/2022 2:30:00 AM 12.23 54.014 0.096 7.15 3.11 9.91
5/19/2022 2:45:00 AM 12.2 53.96 0.096 7.15 3.08 9.92
5/19/2022 3:00:00 AM 12.16 53.888 0.096 7.15 3.09 9.93
5/19/2022 3:15:00 AM 12.13 53.834 0.096 7.15 3.2 9.94
5/19/2022 3:30:00 AM 12.09 53.762 0.096 7.15 3.14 9.95
5/19/2022 3:45:00 AM 12.06 53.708 0.096 7.15 3.2 9.95
5/19/2022 4:00:00 AM 12.03 53.654 0.096 7.15 3.09 9.96
5/19/2022 4:15:00 AM 12 53.6 0.096 7.14 3.04 9.97
5/19/2022 4:30:00 AM 11.97 53.546 0.096 7.15 3.07 9.98
5/19/2022 4:45:00 AM 11.94 53.492 0.096 7.15 3.03 9.98
5/19/2022 5:00:00 AM 11.91 53.438 0.096 7.15 2.96 9.99
5/19/2022 5:15:00 AM 11.88 53.384 0.096 7.16 3.02 10
5/19/2022 5:30:00 AM 11.85 53.33 0.096 7.16 3.06 10.01
5/19/2022 5:45:00 AM 11.83 53.294 0.096 7.15 2.99 10.01
5/19/2022 6:00:00 AM 11.8 53.24 0.096 7.16 3.06 10.02
5/19/2022 6:15:00 AM 11.78 53.204 0.096 7.15 3.14 10.03
5/19/2022 6:30:00 AM 11.76 53.168 0.096 7.15 2.93 10.04
5/19/2022 6:45:00 AM 11.74 53.132 0.096 7.16 2.96 10.06
5/19/2022 7:00:00 AM 11.73 53.114 0.096 7.17 2.89 10.09
5/19/2022 7:15:00 AM 11.71 53.078 0.097 7.17 2.81 10.1
5/19/2022 7:30:00 AM 11.7 53.06 0.097 7.18 2.89 10.14
5/19/2022 7:45:00 AM 11.7 53.06 0.097 7.19 2.81 10.19
5/19/2022 8:00:00 AM 11.69 53.042 0.097 7.21 2.83 10.23
5/19/2022 8:15:00 AM 11.69 53.042 0.097 7.21 2.69 10.26
5/19/2022 8:30:00 AM 11.69 53.042 0.097 7.22 2.81 10.28
5/19/2022 8:45:00 AM 11.69 53.042 0.097 7.23 2.69 10.3
5/19/2022 9:00:00 AM 11.69 53.042 0.097 7.24 2.61 10.32
5/19/2022 9:15:00 AM 11.7 53.06 0.097 7.25 2.56 10.34
5/19/2022 9:30:00 AM 11.7 53.06 0.097 7.25 2.68 10.37
5/19/2022 9:45:00 AM 11.72 53.096 0.097 7.27 2.52 10.4
5/19/2022 10:00:00 AM 11.73 53.114 0.097 7.28 2.54 10.41
5/19/2022 10:15:00 AM 11.76 53.168 0.096 7.3 2.51 10.46
5/19/2022 10:30:00 AM 11.8 53.24 0.096 7.32 2.55 10.51
5/19/2022 10:45:00 AM 11.82 53.276 0.096 7.33 2.46 10.5
5/19/2022 11:00:00 AM 11.85 53.33 0.096 7.34 2.48 10.52
5/19/2022 11:15:00 AM 11.9 53.42 0.096 7.37 2.42 10.57
5/19/2022 11:30:00 AM 11.95 53.51 0.096 7.38 2.48 10.58
5/19/2022 11:45:00 AM 11.99 53.582 0.096 7.4 2.46 10.59
5/19/2022 12:00:00 PM 12.02 53.636 0.096 7.4 2.47 10.57
5/19/2022 12:15:00 PM 12.08 53.744 0.096 7.41 2.47 10.6
5/19/2022 12:30:00 PM 12.25 54.05 0.096 7.46 2.4 10.66
5/19/2022 12:45:00 PM 12.44 54.392 0.096 7.48 2.5 10.67
5/19/2022 1:00:00 PM 12.58 54.644 0.096 7.51 2.4 10.67
5/19/2022 1:15:00 PM 12.75 54.95 0.096 7.52 2.48 10.65
5/19/2022 1:30:00 PM 12.98 55.364 0.096 7.55 2.43 10.64
5/19/2022 1:45:00 PM 13.17 55.706 0.096 7.57 2.49 10.61
5/19/2022 2:00:00 PM 13.34 56.012 0.096 7.58 2.44 10.58
5/19/2022 2:15:00 PM 13.54 56.372 0.096 7.59 2.54 10.54
5/19/2022 2:30:00 PM 13.72 56.696 0.096 7.58 2.47 10.47
5/19/2022 2:45:00 PM 14 57.2 0.096 7.6 2.51 10.44
5/19/2022 3:00:00 PM 14.29 57.722 0.096 7.61 2.46 10.4
5/19/2022 3:15:00 PM 14.57 58.226 0.096 7.62 2.45 10.35
5/19/2022 3:30:00 PM 14.78 58.604 0.096 7.63 2.47 10.3
5/19/2022 3:45:00 PM 14.97 58.946 0.096 7.64 2.54 10.26
5/19/2022 4:00:00 PM 15.13 59.234 0.096 7.63 2.48 10.19
5/19/2022 4:15:00 PM 15.32 59.576 0.096 7.64 2.43 10.15
5/19/2022 4:30:00 PM 15.44 59.792 0.096 7.63 2.57 10.1
5/19/2022 4:45:00 PM 15.5 59.9 0.096 7.62 2.52 10.05
5/19/2022 5:00:00 PM 15.53 59.954 0.096 7.6 2.53 10.01
5/19/2022 5:15:00 PM 15.55 59.99 0.096 7.59 2.59 9.95
5/19/2022 5:30:00 PM 15.54 59.972 0.096 7.57 2.57 9.92
5/19/2022 5:45:00 PM 15.49 59.882 0.096 7.53 2.57 9.87
5/19/2022 6:00:00 PM 15.43 59.774 0.096 7.5 2.55 9.82
5/19/2022 6:15:00 PM 15.39 59.702 0.096 7.46 2.51 9.76
5/19/2022 6:30:00 PM 15.32 59.576 0.096 7.43 2.56 9.72
5/19/2022 6:45:00 PM 15.22 59.396 0.096 7.41 2.53 9.67
5/19/2022 7:00:00 PM 15.12 59.216 0.096 7.37 2.58 9.62
5/19/2022 7:15:00 PM 15.02 59.036 0.096 7.34 2.63 9.58
5/19/2022 7:30:00 PM 14.93 58.874 0.096 7.32 2.61 9.57
5/19/2022 7:45:00 PM 14.84 58.712 0.091 7.28 6.64 9.54
5/19/2022 8:00:00 PM 14.75 58.55 0.096 7.26 2.64 9.51
5/19/2022 8:15:00 PM 14.68 58.424 0.096 7.23 2.71 9.47
5/19/2022 8:30:00 PM 14.59 58.262 0.096 7.22 2.64 9.46
5/19/2022 8:45:00 PM 14.51 58.118 0.096 7.2 2.72 9.44
5/19/2022 9:00:00 PM 14.42 57.956 0.096 7.18 2.78 9.44
5/19/2022 9:15:00 PM 14.33 57.794 0.096 7.18 2.82 9.44
5/19/2022 9:30:00 PM 14.25 57.65 0.096 7.17 2.98 9.45
5/19/2022 9:45:00 PM 14.17 57.506 0.096 7.16 2.82 9.46
5/19/2022 10:00:00 PM 14.09 57.362 0.097 7.16 2.88 9.48
5/19/2022 10:15:00 PM 14 57.2 0.097 7.15 2.97 9.5
5/19/2022 10:30:00 PM 13.91 57.038 0.097 7.15 2.9 9.52
5/19/2022 10:45:00 PM 13.82 56.876 0.097 7.14 2.98 9.53
5/19/2022 11:00:00 PM 13.72 56.696 0.097 7.14 2.96 9.55
5/19/2022 11:15:00 PM 13.63 56.534 0.097 7.15 2.99 9.58
5/19/2022 11:30:00 PM 13.53 56.354 0.097 7.14 3.04 9.6
5/19/2022 11:45:00 PM 13.46 56.228 0.097 7.14 3.04 9.62
5/20/2022 12:00:00 AM 13.37 56.066 0.097 7.14 2.94 9.64
5/20/2022 12:15:00 AM 13.29 55.922 0.097 7.14 2.93 9.66
5/20/2022 12:30:00 AM 13.2 55.76 0.097 7.14 3.01 9.68
5/20/2022 12:45:00 AM 13.12 55.616 0.097 7.13 3.08 9.7
5/20/2022 1:00:00 AM 13.04 55.472 0.097 7.14 2.99 9.72
5/20/2022 1:15:00 AM 12.97 55.346 0.097 7.13 2.93 9.74
5/20/2022 1:30:00 AM 12.9 55.22 0.097 7.12 2.93 9.76
5/20/2022 1:45:00 AM 12.82 55.076 0.097 7.13 2.88 9.77
5/20/2022 2:00:00 AM 12.74 54.932 0.097 7.14 3.02 9.79
5/20/2022 2:15:00 AM 12.66 54.788 0.097 7.13 2.87 9.81
5/20/2022 2:30:00 AM 12.59 54.662 0.097 7.13 2.82 9.82
5/20/2022 2:45:00 AM 12.51 54.518 0.097 7.13 2.87 9.84
5/20/2022 3:00:00 AM 12.44 54.392 0.097 7.13 2.79 9.85
5/20/2022 3:15:00 AM 12.37 54.266 0.097 7.13 2.85 9.87
5/20/2022 3:30:00 AM 12.3 54.14 0.097 7.12 2.85 9.89
5/20/2022 3:45:00 AM 12.23 54.014 0.097 7.12 2.76 9.91
5/20/2022 4:00:00 AM 12.17 53.906 0.097 7.12 2.76 9.92
5/20/2022 4:15:00 AM 12.1 53.78 0.097 7.12 2.76 9.94
5/20/2022 4:30:00 AM 12.03 53.654 0.097 7.12 2.75 9.96
5/20/2022 4:45:00 AM 11.96 53.528 0.097 7.12 2.91 9.98
5/20/2022 5:00:00 AM 11.89 53.402 0.097 7.12 2.83 9.99
5/20/2022 5:15:00 AM 11.83 53.294 0.097 7.12 2.82 10.01
5/20/2022 5:30:00 AM 11.76 53.168 0.097 7.11 2.83 10.02
5/20/2022 5:45:00 AM 11.7 53.06 0.097 7.12 2.76 10.05
5/20/2022 6:00:00 AM 11.63 52.934 0.097 7.12 2.74 10.08
5/20/2022 6:15:00 AM 11.58 52.844 0.097 7.13 2.71 10.14
5/20/2022 6:30:00 AM 11.54 52.772 0.097 7.14 2.66 10.2
5/20/2022 6:45:00 AM 11.51 52.718 0.097 7.15 2.6 10.23
5/20/2022 7:00:00 AM 11.48 52.664 0.097 7.15 2.56 10.23
5/20/2022 7:15:00 AM 11.46 52.628 0.097 7.16 2.52 10.28
5/20/2022 7:30:00 AM 11.45 52.61 0.097 7.18 2.52 10.35
5/20/2022 7:45:00 AM 11.48 52.664 0.097 7.21 2.46 10.49
5/20/2022 8:00:00 AM 11.5 52.7 0.097 7.24 2.45 10.56
5/20/2022 8:15:00 AM 11.53 52.754 0.097 7.26 2.52 10.61
5/20/2022 8:30:00 AM 11.56 52.808 0.097 7.28 2.45 10.63
5/20/2022 8:45:00 AM 11.59 52.862 0.097 7.28 2.36 10.62
5/20/2022 9:00:00 AM 11.65 52.97 0.097 7.31 2.38 10.67
5/20/2022 9:15:00 AM 11.76 53.168 0.097 7.35 2.4 10.75
5/20/2022 9:30:00 AM 11.88 53.384 0.096 7.38 2.4 10.78
5/20/2022 9:45:00 AM 12.04 53.672 0.096 7.41 2.31 10.82
5/20/2022 10:00:00 AM 12.15 53.87 0.096 7.44 2.42 10.8
5/20/2022 10:15:00 AM 12.34 54.212 0.096 7.46 2.3 10.77
5/20/2022 10:30:00 AM 12.49 54.482 0.096 7.49 2.33 10.76
5/20/2022 10:45:00 AM 12.62 54.716 0.096 7.53 2.23 10.76
5/20/2022 11:00:00 AM 12.73 54.914 0.096 7.55 2.34 10.75
5/20/2022 11:15:00 AM 12.87 55.166 0.096 7.57 2.34 10.74
5/20/2022 11:30:00 AM 13.07 55.526 0.096 7.6 2.24 10.73
5/20/2022 11:45:00 AM 13.26 55.868 0.096 7.62 2.33 10.7
5/20/2022 12:00:00 PM 13.49 56.282 0.095 7.64 2.3 10.67
5/20/2022 12:15:00 PM 13.71 56.678 0.095 7.66 2.31 10.63
5/20/2022 12:30:00 PM 13.94 57.092 0.095 7.67 2.18 10.59
5/20/2022 12:45:00 PM 14.01 57.218 0.095 7.62 2.26 10.48
5/20/2022 1:00:00 PM 14.14 57.452 0.095 7.61 2.26 10.41
5/20/2022 1:15:00 PM 14.22 57.596 0.095 7.57 2.23 10.33
5/20/2022 1:30:00 PM 14.51 58.118 0.095 7.61 2.34 10.39
5/20/2022 1:45:00 PM 14.7 58.46 0.095 7.64 2.3 10.35
5/20/2022 2:00:00 PM 14.89 58.802 0.095 7.66 2.3 10.34
5/20/2022 2:15:00 PM 14.94 58.892 0.095 7.62 2.33 10.2
5/20/2022 2:30:00 PM 14.99 58.982 0.095 7.6 2.26 10.14
5/20/2022 2:45:00 PM 15.06 59.108 0.095 7.61 2.29 10.16
5/20/2022 3:00:00 PM 15.11 59.198 0.095 7.61 2.32 10.12
5/20/2022 3:15:00 PM 15.12 59.216 0.095 7.6 2.28 10.12
5/20/2022 3:30:00 PM 15.18 59.324 0.09 7.61 6.26 10.11
5/20/2022 3:45:00 PM 15.23 59.414 0.091 7.59 6.15 10.07
5/20/2022 4:00:00 PM 15.26 59.468 0.09 7.56 6.22 10.01
5/20/2022 4:15:00 PM 15.27 59.486 0.095 7.53 2.32 9.92
5/20/2022 4:30:00 PM 15.27 59.486 0.095 7.52 2.28 9.93
5/20/2022 4:45:00 PM 15.23 59.414 0.095 7.49 2.25 9.88
5/20/2022 5:00:00 PM 15.22 59.396 0.095 7.48 2.41 9.88
5/20/2022 5:15:00 PM 15.25 59.45 0.095 7.5 2.28 9.94
5/20/2022 5:30:00 PM 15.26 59.468 0.095 7.51 2.3 9.93
5/20/2022 5:45:00 PM 15.25 59.45 0.095 7.49 2.24 9.9
5/20/2022 6:00:00 PM 15.2 59.36 0.095 7.43 2.3 9.78
5/20/2022 6:15:00 PM 15.14 59.252 0.095 7.38 2.29 9.71
5/20/2022 6:30:00 PM 15.08 59.144 0.09 7.33 6.24 9.64
5/20/2022 6:45:00 PM 15.02 59.036 0.095 7.31 2.32 9.6
5/20/2022 7:00:00 PM 14.97 58.946 0.095 7.29 2.38 9.58
5/20/2022 7:15:00 PM 14.93 58.874 0.095 7.27 2.43 9.58
5/20/2022 7:30:00 PM 14.89 58.802 0.091 7.26 6.42 9.59
5/20/2022 7:45:00 PM 14.85 58.73 0.096 7.25 4.77 9.57
5/20/2022 8:00:00 PM 14.81 58.658 0.096 7.24 2.38 9.54
5/20/2022 8:15:00 PM 14.76 58.568 0.096 7.23 2.33 9.51
5/20/2022 8:30:00 PM 14.7 58.46 0.096 7.22 2.45 9.47
5/20/2022 8:45:00 PM 14.64 58.352 0.096 7.2 2.52 9.45
5/20/2022 9:00:00 PM 14.59 58.262 0.096 7.19 2.53 9.42
5/20/2022 9:15:00 PM 14.55 58.19 0.096 7.17 2.6 9.42
5/20/2022 9:30:00 PM 14.51 58.118 0.096 7.18 2.56 9.42
5/20/2022 9:45:00 PM 14.46 58.028 0.096 7.17 2.65 9.42
5/20/2022 10:00:00 PM 14.39 57.902 0.096 7.16 2.66 9.44
5/20/2022 10:15:00 PM 14.33 57.794 0.097 7.16 2.71 9.45
5/20/2022 10:30:00 PM 14.26 57.668 0.097 7.15 2.73 9.46
5/20/2022 10:45:00 PM 14.19 57.542 0.097 7.15 2.76 9.48
5/20/2022 11:00:00 PM 14.11 57.398 0.097 7.14 2.57 9.49
5/20/2022 11:15:00 PM 14.04 57.272 0.097 7.14 2.72 9.5
5/20/2022 11:30:00 PM 13.98 57.164 0.097 7.12 2.7 9.52
5/20/2022 11:45:00 PM 13.93 57.074 0.097 7.12 2.61 9.52
5/21/2022 12:00:00 AM 13.88 56.984 0.097 7.13 2.62 9.55
5/21/2022 12:15:00 AM 13.84 56.912 0.097 7.13 2.65 9.55
5/21/2022 12:30:00 AM 13.79 56.822 0.097 7.13 2.71 9.57
5/21/2022 12:45:00 AM 13.74 56.732 0.097 7.12 2.68 9.59
5/21/2022 1:00:00 AM 13.68 56.624 0.097 7.11 2.63 9.59
5/21/2022 1:15:00 AM 13.62 56.516 0.097 7.1 2.67 9.61
5/21/2022 1:30:00 AM 13.57 56.426 0.097 7.09 2.6 9.62
5/21/2022 1:45:00 AM 13.53 56.354 0.097 7.09 2.57 9.63
5/21/2022 2:00:00 AM 13.48 56.264 0.097 7.08 2.6 9.64
5/21/2022 2:15:00 AM 13.44 56.192 0.097 7.08 2.63 9.65
5/21/2022 2:30:00 AM 13.4 56.12 0.097 7.08 2.61 9.66
5/21/2022 2:45:00 AM 13.36 56.048 0.097 7.08 2.63 9.67
5/21/2022 3:00:00 AM 13.33 55.994 0.097 7.07 2.57 9.68
5/21/2022 3:15:00 AM 13.3 55.94 0.097 7.08 2.65 9.68
5/21/2022 3:30:00 AM 13.27 55.886 0.097 7.08 2.72 9.69
5/21/2022 3:45:00 AM 13.25 55.85 0.097 7.08 2.52 9.7
5/21/2022 4:00:00 AM 13.22 55.796 0.098 7.08 2.6 9.71
5/21/2022 4:15:00 AM 13.2 55.76 0.098 7.08 2.64 9.72
5/21/2022 4:30:00 AM 13.18 55.724 0.098 7.08 2.58 9.72
5/21/2022 4:45:00 AM 13.16 55.688 0.098 7.07 2.61 9.72
5/21/2022 5:00:00 AM 13.14 55.652 0.098 7.07 2.54 9.73
5/21/2022 5:15:00 AM 13.13 55.634 0.098 7.07 2.59 9.73
5/21/2022 5:30:00 AM 13.11 55.598 0.093 7.05 6.51 9.74
5/21/2022 5:45:00 AM 13.09 55.562 0.098 7.06 2.56 9.75
5/21/2022 6:00:00 AM 13.07 55.526 0.098 7.06 2.6 9.76
5/21/2022 6:15:00 AM 13.05 55.49 0.098 7.07 2.55 9.79
5/21/2022 6:30:00 AM 13.04 55.472 0.098 7.08 2.37 9.84
5/21/2022 6:45:00 AM 13.03 55.454 0.098 7.09 2.44 9.89
5/21/2022 7:00:00 AM 13.03 55.454 0.098 7.12 2.46 9.96
5/21/2022 7:15:00 AM 13.03 55.454 0.098 7.15 2.33 10.03
5/21/2022 7:30:00 AM 13.05 55.49 0.098 7.18 2.32 10.12
5/21/2022 7:45:00 AM 13.08 55.544 0.098 7.21 2.26 10.21
5/21/2022 8:00:00 AM 13.12 55.616 0.097 7.25 2.3 10.3
5/21/2022 8:15:00 AM 13.18 55.724 0.097 7.29 2.25 10.36
5/21/2022 8:30:00 AM 13.24 55.832 0.097 7.31 2.24 10.4
5/21/2022 8:45:00 AM 13.31 55.958 0.097 7.33 2.21 10.4
5/21/2022 9:00:00 AM 13.4 56.12 0.097 7.36 2.17 10.42
5/21/2022 9:15:00 AM 13.53 56.354 0.097 7.38 2.21 10.43
5/21/2022 9:30:00 AM 13.69 56.642 0.097 7.41 2.22 10.44
5/21/2022 9:45:00 AM 13.88 56.984 0.097 7.44 2.26 10.44
5/21/2022 10:00:00 AM 14.1 57.38 0.097 7.47 2.26 10.43
5/21/2022 10:15:00 AM 14.34 57.812 0.097 7.5 2.15 10.4
5/21/2022 10:30:00 AM 14.62 58.316 0.097 7.52 2.09 10.38
5/21/2022 10:45:00 AM 14.89 58.802 0.097 7.55 2.01 10.35
5/21/2022 11:00:00 AM 15.2 59.36 0.097 7.58 2.05 10.31
5/21/2022 11:15:00 AM 15.51 59.918 0.097 7.61 2.09 10.27
5/21/2022 11:30:00 AM 15.87 60.566 0.097 7.64 2.07 10.23
5/21/2022 11:45:00 AM 16.22 61.196 0.097 7.66 2.06 10.19
5/21/2022 12:00:00 PM 16.49 61.682 0.097 7.68 2.18 10.12
5/21/2022 12:15:00 PM 16.84 62.312 0.097 7.71 2.07 10.1
5/21/2022 12:30:00 PM 17.15 62.87 0.097 7.73 6.17 10.04
5/21/2022 12:45:00 PM 17.51 63.518 0.097 7.76 2.04 10.01
5/21/2022 1:00:00 PM 17.77 63.986 0.097 7.77 2.08 9.93
5/21/2022 1:15:00 PM 18.02 64.436 0.097 7.79 1.99 9.89
5/21/2022 1:30:00 PM 18.29 64.922 0.096 7.81 2.12 9.85
5/21/2022 1:45:00 PM 18.53 65.354 0.096 7.84 2.07 9.81
5/21/2022 2:00:00 PM 18.72 65.696 0.096 7.84 2.07 9.76
5/21/2022 2:15:00 PM 18.96 66.128 0.096 7.87 1.99 9.72
5/21/2022 2:30:00 PM 19.17 66.506 0.096 7.88 2.04 9.69
5/21/2022 2:45:00 PM 19.41 66.938 0.096 7.91 2.01 9.66
5/21/2022 3:00:00 PM 19.67 67.406 0.096 7.93 2.13 9.63
5/21/2022 3:15:00 PM 19.73 67.514 0.096 7.89 2.01 9.56
5/21/2022 3:30:00 PM 19.89 67.802 0.096 7.93 2.01 9.55
5/21/2022 3:45:00 PM 20.01 68.018 0.096 7.9 1.97 9.48
5/21/2022 4:00:00 PM 20.19 68.342 0.096 7.92 2.09 9.47
5/21/2022 4:15:00 PM 20.27 68.486 0.096 7.89 2.01 9.41
5/21/2022 4:30:00 PM 20.32 68.576 0.096 7.86 1.98 9.35
5/21/2022 4:45:00 PM 20.31 68.558 0.096 7.82 2.03 9.3
5/21/2022 5:00:00 PM 20.31 68.558 0.096 7.8 2 9.27
5/21/2022 5:15:00 PM 20.3 68.54 0.097 7.78 2.05 9.24
5/21/2022 5:30:00 PM 20.27 68.486 0.097 7.73 2.06 9.19
5/21/2022 5:45:00 PM 20.18 68.324 0.097 7.69 2.08 9.15
5/21/2022 6:00:00 PM 20.08 68.144 0.097 7.62 2.07 9.07
5/21/2022 6:15:00 PM 19.97 67.946 0.097 7.56 2.1 9.01
5/21/2022 6:30:00 PM 19.83 67.694 0.097 7.51 2.04 8.96
5/21/2022 6:45:00 PM 19.72 67.496 0.097 7.47 2.04 8.92
5/21/2022 7:00:00 PM 19.56 67.208 0.097 7.41 2.11 8.85
5/21/2022 7:15:00 PM 19.38 66.884 0.097 7.36 2.15 8.79
5/21/2022 7:30:00 PM 19.24 66.632 0.097 7.32 2.27 8.73
5/21/2022 7:45:00 PM 19.09 66.362 0.098 7.28 2.23 8.67
5/21/2022 8:00:00 PM 18.94 66.092 0.098 7.24 2.31 8.63
5/21/2022 8:15:00 PM 18.81 65.858 0.098 7.21 2.22 8.62
5/21/2022 8:30:00 PM 18.68 65.624 0.098 7.19 2.26 8.6
5/21/2022 8:45:00 PM 18.56 65.408 0.098 7.17 2.32 8.59
5/21/2022 9:00:00 PM 18.43 65.174 0.098 7.16 2.37 8.6
5/21/2022 9:15:00 PM 18.31 64.958 0.098 7.14 2.45 8.61
5/21/2022 9:30:00 PM 18.18 64.724 0.098 7.13 2.47 8.62
5/21/2022 9:45:00 PM 18.07 64.526 0.098 7.12 2.49 8.64
5/21/2022 10:00:00 PM 17.97 64.346 0.098 7.1 6.43 8.66
5/21/2022 10:15:00 PM 17.85 64.13 0.098 7.1 2.47 8.68
5/21/2022 10:30:00 PM 17.74 63.932 0.098 7.1 2.52 8.7
5/21/2022 10:45:00 PM 17.63 63.734 0.099 7.1 2.49 8.72
5/21/2022 11:00:00 PM 17.53 63.554 0.099 7.1 2.58 8.75
5/21/2022 11:15:00 PM 17.42 63.356 0.099 7.09 2.57 8.76
5/21/2022 11:30:00 PM 17.32 63.176 0.099 7.09 2.57 8.78
5/21/2022 11:45:00 PM 17.22 62.996 0.099 7.09 2.55 8.81
5/22/2022 12:00:00 AM 17.13 62.834 0.099 7.1 2.54 8.82
5/22/2022 12:15:00 AM 17.04 62.672 0.099 7.11 2.5 8.85
5/22/2022 12:30:00 AM 16.95 62.51 0.099 7.1 2.46 8.86
5/22/2022 12:45:00 AM 16.85 62.33 0.099 7.1 2.47 8.88
5/22/2022 1:00:00 AM 16.76 62.168 0.099 7.1 2.53 8.91
5/22/2022 1:15:00 AM 16.67 62.006 0.099 7.1 2.55 8.92
5/22/2022 1:30:00 AM 16.57 61.826 0.099 7.1 2.46 8.94
5/22/2022 1:45:00 AM 16.48 61.664 0.099 7.1 2.61 8.96
5/22/2022 2:00:00 AM 16.4 61.52 0.099 7.09 2.48 8.98
5/22/2022 2:15:00 AM 16.31 61.358 0.099 7.1 2.48 8.99
5/22/2022 2:30:00 AM 16.22 61.196 0.099 7.09 2.46 9.01
5/22/2022 2:45:00 AM 16.13 61.034 0.099 7.1 2.48 9.03
5/22/2022 3:00:00 AM 16.05 60.89 0.099 7.1 2.41 9.04
5/22/2022 3:15:00 AM 15.96 60.728 0.099 7.11 2.58 9.06
5/22/2022 3:30:00 AM 15.88 60.584 0.099 7.1 6.43 9.07
5/22/2022 3:45:00 AM 15.8 60.44 0.099 7.11 2.43 9.09
5/22/2022 4:00:00 AM 15.72 60.296 0.099 7.1 2.47 9.1
5/22/2022 4:15:00 AM 15.64 60.152 0.099 7.11 2.56 9.12
5/22/2022 4:30:00 AM 15.57 60.026 0.099 7.1 2.75 9.13
5/22/2022 4:45:00 AM 15.49 59.882 0.099 7.1 2.62 9.15
5/22/2022 5:00:00 AM 15.41 59.738 0.099 7.1 2.47 9.16
5/22/2022 5:15:00 AM 15.34 59.612 0.099 7.11 2.49 9.18
5/22/2022 5:30:00 AM 15.26 59.468 0.099 7.11 2.49 9.21
5/22/2022 5:45:00 AM 15.18 59.324 0.099 7.1 2.47 9.22
5/22/2022 6:00:00 AM 15.11 59.198 0.099 7.1 6.35 9.26
5/22/2022 6:15:00 AM 15.05 59.09 0.099 7.12 2.29 9.32
5/22/2022 6:30:00 AM 14.98 58.964 0.099 7.13 2.24 9.39
5/22/2022 6:45:00 AM 14.93 58.874 0.099 7.16 2.23 9.47
5/22/2022 7:00:00 AM 14.9 58.82 0.099 7.19 2.19 9.58
5/22/2022 7:15:00 AM 14.89 58.802 0.099 7.22 2.15 9.68
5/22/2022 7:30:00 AM 14.87 58.766 0.099 7.24 2.12 9.73
5/22/2022 7:45:00 AM 14.84 58.712 0.099 7.25 2.12 9.73
5/22/2022 8:00:00 AM 14.81 58.658 0.099 7.27 1.99 9.75
5/22/2022 8:15:00 AM 14.84 58.712 0.099 7.29 2.09 9.86
5/22/2022 8:30:00 AM 14.9 58.82 0.099 7.34 1.98 9.94
5/22/2022 8:45:00 AM 14.94 58.892 0.099 7.36 1.96 10
5/22/2022 9:00:00 AM 14.98 58.964 0.098 7.38 2 10.06
5/22/2022 9:15:00 AM 15.03 59.054 0.094 7.42 6.05 10.13
5/22/2022 9:30:00 AM 15.13 59.234 0.098 7.47 1.98 10.16
5/22/2022 9:45:00 AM 15.27 59.486 0.098 7.52 2.03 10.21
5/22/2022 10:00:00 AM 15.43 59.774 0.098 7.59 1.99 10.26
5/22/2022 10:15:00 AM 15.48 59.864 0.098 7.62 1.92 10.26
5/22/2022 10:30:00 AM 15.61 60.098 0.098 7.67 1.96 10.32
5/22/2022 10:45:00 AM 15.77 60.386 0.098 7.74 1.93 10.35
5/22/2022 11:00:00 AM 16 60.8 0.098 7.8 1.93 10.35
5/22/2022 11:15:00 AM 16.23 61.214 0.098 7.82 1.96 10.3
5/22/2022 11:30:00 AM 16.48 61.664 0.098 7.82 2 10.23
5/22/2022 11:45:00 AM 16.72 62.096 0.098 7.82 1.96 10.19
5/22/2022 12:00:00 PM 17 62.6 0.098 7.87 1.89 10.18
5/22/2022 12:15:00 PM 17.36 63.248 0.098 7.94 1.96 10.19
5/22/2022 12:30:00 PM 17.64 63.752 0.098 7.96 1.94 10.12
5/22/2022 12:45:00 PM 17.82 64.076 0.098 7.95 1.97 10.03
5/22/2022 1:00:00 PM 18.02 64.436 0.098 7.96 1.9 9.98
5/22/2022 1:15:00 PM 18.23 64.814 0.098 7.98 1.93 9.94
5/22/2022 1:30:00 PM 18.53 65.354 0.098 8.03 1.96 9.94
5/22/2022 1:45:00 PM 18.64 65.552 0.098 8 1.92 9.85
5/22/2022 2:00:00 PM 18.7 65.66 0.098 7.95 1.97 9.73
5/22/2022 2:15:00 PM 18.77 65.786 0.098 7.81 1.94 9.59
5/22/2022 2:30:00 PM 19 66.2 0.098 7.89 1.93 9.67
5/22/2022 2:45:00 PM 19.19 66.542 0.098 7.93 1.98 9.68
5/22/2022 3:00:00 PM 19.3 66.74 0.098 7.93 1.93 9.62
5/22/2022 3:15:00 PM 19.43 66.974 0.098 7.99 1.88 9.66
5/22/2022 3:30:00 PM 19.48 67.064 0.097 8 1.84 9.64
5/22/2022 3:45:00 PM 19.68 67.424 0.098 8.05 1.86 9.64
5/22/2022 4:00:00 PM 19.83 67.694 0.098 8.07 1.83 9.63
5/22/2022 4:15:00 PM 19.86 67.748 0.098 8.06 1.84 9.59
5/22/2022 4:30:00 PM 19.85 67.73 0.098 8.06 1.94 9.58
5/22/2022 4:45:00 PM 19.73 67.514 0.098 7.96 1.85 9.47
5/22/2022 5:00:00 PM 19.58 67.244 0.098 7.74 1.91 9.19
5/22/2022 5:15:00 PM 19.44 66.992 0.098 7.58 1.98 9.02
5/22/2022 5:30:00 PM 19.3 66.74 0.098 7.49 2.08 8.94
5/22/2022 5:45:00 PM 19.2 66.56 0.098 7.46 2.02 8.9
5/22/2022 6:00:00 PM 19.11 66.398 0.098 7.47 2.02 9.01
5/22/2022 6:15:00 PM 19.02 66.236 0.098 7.46 1.99 9.03
5/22/2022 6:30:00 PM 18.94 66.092 0.098 7.44 2.08 9
5/22/2022 6:45:00 PM 18.86 65.948 0.098 7.39 2.04 8.89
5/22/2022 7:00:00 PM 18.77 65.786 0.099 7.36 1.98 8.86
5/22/2022 7:15:00 PM 18.67 65.606 0.099 7.34 1.99 8.85
5/22/2022 7:30:00 PM 18.55 65.39 0.099 7.32 2.03 8.82
5/22/2022 7:45:00 PM 18.43 65.174 0.099 7.29 1.97 8.78
5/22/2022 8:00:00 PM 18.3 64.94 0.099 7.27 2.04 8.75
5/22/2022 8:15:00 PM 18.19 64.742 0.099 7.25 2.05 8.75
5/22/2022 8:30:00 PM 18.07 64.526 0.099 7.22 6.07 8.74
5/22/2022 8:45:00 PM 17.97 64.346 0.099 7.22 2.04 8.72
5/22/2022 9:00:00 PM 17.85 64.13 0.099 7.21 2.13 8.73
5/22/2022 9:15:00 PM 17.75 63.95 0.099 7.2 2.18 8.73
5/22/2022 9:30:00 PM 17.64 63.752 0.1 7.2 2.22 8.74
5/22/2022 9:45:00 PM 17.52 63.536 0.1 7.19 2.19 8.76
5/22/2022 10:00:00 PM 17.42 63.356 0.1 7.19 2.32 8.78
5/22/2022 10:15:00 PM 17.31 63.158 0.1 7.19 2.23 8.81
5/22/2022 10:30:00 PM 17.2 62.96 0.1 7.19 2.16 8.82
5/22/2022 10:45:00 PM 17.09 62.762 0.1 7.19 2.25 8.85
5/22/2022 11:00:00 PM 16.97 62.546 0.1 7.19 2.25 8.88
5/22/2022 11:15:00 PM 16.85 62.33 0.1 7.18 2.23 8.9
5/22/2022 11:30:00 PM 16.72 62.096 0.1 7.19 2.31 8.93
5/22/2022 11:45:00 PM 16.59 61.862 0.1 7.18 2.27 8.96
5/23/2022 12:00:00 AM 16.45 61.61 0.1 7.18 2.24 8.98
5/23/2022 12:15:00 AM 16.31 61.358 0.1 7.18 2.27 9.01
5/23/2022 12:30:00 AM 16.17 61.106 0.1 7.17 2.25 9.04
5/23/2022 12:45:00 AM 16.03 60.854 0.1 7.18 2.22 9.07
5/23/2022 1:00:00 AM 15.89 60.602 0.1 7.18 2.4 9.1
5/23/2022 1:15:00 AM 15.75 60.35 0.1 7.17 2.23 9.13
5/23/2022 1:30:00 AM 15.62 60.116 0.1 7.17 2.18 9.16
5/23/2022 1:45:00 AM 15.48 59.864 0.1 7.17 2.23 9.19
5/23/2022 2:00:00 AM 15.36 59.648 0.1 7.17 2.27 9.21
5/23/2022 2:15:00 AM 15.24 59.432 0.1 7.18 2.21 9.24
5/23/2022 2:30:00 AM 15.14 59.252 0.1 7.17 2.24 9.27
5/23/2022 2:45:00 AM 15.03 59.054 0.1 7.17 6.37 9.29
5/23/2022 3:00:00 AM 14.92 58.856 0.1 7.17 2.2 9.32
5/23/2022 3:15:00 AM 14.83 58.694 0.1 7.18 2.2 9.34
5/23/2022 3:30:00 AM 14.74 58.532 0.1 7.17 2.25 9.36
5/23/2022 3:45:00 AM 14.65 58.37 0.1 7.18 2.23 9.39
5/23/2022 4:00:00 AM 14.52 58.136 0.101 7.18 2.1 9.42
5/23/2022 4:15:00 AM 14.41 57.938 0.101 7.18 2.09 9.45
5/23/2022 4:30:00 AM 14.3 57.74 0.101 7.17 6.49 9.48
5/23/2022 4:45:00 AM 14.18 57.524 0.101 7.18 2.21 9.51
5/23/2022 5:00:00 AM 14.07 57.326 0.101 7.17 2.12 9.54
5/23/2022 5:15:00 AM 14 57.2 0.101 7.17 3.2 9.55
5/23/2022 5:30:00 AM 13.94 57.092 0.101 7.18 2.29 9.58
5/23/2022 5:45:00 AM 13.88 56.984 0.101 7.17 2.13 9.59
5/23/2022 6:00:00 AM 13.82 56.876 0.101 7.18 2.1 9.62
5/23/2022 6:15:00 AM 13.77 56.786 0.101 7.19 1.96 9.66
5/23/2022 6:30:00 AM 13.7 56.66 0.101 7.2 2.1 9.71
5/23/2022 6:45:00 AM 13.64 56.552 0.101 7.22 2 9.79
5/23/2022 7:00:00 AM 13.58 56.444 0.101 7.25 1.93 9.89
5/23/2022 7:15:00 AM 13.54 56.372 0.101 7.28 1.99 10
5/23/2022 7:30:00 AM 13.51 56.318 0.101 7.31 1.94 10.11
5/23/2022 7:45:00 AM 13.49 56.282 0.101 7.34 1.87 10.2
5/23/2022 8:00:00 AM 13.46 56.228 0.101 7.36 1.83 10.27
5/23/2022 8:15:00 AM 13.46 56.228 0.101 7.4 1.87 10.33
5/23/2022 8:30:00 AM 13.54 56.372 0.101 7.45 1.88 10.44
5/23/2022 8:45:00 AM 13.52 56.336 0.101 7.47 1.88 10.45
5/23/2022 9:00:00 AM 13.57 56.426 0.1 7.51 1.84 10.53
5/23/2022 9:15:00 AM 13.62 56.516 0.1 7.54 1.79 10.55
5/23/2022 9:30:00 AM 13.75 56.75 0.1 7.58 6.23 10.6
5/23/2022 9:45:00 AM 13.95 57.11 0.1 7.63 5.92 10.65
5/23/2022 10:00:00 AM 14.1 57.38 0.1 7.69 1.83 10.68
5/23/2022 10:15:00 AM 14.24 57.632 0.1 7.73 1.79 10.68
5/23/2022 10:30:00 AM 14.38 57.884 0.1 7.76 1.82 10.66
5/23/2022 10:45:00 AM 14.54 58.172 0.1 7.8 1.8 10.66
5/23/2022 11:00:00 AM 14.76 58.568 0.1 7.86 1.78 10.67
5/23/2022 11:15:00 AM 14.94 58.892 0.1 7.92 1.85 10.67
5/23/2022 11:30:00 AM 15.06 59.108 0.1 7.96 1.77 10.67
5/23/2022 11:45:00 AM 15.22 59.396 0.1 8.03 1.78 10.68
5/23/2022 12:00:00 PM 15.46 59.828 0.099 8.1 1.81 10.68
5/23/2022 12:15:00 PM 15.59 60.062 0.099 8.14 1.78 10.65
5/23/2022 12:30:00 PM 15.75 60.35 0.099 8.19 1.75 10.65
5/23/2022 12:45:00 PM 15.85 60.53 0.099 8.21 1.82 10.62
5/23/2022 1:00:00 PM 16.04 60.872 0.099 8.26 1.77 10.6
5/23/2022 1:15:00 PM 16.21 61.178 0.099 8.29 1.77 10.58
5/23/2022 1:30:00 PM 16.34 61.412 0.099 8.31 1.78 10.55
5/23/2022 1:45:00 PM 16.47 61.646 0.099 8.33 1.73 10.52
5/23/2022 2:00:00 PM 16.54 61.772 0.099 8.34 1.7 10.5
5/23/2022 2:15:00 PM 16.63 61.934 0.099 8.36 1.78 10.48
5/23/2022 2:30:00 PM 16.7 62.06 0.099 8.37 5.74 10.46
5/23/2022 2:45:00 PM 16.74 62.132 0.099 8.38 1.86 10.45
5/23/2022 3:00:00 PM 16.82 62.276 0.099 8.4 1.95 10.42
5/23/2022 3:15:00 PM 16.87 62.366 0.099 8.38 1.83 10.38
5/23/2022 3:30:00 PM 16.85 62.33 0.099 8.36 1.75 10.34
5/23/2022 3:45:00 PM 16.81 62.258 0.099 8.33 1.79 10.3
5/23/2022 4:00:00 PM 16.79 62.222 0.099 8.3 1.75 10.29
5/23/2022 4:15:00 PM 16.79 62.222 0.099 8.3 1.73 10.28
5/23/2022 4:30:00 PM 16.79 62.222 0.099 8.28 1.81 10.26
5/23/2022 4:45:00 PM 16.77 62.186 0.099 8.26 1.76 10.24
5/23/2022 5:00:00 PM 16.74 62.132 0.099 8.2 1.76 10.19
5/23/2022 5:15:00 PM 16.72 62.096 0.099 8.14 1.78 10.14
5/23/2022 5:30:00 PM 16.68 62.024 0.099 8.06 1.79 10.08
5/23/2022 5:45:00 PM 16.63 61.934 0.099 7.96 1.7 10.01
5/23/2022 6:00:00 PM 16.58 61.844 0.099 7.87 1.76 9.96
5/23/2022 6:15:00 PM 16.52 61.736 0.099 7.77 1.76 9.87
5/23/2022 6:30:00 PM 16.45 61.61 0.099 7.66 1.89 9.76
5/23/2022 6:45:00 PM 16.37 61.466 0.099 7.59 1.76 9.67
5/23/2022 7:00:00 PM 16.28 61.304 0.1 7.51 1.78 9.59
5/23/2022 7:15:00 PM 16.19 61.142 0.1 7.46 5.85 9.54
5/23/2022 7:30:00 PM 16.1 60.98 0.1 7.42 1.9 9.49
5/23/2022 7:45:00 PM 16 60.8 0.1 7.4 5.85 9.43
5/23/2022 8:00:00 PM 15.91 60.638 0.1 7.35 1.81 9.36
5/23/2022 8:15:00 PM 15.81 60.458 0.1 7.32 2.04 9.31
5/23/2022 8:30:00 PM 15.71 60.278 0.1 7.29 1.87 9.27
5/23/2022 8:45:00 PM 15.61 60.098 0.101 7.27 1.85 9.25
5/23/2022 9:00:00 PM 15.51 59.918 0.101 7.25 1.99 9.24
5/23/2022 9:15:00 PM 15.41 59.738 0.101 7.24 2.02 9.24
5/23/2022 9:30:00 PM 15.31 59.558 0.101 7.23 1.97 9.24
5/23/2022 9:45:00 PM 15.22 59.396 0.101 7.22 2.02 9.26
5/23/2022 10:00:00 PM 15.12 59.216 0.101 7.21 1.96 9.28
5/23/2022 10:15:00 PM 15.03 59.054 0.101 7.2 1.99 9.3
5/23/2022 10:30:00 PM 14.95 58.91 0.101 7.2 1.95 9.31
5/23/2022 10:45:00 PM 14.86 58.748 0.101 7.2 2.01 9.33
5/23/2022 11:00:00 PM 14.77 58.586 0.101 7.19 2 9.35
5/23/2022 11:15:00 PM 14.7 58.46 0.101 7.19 2.09 9.36
5/23/2022 11:30:00 PM 14.61 58.298 0.101 7.19 1.97 9.38
5/23/2022 11:45:00 PM 14.54 58.172 0.101 7.18 1.94 9.4
5/24/2022 12:00:00 AM 14.46 58.028 0.101 7.18 2.05 9.42
5/24/2022 12:15:00 AM 14.39 57.902 0.101 7.18 2.09 9.44
5/24/2022 12:30:00 AM 14.32 57.776 0.101 7.18 1.99 9.46
5/24/2022 12:45:00 AM 14.24 57.632 0.101 7.18 2.07 9.47
5/24/2022 1:00:00 AM 14.18 57.524 0.101 7.18 2.01 9.5
5/24/2022 1:15:00 AM 14.11 57.398 0.102 7.18 1.99 9.51
5/24/2022 1:30:00 AM 14.04 57.272 0.102 7.18 1.89 9.52
5/24/2022 1:45:00 AM 13.97 57.146 0.102 7.18 1.92 9.54
5/24/2022 2:00:00 AM 13.9 57.02 0.102 7.18 1.93 9.55
5/24/2022 2:15:00 AM 13.82 56.876 0.102 7.18 1.96 9.57
5/24/2022 2:30:00 AM 13.74 56.732 0.102 7.17 2.06 9.59
5/24/2022 2:45:00 AM 13.65 56.57 0.102 7.18 2.11 9.61
5/24/2022 3:00:00 AM 13.57 56.426 0.102 7.18 2.01 9.63
5/24/2022 3:15:00 AM 13.48 56.264 0.102 7.18 1.96 9.64
5/24/2022 3:30:00 AM 13.39 56.102 0.102 7.18 1.97 9.66
5/24/2022 3:45:00 AM 13.31 55.958 0.102 7.18 1.97 9.68
5/24/2022 4:00:00 AM 13.23 55.814 0.102 7.17 1.99 9.7
5/24/2022 4:15:00 AM 13.15 55.67 0.102 7.18 1.93 9.72
5/24/2022 4:30:00 AM 13.07 55.526 0.102 7.17 1.99 9.74
5/24/2022 4:45:00 AM 12.99 55.382 0.102 7.18 2.02 9.76
5/24/2022 5:00:00 AM 12.91 55.238 0.102 7.18 1.94 9.78
5/24/2022 5:15:00 AM 12.84 55.112 0.102 7.18 1.97 9.79
5/24/2022 5:30:00 AM 12.77 54.986 0.102 7.17 1.93 9.81
5/24/2022 5:45:00 AM 12.72 54.896 0.102 7.18 1.95 9.83
5/24/2022 6:00:00 AM 12.68 54.824 0.102 7.18 1.96 9.87
5/24/2022 6:15:00 AM 12.64 54.752 0.102 7.19 1.9 9.92
5/24/2022 6:30:00 AM 12.61 54.698 0.102 7.21 1.89 9.99
5/24/2022 6:45:00 AM 12.6 54.68 0.102 7.24 1.8 10.09
5/24/2022 7:00:00 AM 12.59 54.662 0.102 7.26 1.77 10.17
5/24/2022 7:15:00 AM 12.59 54.662 0.102 7.28 1.81 10.24
5/24/2022 7:30:00 AM 12.58 54.644 0.102 7.31 1.82 10.3
5/24/2022 7:45:00 AM 12.58 54.644 0.102 7.32 1.75 10.34
5/24/2022 8:00:00 AM 12.58 54.644 0.101 7.34 1.76 10.36
5/24/2022 8:15:00 AM 12.58 54.644 0.102 7.35 1.76 10.4
5/24/2022 8:30:00 AM 12.58 54.644 0.101 7.37 1.73 10.43
5/24/2022 8:45:00 AM 12.59 54.662 0.101 7.39 1.67 10.48
5/24/2022 9:00:00 AM 12.61 54.698 0.101 7.42 1.69 10.56
5/24/2022 9:15:00 AM 12.62 54.716 0.101 7.45 1.71 10.64
5/24/2022 9:30:00 AM 12.65 54.77 0.101 7.5 1.68 10.72
5/24/2022 9:45:00 AM 12.69 54.842 0.101 7.55 1.65 10.8
5/24/2022 10:00:00 AM 12.74 54.932 0.101 7.61 1.76 10.87
5/24/2022 10:15:00 AM 12.81 55.058 0.101 7.69 1.74 10.97
5/24/2022 10:30:00 AM 12.91 55.238 0.1 7.77 1.71 11.05
5/24/2022 10:45:00 AM 13.02 55.436 0.1 7.87 1.74 11.1
5/24/2022 11:00:00 AM 13.11 55.598 0.1 7.91 5.92 11.11
5/24/2022 11:15:00 AM 13.17 55.706 0.1 7.95 1.63 11.09
5/24/2022 11:30:00 AM 13.22 55.796 0.095 7.95 5.9 11.04
5/24/2022 11:45:00 AM 13.28 55.904 0.1 7.96 1.67 11.01
5/24/2022 12:00:00 PM 13.35 56.03 0.1 7.99 1.66 11.01
5/24/2022 12:15:00 PM 13.4 56.12 0.1 8 1.65 10.99
5/24/2022 12:30:00 PM 13.54 56.372 0.1 8.08 1.66 11.06
5/24/2022 12:45:00 PM 13.74 56.732 0.1 8.18 1.76 11.11
5/24/2022 1:00:00 PM 13.89 57.002 0.1 8.25 1.66 11.11
5/24/2022 1:15:00 PM 14.03 57.254 0.1 8.3 1.66 11.08
5/24/2022 1:30:00 PM 14.13 57.434 0.1 8.29 1.81 11.01
5/24/2022 1:45:00 PM 14.2 57.56 0.099 8.25 1.66 10.91
5/24/2022 2:00:00 PM 14.26 57.668 0.099 8.24 1.7 10.88
5/24/2022 2:15:00 PM 14.3 57.74 0.099 8.21 1.72 10.84
5/24/2022 2:30:00 PM 14.33 57.794 0.1 8.17 1.76 10.77
5/24/2022 2:45:00 PM 14.29 57.722 0.1 7.98 1.63 10.59
5/24/2022 3:00:00 PM 14.24 57.632 0.1 7.82 1.71 10.44
5/24/2022 3:15:00 PM 14.21 57.578 0.1 7.71 1.74 10.33
5/24/2022 3:30:00 PM 14.22 57.596 0.1 7.66 1.67 10.3
5/24/2022 3:45:00 PM 14.23 57.614 0.1 7.65 1.67 10.31
5/24/2022 4:00:00 PM 14.24 57.632 0.1 7.67 1.75 10.37
5/24/2022 4:15:00 PM 14.25 57.65 0.1 7.73 1.74 10.46
5/24/2022 4:30:00 PM 14.26 57.668 0.1 7.78 1.68 10.53
5/24/2022 4:45:00 PM 14.27 57.686 0.099 7.84 1.67 10.59
5/24/2022 5:00:00 PM 14.28 57.704 0.099 7.87 1.61 10.61
5/24/2022 5:15:00 PM 14.28 57.704 0.099 7.86 1.72 10.56
5/24/2022 5:30:00 PM 14.25 57.65 0.1 7.73 5.89 10.41
5/24/2022 5:45:00 PM 14.24 57.632 0.1 7.68 1.66 10.35
5/24/2022 6:00:00 PM 14.21 57.578 0.1 7.62 1.75 10.27
5/24/2022 6:15:00 PM 14.18 57.524 0.1 7.57 1.74 10.19
5/24/2022 6:30:00 PM 14.15 57.47 0.1 7.52 1.72 10.13
5/24/2022 6:45:00 PM 14.13 57.434 0.1 7.49 1.73 10.09
5/24/2022 7:00:00 PM 14.1 57.38 0.1 7.44 1.77 10
5/24/2022 7:15:00 PM 14.07 57.326 0.1 7.42 1.89 9.97
5/24/2022 7:30:00 PM 14.05 57.29 0.1 7.39 1.83 9.91
5/24/2022 7:45:00 PM 14.02 57.236 0.101 7.36 1.9 9.85
5/24/2022 8:00:00 PM 13.99 57.182 0.101 7.32 1.86 9.79
5/24/2022 8:15:00 PM 13.96 57.128 0.101 7.29 1.88 9.74
5/24/2022 8:30:00 PM 13.92 57.056 0.101 7.27 1.87 9.71
5/24/2022 8:45:00 PM 13.88 56.984 0.101 7.25 1.86 9.68
5/24/2022 9:00:00 PM 13.85 56.93 0.101 7.23 1.89 9.66
5/24/2022 9:15:00 PM 13.81 56.858 0.101 7.22 1.93 9.65
5/24/2022 9:30:00 PM 13.78 56.804 0.102 7.22 1.9 9.65
5/24/2022 9:45:00 PM 13.74 56.732 0.102 7.21 1.93 9.65
5/24/2022 10:00:00 PM 13.7 56.66 0.102 7.21 1.98 9.65
5/24/2022 10:15:00 PM 13.67 56.606 0.102 7.2 1.9 9.66
5/24/2022 10:30:00 PM 13.63 56.534 0.102 7.19 1.98 9.67
5/24/2022 10:45:00 PM 13.59 56.462 0.102 7.19 1.98 9.67
5/24/2022 11:00:00 PM 13.55 56.39 0.102 7.2 1.89 9.68
5/24/2022 11:15:00 PM 13.52 56.336 0.102 7.18 6.24 9.69
5/24/2022 11:30:00 PM 13.47 56.246 0.102 7.19 1.92 9.7
5/24/2022 11:45:00 PM 13.43 56.174 0.102 7.18 1.98 9.7
5/25/2022 12:00:00 AM 13.4 56.12 0.102 7.18 1.86 9.71
5/25/2022 12:15:00 AM 13.36 56.048 0.102 7.18 1.94 9.72
5/25/2022 12:30:00 AM 13.33 55.994 0.102 7.18 1.95 9.73
5/25/2022 12:45:00 AM 13.29 55.922 0.102 7.18 1.91 9.74
5/25/2022 1:00:00 AM 13.26 55.868 0.103 7.18 1.89 9.75
5/25/2022 1:15:00 AM 13.21 55.778 0.103 7.18 1.93 9.76
5/25/2022 1:30:00 AM 13.16 55.688 0.103 7.17 1.87 9.77
5/25/2022 1:45:00 AM 13.11 55.598 0.103 7.17 1.87 9.78
5/25/2022 2:00:00 AM 13.06 55.508 0.103 7.17 2.59 9.79
5/25/2022 2:15:00 AM 13.01 55.418 0.103 7.17 1.9 9.8
5/25/2022 2:30:00 AM 12.95 55.31 0.103 7.18 1.91 9.81
5/25/2022 2:45:00 AM 12.89 55.202 0.103 7.17 1.93 9.83
5/25/2022 3:00:00 AM 12.84 55.112 0.103 7.17 1.9 9.84
5/25/2022 3:15:00 AM 12.79 55.022 0.103 7.17 1.98 9.86
5/25/2022 3:30:00 AM 12.74 54.932 0.103 7.18 1.9 9.87
5/25/2022 3:45:00 AM 12.69 54.842 0.103 7.17 1.89 9.88
5/25/2022 4:00:00 AM 12.65 54.77 0.103 7.18 1.83 9.9
5/25/2022 4:15:00 AM 12.6 54.68 0.103 7.18 1.88 9.9
5/25/2022 4:30:00 AM 12.55 54.59 0.103 7.18 1.89 9.92
5/25/2022 4:45:00 AM 12.5 54.5 0.103 7.18 1.8 9.92
5/25/2022 5:00:00 AM 12.46 54.428 0.103 7.18 1.86 9.94
5/25/2022 5:15:00 AM 12.42 54.356 0.103 7.18 2.02 9.95
5/25/2022 5:30:00 AM 12.39 54.302 0.103 7.17 1.92 9.96
5/25/2022 5:45:00 AM 12.36 54.248 0.103 7.17 1.83 9.98
5/25/2022 6:00:00 AM 12.33 54.194 0.103 7.19 1.89 10
5/25/2022 6:15:00 AM 12.32 54.176 0.103 7.19 1.72 10.04
5/25/2022 6:30:00 AM 12.3 54.14 0.103 7.2 1.79 10.08
5/25/2022 6:45:00 AM 12.28 54.104 0.103 7.21 1.79 10.15
5/25/2022 7:00:00 AM 12.28 54.104 0.103 7.24 1.71 10.25
5/25/2022 7:15:00 AM 12.28 54.104 0.103 7.28 1.72 10.4
5/25/2022 7:30:00 AM 12.3 54.14 0.103 7.31 1.74 10.53
5/25/2022 7:45:00 AM 12.35 54.23 0.102 7.39 1.78 10.72
5/25/2022 8:00:00 AM 12.41 54.338 0.102 7.45 1.73 10.86
5/25/2022 8:15:00 AM 12.46 54.428 0.102 7.52 1.75 10.92
5/25/2022 8:30:00 AM 12.52 54.536 0.102 7.57 1.71 10.97
5/25/2022 8:45:00 AM 12.55 54.59 0.102 7.62 1.77 11
5/25/2022 9:00:00 AM 12.61 54.698 0.102 7.68 1.67 11.09
5/25/2022 9:15:00 AM 12.71 54.878 0.102 7.78 1.65 11.16
5/25/2022 9:30:00 AM 12.87 55.166 0.101 7.88 1.66 11.23
5/25/2022 9:45:00 AM 13.01 55.418 0.101 7.97 1.72 11.26
5/25/2022 10:00:00 AM 13.27 55.886 0.101 8.04 1.76 11.25
5/25/2022 10:15:00 AM 13.46 56.228 0.101 8.08 1.62 11.2
5/25/2022 10:30:00 AM 13.65 56.57 0.101 8.1 1.6 11.16
5/25/2022 10:45:00 AM 13.91 57.038 0.101 8.16 1.74 11.15
5/25/2022 11:00:00 AM 14.21 57.578 0.101 8.23 1.69 11.13
5/25/2022 11:15:00 AM 14.51 58.118 0.101 8.25 1.73 11.04
5/25/2022 11:30:00 AM 14.75 58.55 0.101 8.23 1.73 10.95
5/25/2022 11:45:00 AM 14.99 58.982 0.101 8.25 1.81 10.9
5/25/2022 12:00:00 PM 15.25 59.45 0.101 8.29 1.71 10.87
5/25/2022 12:15:00 PM 15.56 60.008 0.101 8.34 1.68 10.85
5/25/2022 12:30:00 PM 15.87 60.566 0.101 8.43 1.68 10.86
5/25/2022 12:45:00 PM 16.11 60.998 0.101 8.51 1.76 10.84
5/25/2022 1:00:00 PM 16.3 61.34 0.101 8.59 1.73 10.83
5/25/2022 1:15:00 PM 16.61 61.898 0.101 8.65 1.76 10.82
5/25/2022 1:30:00 PM 16.83 62.294 0.101 8.66 1.72 10.76
5/25/2022 1:45:00 PM 17.05 62.69 0.101 8.67 1.73 10.7
5/25/2022 2:00:00 PM 17.21 62.978 0.101 8.69 1.79 10.68
5/25/2022 2:15:00 PM 17.36 63.248 0.101 8.71 1.86 10.65
5/25/2022 2:30:00 PM 17.56 63.608 0.101 8.73 1.82 10.61
5/25/2022 2:45:00 PM 17.7 63.86 0.101 8.75 1.74 10.57
5/25/2022 3:00:00 PM 17.8 64.04 0.101 8.75 1.8 10.53
5/25/2022 3:15:00 PM 17.89 64.202 0.101 8.74 5.71 10.49
5/25/2022 3:30:00 PM 17.96 64.328 0.101 8.73 1.72 10.42
5/25/2022 3:45:00 PM 18.11 64.598 0.1 8.72 5.82 10.39
5/25/2022 4:00:00 PM 18.2 64.76 0.1 8.72 1.73 10.34
5/25/2022 4:15:00 PM 18.32 64.976 0.1 8.67 1.75 10.26
5/25/2022 4:30:00 PM 18.38 65.084 0.1 8.63 1.64 10.18
5/25/2022 4:45:00 PM 18.39 65.102 0.1 8.59 1.66 10.14
5/25/2022 5:00:00 PM 18.35 65.03 0.101 8.52 1.62 10.08
5/25/2022 5:15:00 PM 18.3 64.94 0.101 8.44 1.8 10
5/25/2022 5:30:00 PM 18.23 64.814 0.101 8.36 1.66 9.94
5/25/2022 5:45:00 PM 18.13 64.634 0.101 8.27 1.66 9.89
5/25/2022 6:00:00 PM 17.99 64.382 0.101 8.15 1.69 9.82
5/25/2022 6:15:00 PM 17.88 64.184 0.101 8.02 1.9 9.74
5/25/2022 6:30:00 PM 17.74 63.932 0.101 7.9 1.79 9.66
5/25/2022 6:45:00 PM 17.63 63.734 0.101 7.76 1.82 9.55
5/25/2022 7:00:00 PM 17.51 63.518 0.101 7.67 1.78 9.49
5/25/2022 7:15:00 PM 17.36 63.248 0.101 7.6 1.86 9.44
5/25/2022 7:30:00 PM 17.24 63.032 0.101 7.53 1.77 9.37
5/25/2022 7:45:00 PM 17.13 62.834 0.102 7.47 1.87 9.3
5/25/2022 8:00:00 PM 17.01 62.618 0.102 7.42 1.86 9.21
5/25/2022 8:15:00 PM 16.9 62.42 0.102 7.36 1.78 9.14
5/25/2022 8:30:00 PM 16.8 62.24 0.102 7.31 1.88 9.06
5/25/2022 8:45:00 PM 16.7 62.06 0.102 7.27 1.86 9.01
5/25/2022 9:00:00 PM 16.61 61.898 0.102 7.24 1.86 8.97
5/25/2022 9:15:00 PM 16.51 61.718 0.102 7.24 1.92 8.97
5/25/2022 9:30:00 PM 16.4 61.52 0.103 7.2 2.12 8.96
5/25/2022 9:45:00 PM 16.3 61.34 0.103 7.2 2.02 8.97
5/25/2022 10:00:00 PM 16.19 61.142 0.103 7.19 1.87 8.99
5/25/2022 10:15:00 PM 16.1 60.98 0.103 7.18 1.98 9
5/25/2022 10:30:00 PM 16.02 60.836 0.103 7.18 1.95 9.02
5/25/2022 10:45:00 PM 15.95 60.71 0.103 7.17 2.01 9.03
5/25/2022 11:00:00 PM 15.86 60.548 0.103 7.17 1.91 9.05
5/25/2022 11:15:00 PM 15.79 60.422 0.103 7.17 1.98 9.06
5/25/2022 11:30:00 PM 15.7 60.26 0.103 7.16 1.97 9.08
5/25/2022 11:45:00 PM 15.62 60.116 0.103 7.17 1.94 9.09
5/26/2022 12:00:00 AM 15.55 59.99 0.104 7.18 2.07 9.11
5/26/2022 12:15:00 AM 15.47 59.846 0.104 7.15 6.22 9.13
5/26/2022 12:30:00 AM 15.4 59.72 0.104 7.17 1.98 9.15
5/26/2022 12:45:00 AM 15.31 59.558 0.104 7.17 1.96 9.17
5/26/2022 1:00:00 AM 15.23 59.414 0.104 7.18 2.03 9.19
5/26/2022 1:15:00 AM 15.15 59.27 0.104 7.18 1.98 9.21
5/26/2022 1:30:00 AM 15.08 59.144 0.104 7.18 2.06 9.22
5/26/2022 1:45:00 AM 15 59 0.104 7.18 2.15 9.23
5/26/2022 2:00:00 AM 14.92 58.856 0.104 7.19 1.93 9.25
5/26/2022 2:15:00 AM 14.85 58.73 0.104 7.18 1.95 9.27
5/26/2022 2:30:00 AM 14.78 58.604 0.104 7.19 1.93 9.28
5/26/2022 2:45:00 AM 14.71 58.478 0.104 7.19 1.95 9.3
5/26/2022 3:00:00 AM 14.64 58.352 0.105 7.18 1.98 9.32
5/26/2022 3:15:00 AM 14.56 58.208 0.105 7.18 1.91 9.33
5/26/2022 3:30:00 AM 14.49 58.082 0.105 7.18 2.17 9.35
5/26/2022 3:45:00 AM 14.42 57.956 0.105 7.19 2 9.38
5/26/2022 4:00:00 AM 14.34 57.812 0.105 7.19 1.99 9.39
5/26/2022 4:15:00 AM 14.27 57.686 0.105 7.19 2.01 9.41
5/26/2022 4:30:00 AM 14.2 57.56 0.105 7.19 1.8 9.42
5/26/2022 4:45:00 AM 14.13 57.434 0.105 7.2 1.98 9.44
5/26/2022 5:00:00 AM 14.07 57.326 0.105 7.2 2.02 9.45
5/26/2022 5:15:00 AM 14 57.2 0.105 7.2 1.88 9.47
5/26/2022 5:30:00 AM 13.94 57.092 0.105 7.2 1.95 9.49
5/26/2022 5:45:00 AM 13.86 56.948 0.105 7.19 6.22 9.51
5/26/2022 6:00:00 AM 13.79 56.822 0.105 7.21 1.9 9.57
5/26/2022 6:15:00 AM 13.71 56.678 0.105 7.23 2 9.64
5/26/2022 6:30:00 AM 13.67 56.606 0.105 7.24 6.1 9.76
5/26/2022 6:45:00 AM 13.62 56.516 0.105 7.28 1.87 9.86
5/26/2022 7:00:00 AM 13.57 56.426 0.105 7.32 1.68 9.98
5/26/2022 7:15:00 AM 13.54 56.372 0.105 7.35 1.72 10.1
5/26/2022 7:30:00 AM 13.53 56.354 0.104 7.39 1.76 10.22
5/26/2022 7:45:00 AM 13.54 56.372 0.104 7.45 1.74 10.35
5/26/2022 8:00:00 AM 13.57 56.426 0.104 7.51 1.78 10.47
5/26/2022 8:15:00 AM 13.6 56.48 0.104 7.56 1.83 10.56
5/26/2022 8:30:00 AM 13.63 56.534 0.104 7.62 1.79 10.64
5/26/2022 8:45:00 AM 13.67 56.606 0.104 7.67 1.72 10.7
5/26/2022 9:00:00 AM 13.76 56.768 0.104 7.74 1.75 10.77
5/26/2022 9:15:00 AM 13.89 57.002 0.103 7.83 1.81 10.85
5/26/2022 9:30:00 AM 13.94 57.092 0.103 7.88 1.77 10.88
5/26/2022 9:45:00 AM 14.04 57.272 0.103 7.95 1.75 10.88
5/26/2022 10:00:00 AM 14.27 57.686 0.103 8 1.89 10.88
5/26/2022 10:15:00 AM 14.49 58.082 0.103 8.05 1.72 10.86
5/26/2022 10:30:00 AM 14.69 58.442 0.103 8.1 1.7 10.85
5/26/2022 10:45:00 AM 14.92 58.856 0.103 8.16 6.26 10.85
5/26/2022 11:00:00 AM 15.18 59.324 0.103 8.27 1.78 10.85
5/26/2022 11:15:00 AM 15.47 59.846 0.102 8.33 1.73 10.85
5/26/2022 11:30:00 AM 15.78 60.404 0.102 8.43 1.71 10.84
5/26/2022 11:45:00 AM 16.05 60.89 0.102 8.5 1.68 10.8
5/26/2022 12:00:00 PM 16.35 61.43 0.102 8.57 1.76 10.78
5/26/2022 12:15:00 PM 16.58 61.844 0.102 8.63 1.82 10.78
5/26/2022 12:30:00 PM 16.81 62.258 0.102 8.7 1.85 10.75
5/26/2022 12:45:00 PM 17.13 62.834 0.102 8.74 1.76 10.71
5/26/2022 1:00:00 PM 17.44 63.392 0.102 8.78 1.66 10.68
5/26/2022 1:15:00 PM 17.7 63.86 0.102 8.81 1.76 10.66
5/26/2022 1:30:00 PM 17.98 64.364 0.102 8.82 1.65 10.58
5/26/2022 1:45:00 PM 18.24 64.832 0.102 8.83 1.81 10.51
5/26/2022 2:00:00 PM 18.49 65.282 0.102 8.84 1.8 10.44
5/26/2022 2:15:00 PM 18.73 65.714 0.102 8.85 1.66 10.4
5/26/2022 2:30:00 PM 18.91 66.038 0.102 8.85 1.67 10.35
5/26/2022 2:45:00 PM 19.14 66.452 0.102 8.87 1.77 10.33
5/26/2022 3:00:00 PM 19.33 66.794 0.102 8.87 1.74 10.28
5/26/2022 3:15:00 PM 19.5 67.1 0.102 8.9 1.75 10.27
5/26/2022 3:30:00 PM 19.48 67.064 0.102 8.87 1.74 10.15
5/26/2022 3:45:00 PM 19.3 66.74 0.102 8.83 1.79 10.06
5/26/2022 4:00:00 PM 19.21 66.578 0.102 8.84 1.8 10.11
5/26/2022 4:15:00 PM 19.23 66.614 0.102 8.84 1.75 10.09
5/26/2022 4:30:00 PM 19.19 66.542 0.102 8.83 1.77 10.07
5/26/2022 4:45:00 PM 19.09 66.362 0.102 8.75 1.66 9.91
5/26/2022 5:00:00 PM 19.01 66.218 0.102 8.62 1.66 9.72
5/26/2022 5:15:00 PM 18.85 65.93 0.102 8.4 1.64 9.54
5/26/2022 5:30:00 PM 18.7 65.66 0.102 8.14 1.76 9.36
5/26/2022 5:45:00 PM 18.6 65.48 0.102 7.9 1.78 9.24
5/26/2022 6:00:00 PM 18.46 65.228 0.102 7.75 1.72 9.16
5/26/2022 6:15:00 PM 18.32 64.976 0.103 7.65 1.68 9.11
5/26/2022 6:30:00 PM 18.22 64.796 0.103 7.6 1.82 9.08
5/26/2022 6:45:00 PM 18.12 64.616 0.103 7.55 1.76 9.03
5/26/2022 7:00:00 PM 18.02 64.436 0.103 7.5 1.7 9
5/26/2022 7:15:00 PM 17.91 64.238 0.103 7.45 5.9 8.96
5/26/2022 7:30:00 PM 17.8 64.04 0.103 7.42 1.8 8.89
5/26/2022 7:45:00 PM 17.69 63.842 0.103 7.38 1.79 8.84
5/26/2022 8:00:00 PM 17.58 63.644 0.103 7.34 1.8 8.79
5/26/2022 8:15:00 PM 17.47 63.446 0.103 7.31 1.83 8.76
5/26/2022 8:30:00 PM 17.37 63.266 0.103 7.29 1.76 8.74
5/26/2022 8:45:00 PM 17.27 63.086 0.104 7.27 1.84 8.73
5/26/2022 9:00:00 PM 17.18 62.924 0.104 7.25 1.87 8.73
5/26/2022 9:15:00 PM 17.11 62.798 0.104 7.22 1.88 8.73
5/26/2022 9:30:00 PM 17.03 62.654 0.104 7.2 1.97 8.74
5/26/2022 9:45:00 PM 16.96 62.528 0.104 7.2 1.97 8.75
5/26/2022 10:00:00 PM 16.9 62.42 0.104 7.2 1.91 8.76
5/26/2022 10:15:00 PM 16.83 62.294 0.104 7.21 1.92 8.78
5/26/2022 10:30:00 PM 16.78 62.204 0.104 7.19 1.98 8.79
5/26/2022 10:45:00 PM 16.72 62.096 0.104 7.2 2.09 8.8
5/26/2022 11:00:00 PM 16.66 61.988 0.104 7.19 1.94 8.81
5/26/2022 11:15:00 PM 16.61 61.898 0.105 7.19 1.91 8.82
5/26/2022 11:30:00 PM 16.55 61.79 0.105 7.2 2.05 8.83
5/26/2022 11:45:00 PM 16.51 61.718 0.105 7.17 1.83 8.84
5/27/2022 12:00:00 AM 16.46 61.628 0.105 7.16 1.94 8.85
5/27/2022 12:15:00 AM 16.41 61.538 0.105 7.19 2.28 8.86
5/27/2022 12:30:00 AM 16.37 61.466 0.105 7.17 1.98 8.88
5/27/2022 12:45:00 AM 16.33 61.394 0.105 7.18 1.96 8.88
5/27/2022 1:00:00 AM 16.28 61.304 0.105 7.18 2.05 8.89
5/27/2022 1:15:00 AM 16.24 61.232 0.105 7.18 2.01 8.9
5/27/2022 1:30:00 AM 16.19 61.142 0.105 7.17 6.58 8.91
5/27/2022 1:45:00 AM 16.15 61.07 0.105 7.17 2.07 8.92
5/27/2022 2:00:00 AM 16.1 60.98 0.106 7.17 2.07 8.93
5/27/2022 2:15:00 AM 16.06 60.908 0.106 7.17 1.92 8.94
5/27/2022 2:30:00 AM 16.01 60.818 0.106 7.16 1.83 8.94
5/27/2022 2:45:00 AM 15.96 60.728 0.106 7.16 1.89 8.96
5/27/2022 3:00:00 AM 15.92 60.656 0.106 7.16 15.09 8.96
5/27/2022 3:15:00 AM 15.88 60.584 0.106 7.16 1.94 8.98
5/27/2022 3:30:00 AM 15.84 60.512 0.106 7.18 1.88 8.98
5/27/2022 3:45:00 AM 15.8 60.44 0.106 7.15 1.87 8.99
5/27/2022 4:00:00 AM 15.76 60.368 0.106 7.17 1.88 9
5/27/2022 4:15:00 AM 15.72 60.296 0.106 7.17 1.91 9.01
5/27/2022 4:30:00 AM 15.68 60.224 0.106 7.17 1.88 9.01
5/27/2022 4:45:00 AM 15.64 60.152 0.106 7.16 1.8 9.02
5/27/2022 5:00:00 AM 15.6 60.08 0.107 7.16 1.73 9.03
5/27/2022 5:15:00 AM 15.56 60.008 0.107 7.17 1.83 9.04
5/27/2022 5:30:00 AM 15.53 59.954 0.107 7.18 1.85 9.05
5/27/2022 5:45:00 AM 15.49 59.882 0.107 7.19 1.9 9.05
5/27/2022 6:00:00 AM 15.46 59.828 0.107 7.2 1.92 9.07
5/27/2022 6:15:00 AM 15.43 59.774 0.107 7.2 1.77 9.12
5/27/2022 6:30:00 AM 15.41 59.738 0.107 7.2 1.9 9.12
5/27/2022 6:45:00 AM 15.39 59.702 0.107 7.21 1.75 9.16
5/27/2022 7:00:00 AM 15.37 59.666 0.107 7.22 1.78 9.2
5/27/2022 7:15:00 AM 15.36 59.648 0.106 7.25 1.73 9.27
5/27/2022 7:30:00 AM 15.36 59.648 0.106 7.28 1.62 9.41
5/27/2022 7:45:00 AM 15.37 59.666 0.106 7.33 1.69 9.55
5/27/2022 8:00:00 AM 15.36 59.648 0.106 7.36 1.51 9.57
5/27/2022 8:15:00 AM 15.35 59.63 0.106 7.35 1.71 9.57
5/27/2022 8:30:00 AM 15.35 59.63 0.106 7.37 1.7 9.62
5/27/2022 8:45:00 AM 15.36 59.648 0.106 7.41 1.73 9.71
5/27/2022 9:00:00 AM 15.36 59.648 0.106 7.43 1.67 9.75
5/27/2022 9:15:00 AM 15.36 59.648 0.106 7.44 1.73 9.77
5/27/2022 9:30:00 AM 15.38 59.684 0.106 7.47 1.62 9.86
5/27/2022 9:45:00 AM 15.4 59.72 0.105 7.52 1.71 9.96
5/27/2022 10:00:00 AM 15.4 59.72 0.105 7.52 1.87 9.92
5/27/2022 10:15:00 AM 15.41 59.738 0.105 7.55 1.78 9.96
5/27/2022 10:30:00 AM 15.41 59.738 0.105 7.55 1.75 9.96
5/27/2022 10:45:00 AM 15.44 59.792 0.105 7.6 1.73 10.06
5/27/2022 11:00:00 AM 15.49 59.882 0.105 7.65 1.73 10.11
5/27/2022 11:15:00 AM 15.52 59.936 0.105 7.69 6.29 10.14
5/27/2022 11:30:00 AM 15.57 60.026 0.105 7.75 6.35 10.22
5/27/2022 11:45:00 AM 15.64 60.152 0.105 7.9 1.81 10.35
5/27/2022 12:00:00 PM 15.65 60.17 0.105 7.82 1.82 10.19
5/27/2022 12:15:00 PM 15.7 60.26 0.105 7.85 1.78 10.19
5/27/2022 12:30:00 PM 15.71 60.278 0.105 7.87 1.78 10.21
5/27/2022 12:45:00 PM 15.72 60.296 0.105 7.8 1.86 10.07
5/27/2022 1:00:00 PM 15.72 60.296 0.105 7.69 1.91 9.9
5/27/2022 1:15:00 PM 15.71 60.278 0.104 7.59 1.9 9.74
5/27/2022 1:30:00 PM 15.72 60.296 0.104 7.56 2.01 9.73
5/27/2022 1:45:00 PM 15.72 60.296 0.102 7.47 2.77 9.56
5/27/2022 2:00:00 PM 15.7 60.26 0.102 7.47 2.49 9.64
5/27/2022 2:15:00 PM 15.7 60.26 0.102 7.51 3.09 9.77
5/27/2022 2:30:00 PM 15.76 60.368 0.102 7.68 2.77 10.11
5/27/2022 2:45:00 PM 15.85 60.53 0.102 7.91 2.46 10.35
5/27/2022 3:00:00 PM 15.9 60.62 0.102 7.99 2.26 10.35
5/27/2022 3:15:00 PM 15.97 60.746 0.102 8.09 2.19 10.42
5/27/2022 3:30:00 PM 15.99 60.782 0.101 8.16 2.84 10.42
5/27/2022 3:45:00 PM 16.05 60.89 0.101 8.24 3.3 10.46
5/27/2022 4:00:00 PM 16.14 61.052 0.101 8.32 2.96 10.52
5/27/2022 4:15:00 PM 16.25 61.25 0.101 8.42 2.74 10.58
5/27/2022 4:30:00 PM 16.37 61.466 0.1 8.48 2.46 10.57
5/27/2022 4:45:00 PM 16.42 61.556 0.1 8.49 2.43 10.51
5/27/2022 5:00:00 PM 16.41 61.538 0.1 8.49 2.42 10.48
5/27/2022 5:15:00 PM 16.46 61.628 0.1 8.48 2.4 10.44
5/27/2022 5:30:00 PM 16.49 61.682 0.099 8.49 2.33 10.42
5/27/2022 5:45:00 PM 16.51 61.718 0.099 8.47 2.39 10.39
5/27/2022 6:00:00 PM 16.49 61.682 0.099 8.36 2.37 10.22
5/27/2022 6:15:00 PM 16.48 61.664 0.099 8.27 2.48 10.17
5/27/2022 6:30:00 PM 16.43 61.574 0.1 8.14 2.25 10.06
5/27/2022 6:45:00 PM 16.44 61.592 0.1 8.11 2.21 10.07
5/27/2022 7:00:00 PM 16.46 61.628 0.1 7.98 2.18 9.92
5/27/2022 7:15:00 PM 16.41 61.538 0.101 7.76 2.11 9.67
5/27/2022 7:30:00 PM 16.33 61.394 0.101 7.58 2.06 9.46
5/27/2022 7:45:00 PM 16.27 61.286 0.101 7.48 2.12 9.35
5/27/2022 8:00:00 PM 16.22 61.196 0.102 7.42 2.12 9.28
5/27/2022 8:15:00 PM 16.16 61.088 0.102 7.37 2.3 9.2
5/27/2022 8:30:00 PM 16.09 60.962 0.102 7.31 2.21 9.13
5/27/2022 8:45:00 PM 16.03 60.854 0.102 7.27 2.27 9.07
5/27/2022 9:00:00 PM 15.98 60.764 0.103 7.24 2.27 9.04
5/27/2022 9:15:00 PM 15.94 60.692 0.103 7.23 2.23 9.01
5/27/2022 9:30:00 PM 15.89 60.602 0.103 7.21 2.42 9
5/27/2022 9:45:00 PM 15.84 60.512 0.103 7.2 2.4 9
5/27/2022 10:00:00 PM 15.79 60.422 0.104 7.18 2.33 9
5/27/2022 10:15:00 PM 15.73 60.314 0.104 7.18 2.38 9
5/27/2022 10:30:00 PM 15.68 60.224 0.104 7.17 2.41 9.01
5/27/2022 10:45:00 PM 15.64 60.152 0.105 7.16 2.24 9.01
5/27/2022 11:00:00 PM 15.6 60.08 0.105 7.15 2.25 9.01
5/27/2022 11:15:00 PM 15.56 60.008 0.105 7.15 2.22 9.02
5/27/2022 11:30:00 PM 15.53 59.954 0.105 7.13 6.62 9.02
5/27/2022 11:45:00 PM 15.49 59.882 0.105 7.13 2.15 9.03
5/28/2022 12:00:00 AM 15.46 59.828 0.105 7.12 6.7 9.03
5/28/2022 12:15:00 AM 15.43 59.774 0.105 7.13 2.16 9.04
5/28/2022 12:30:00 AM 15.4 59.72 0.106 7.12 2.09 9.04
5/28/2022 12:45:00 AM 15.38 59.684 0.106 7.11 6.75 9.05
5/28/2022 1:00:00 AM 15.35 59.63 0.106 7.12 2.05 9.06
5/28/2022 1:15:00 AM 15.32 59.576 0.106 7.12 2.02 9.06
5/28/2022 1:30:00 AM 15.29 59.522 0.106 7.11 2.04 9.07
5/28/2022 1:45:00 AM 15.26 59.468 0.107 7.12 1.9 9.07
5/28/2022 2:00:00 AM 15.24 59.432 0.107 7.13 2.02 9.08
5/28/2022 2:15:00 AM 15.21 59.378 0.107 7.14 2 9.09
5/28/2022 2:30:00 AM 15.17 59.306 0.108 7.13 1.93 9.09
5/28/2022 2:45:00 AM 15.13 59.234 0.108 7.12 1.9 9.1
5/28/2022 3:00:00 AM 15.09 59.162 0.109 7.12 1.96 9.1
5/28/2022 3:15:00 AM 15.05 59.09 0.109 7.12 6.56 9.11
5/28/2022 3:30:00 AM 15.01 59.018 0.109 7.14 1.93 9.12
5/28/2022 3:45:00 AM 14.98 58.964 0.109 7.14 1.99 9.12
5/28/2022 4:00:00 AM 14.95 58.91 0.11 7.14 1.92 9.13
5/28/2022 4:15:00 AM 14.92 58.856 0.11 7.14 1.82 9.14
5/28/2022 4:30:00 AM 14.89 58.802 0.11 7.14 1.83 9.15
5/28/2022 4:45:00 AM 14.86 58.748 0.11 7.14 2.03 9.15
5/28/2022 5:00:00 AM 14.84 58.712 0.11 7.16 1.86 9.16
5/28/2022 5:15:00 AM 14.81 58.658 0.11 7.15 1.87 9.17
5/28/2022 5:30:00 AM 14.79 58.622 0.11 7.15 1.83 9.17
5/28/2022 5:45:00 AM 14.76 58.568 0.11 7.15 1.82 9.18
5/28/2022 6:00:00 AM 14.74 58.532 0.11 7.16 1.75 9.21
5/28/2022 6:15:00 AM 14.72 58.496 0.11 7.16 1.68 9.28
5/28/2022 6:30:00 AM 14.7 58.46 0.11 7.2 1.76 9.41
5/28/2022 6:45:00 AM 14.7 58.46 0.11 7.25 1.83 9.53
5/28/2022 7:00:00 AM 14.69 58.442 0.11 7.27 1.64 9.62
5/28/2022 7:15:00 AM 14.7 58.46 0.11 7.3 1.57 9.69
5/28/2022 7:30:00 AM 14.71 58.478 0.11 7.34 1.62 9.81
5/28/2022 7:45:00 AM 14.74 58.532 0.109 7.4 1.6 9.95
5/28/2022 8:00:00 AM 14.77 58.586 0.109 7.45 1.68 10.04
5/28/2022 8:15:00 AM 14.8 58.64 0.109 7.51 1.68 10.13
5/28/2022 8:30:00 AM 14.86 58.748 0.109 7.6 1.68 10.28
5/28/2022 8:45:00 AM 14.9 58.82 0.109 7.67 1.63 10.35
5/28/2022 9:00:00 AM 14.96 58.928 0.109 7.78 1.7 10.46
5/28/2022 9:15:00 AM 14.99 58.982 0.109 7.8 1.71 10.4
5/28/2022 9:30:00 AM 15.04 59.072 0.109 7.81 1.7 10.41
5/28/2022 9:45:00 AM 15.08 59.144 0.109 7.84 1.64 10.38
5/28/2022 10:00:00 AM 15.12 59.216 0.109 7.85 1.67 10.36
5/28/2022 10:15:00 AM 15.15 59.27 0.109 7.92 1.64 10.43
5/28/2022 10:30:00 AM 15.2 59.36 0.109 8.02 1.57 10.53
5/28/2022 10:45:00 AM 15.22 59.396 0.109 7.97 1.57 10.39
5/28/2022 11:00:00 AM 15.27 59.486 0.109 8.02 1.64 10.45
5/28/2022 11:15:00 AM 15.31 59.558 0.109 8.09 1.64 10.49
5/28/2022 11:30:00 AM 15.4 59.72 0.109 8.16 1.64 10.55
5/28/2022 11:45:00 AM 15.51 59.918 0.109 8.31 6.59 10.66
5/28/2022 12:00:00 PM 15.54 59.972 0.109 8.33 1.71 10.59
5/28/2022 12:15:00 PM 15.59 60.062 0.109 8.37 1.57 10.59
5/28/2022 12:30:00 PM 15.65 60.17 0.109 8.4 1.67 10.6
5/28/2022 12:45:00 PM 15.68 60.224 0.109 8.36 6.32 10.53
5/28/2022 1:00:00 PM 15.79 60.422 0.109 8.47 1.74 10.67
5/28/2022 1:15:00 PM 16.21 61.178 0.109 8.6 1.63 10.79
5/28/2022 1:30:00 PM 16.37 61.466 0.109 8.68 1.68 10.78
5/28/2022 1:45:00 PM 16.56 61.808 0.109 8.7 1.59 10.72
5/28/2022 2:00:00 PM 16.68 62.024 0.108 8.74 1.68 10.71
5/28/2022 2:15:00 PM 16.77 62.186 0.108 8.76 1.59 10.64
5/28/2022 2:30:00 PM 16.78 62.204 0.108 8.7 1.69 10.45
5/28/2022 2:45:00 PM 16.82 62.276 0.108 8.61 1.68 10.26
5/28/2022 3:00:00 PM 16.86 62.348 0.108 8.49 1.61 10.14
5/28/2022 3:15:00 PM 17.1 62.78 0.108 8.59 1.64 10.33
5/28/2022 3:30:00 PM 17.29 63.122 0.107 8.64 1.66 10.36
5/28/2022 3:45:00 PM 17.63 63.734 0.107 8.71 1.73 10.36
5/28/2022 4:00:00 PM 17.85 64.13 0.107 8.73 1.6 10.34
5/28/2022 4:15:00 PM 17.82 64.076 0.107 8.68 1.66 10.22
5/28/2022 4:30:00 PM 17.89 64.202 0.107 8.71 1.6 10.25
5/28/2022 4:45:00 PM 17.8 64.04 0.107 8.62 1.61 10.06
5/28/2022 5:00:00 PM 17.87 64.166 0.107 8.62 1.59 10.13
5/28/2022 5:15:00 PM 17.88 64.184 0.107 8.62 1.66 10.14
5/28/2022 5:30:00 PM 17.89 64.202 0.107 8.58 1.62 10.01
5/28/2022 5:45:00 PM 17.8 64.04 0.107 8.45 1.63 9.86
5/28/2022 6:00:00 PM 17.68 63.824 0.107 8.24 1.59 9.68
5/28/2022 6:15:00 PM 17.67 63.806 0.107 8.12 1.58 9.65
5/28/2022 6:30:00 PM 17.71 63.878 0.107 8.05 1.62 9.6
5/28/2022 6:45:00 PM 17.67 63.806 0.107 7.9 1.61 9.49
5/28/2022 7:00:00 PM 17.59 63.662 0.107 7.75 1.66 9.33
5/28/2022 7:15:00 PM 17.51 63.518 0.107 7.64 1.62 9.24
5/28/2022 7:30:00 PM 17.43 63.374 0.107 7.55 1.61 9.16
5/28/2022 7:45:00 PM 17.38 63.284 0.107 7.51 1.63 9.13
5/28/2022 8:00:00 PM 17.3 63.14 0.108 7.45 1.54 9.04
5/28/2022 8:15:00 PM 17.21 62.978 0.108 7.4 7.17 8.99
5/28/2022 8:30:00 PM 17.11 62.798 0.108 7.36 1.63 8.93
5/28/2022 8:45:00 PM 16.99 62.582 0.108 7.32 1.65 8.87
5/28/2022 9:00:00 PM 16.87 62.366 0.108 7.29 1.65 8.84
5/28/2022 9:15:00 PM 16.75 62.15 0.108 7.26 1.64 8.82
5/28/2022 9:30:00 PM 16.64 61.952 0.108 7.25 1.7 8.82
5/28/2022 9:45:00 PM 16.53 61.754 0.108 7.24 1.71 8.83
5/28/2022 10:00:00 PM 16.41 61.538 0.109 7.24 1.93 8.84
5/28/2022 10:15:00 PM 16.29 61.322 0.109 7.24 1.9 8.86
5/28/2022 10:30:00 PM 16.18 61.124 0.109 7.24 1.79 8.88
5/28/2022 10:45:00 PM 16.07 60.926 0.109 7.23 1.95 8.9
5/28/2022 11:00:00 PM 15.96 60.728 0.109 7.22 1.87 8.92
5/28/2022 11:15:00 PM 15.86 60.548 0.109 7.22 1.86 8.94
5/28/2022 11:30:00 PM 15.76 60.368 0.109 7.23 1.8 8.97
5/28/2022 11:45:00 PM 15.67 60.206 0.109 7.21 1.81 8.99
5/29/2022 12:00:00 AM 15.58 60.044 0.109 7.21 1.72 9.01
5/29/2022 12:15:00 AM 15.49 59.882 0.109 7.21 1.82 9.03
5/29/2022 12:30:00 AM 15.43 59.774 0.109 7.2 1.81 9.04
5/29/2022 12:45:00 AM 15.36 59.648 0.109 7.21 1.86 9.05
5/29/2022 1:00:00 AM 15.29 59.522 0.109 7.21 1.76 9.07
5/29/2022 1:15:00 AM 15.24 59.432 0.109 7.2 1.84 9.09
5/29/2022 1:30:00 AM 15.19 59.342 0.109 7.21 1.81 9.11
5/29/2022 1:45:00 AM 15.14 59.252 0.109 7.21 1.65 9.12
5/29/2022 2:00:00 AM 15.08 59.144 0.109 7.21 1.82 9.14
5/29/2022 2:15:00 AM 15.01 59.018 0.11 7.21 1.88 9.15
5/29/2022 2:30:00 AM 14.94 58.892 0.11 7.21 1.89 9.16
5/29/2022 2:45:00 AM 14.87 58.766 0.11 7.21 1.91 9.18
5/29/2022 3:00:00 AM 14.8 58.64 0.11 7.21 1.87 9.2
5/29/2022 3:15:00 AM 14.72 58.496 0.11 7.21 1.76 9.22
5/29/2022 3:30:00 AM 14.65 58.37 0.11 7.21 1.77 9.23
5/29/2022 3:45:00 AM 14.6 58.28 0.11 7.23 1.9 9.24
5/29/2022 4:00:00 AM 14.54 58.172 0.11 7.21 1.78 9.26
5/29/2022 4:15:00 AM 14.48 58.064 0.11 7.22 1.75 9.27
5/29/2022 4:30:00 AM 14.41 57.938 0.11 7.22 1.78 9.29
5/29/2022 4:45:00 AM 14.35 57.83 0.11 7.21 1.91 9.3
5/29/2022 5:00:00 AM 14.3 57.74 0.11 7.21 1.85 9.32
5/29/2022 5:15:00 AM 14.25 57.65 0.11 7.21 1.77 9.32
5/29/2022 5:30:00 AM 14.19 57.542 0.11 7.21 1.72 9.35
5/29/2022 5:45:00 AM 14.12 57.416 0.11 7.22 1.73 9.37
5/29/2022 6:00:00 AM 14.06 57.308 0.11 7.22 1.61 9.44
5/29/2022 6:15:00 AM 14 57.2 0.11 7.24 1.58 9.53
5/29/2022 6:30:00 AM 13.96 57.128 0.11 7.28 1.61 9.67
5/29/2022 6:45:00 AM 13.93 57.074 0.11 7.31 1.75 9.78
5/29/2022 7:00:00 AM 13.91 57.038 0.11 7.35 1.53 9.92
5/29/2022 7:15:00 AM 13.89 57.002 0.11 7.4 1.61 10.06
5/29/2022 7:30:00 AM 13.88 56.984 0.11 7.43 1.65 10.16
5/29/2022 7:45:00 AM 13.87 56.966 0.11 7.48 1.63 10.27
5/29/2022 8:00:00 AM 13.89 57.002 0.109 7.56 1.5 10.45
5/29/2022 8:15:00 AM 13.93 57.074 0.109 7.66 1.58 10.6
5/29/2022 8:30:00 AM 13.98 57.164 0.109 7.72 1.53 10.69
5/29/2022 8:45:00 AM 14.08 57.344 0.109 7.8 1.62 10.75
5/29/2022 9:00:00 AM 14.17 57.506 0.109 7.87 1.62 10.79
5/29/2022 9:15:00 AM 14.22 57.596 0.109 7.94 1.63 10.85
5/29/2022 9:30:00 AM 14.32 57.776 0.108 8.04 1.64 10.91
5/29/2022 9:45:00 AM 14.52 58.136 0.108 8.15 1.66 10.95
5/29/2022 10:00:00 AM 14.72 58.496 0.108 8.25 1.72 10.96
5/29/2022 10:15:00 AM 14.9 58.82 0.108 8.33 1.66 10.96
5/29/2022 10:30:00 AM 15.12 59.216 0.108 8.39 1.63 10.95
5/29/2022 10:45:00 AM 15.38 59.684 0.108 8.49 1.72 10.99
5/29/2022 11:00:00 AM 15.63 60.134 0.107 8.59 1.76 10.99
5/29/2022 11:15:00 AM 15.83 60.494 0.107 8.62 1.76 10.91
5/29/2022 11:30:00 AM 16.13 61.034 0.107 8.65 6.71 10.87
5/29/2022 11:45:00 AM 16.5 61.7 0.107 8.72 1.68 10.82
5/29/2022 12:00:00 PM 16.82 62.276 0.107 8.71 1.64 10.73
5/29/2022 12:15:00 PM 17.17 62.906 0.107 8.75 1.77 10.69
5/29/2022 12:30:00 PM 17.53 63.554 0.107 8.79 1.78 10.62
5/29/2022 12:45:00 PM 17.89 64.202 0.107 8.81 1.76 10.56
5/29/2022 1:00:00 PM 18.24 64.832 0.107 8.85 1.78 10.51
5/29/2022 1:15:00 PM 18.55 65.39 0.107 8.87 1.79 10.46
5/29/2022 1:30:00 PM 18.86 65.948 0.107 8.89 1.73 10.41
5/29/2022 1:45:00 PM 19.16 66.488 0.107 8.91 1.69 10.36
5/29/2022 2:00:00 PM 19.43 66.974 0.107 8.95 1.66 10.31
5/29/2022 2:15:00 PM 19.7 67.46 0.107 8.95 1.65 10.26
5/29/2022 2:30:00 PM 19.92 67.856 0.107 8.97 1.75 10.23
5/29/2022 2:45:00 PM 20.16 68.288 0.107 8.99 1.75 10.19
5/29/2022 3:00:00 PM 20.38 68.684 0.107 9 1.75 10.14
5/29/2022 3:15:00 PM 20.56 69.008 0.107 9 1.68 10.1
5/29/2022 3:30:00 PM 20.7 69.26 0.107 9.02 1.75 10.06
5/29/2022 3:45:00 PM 20.82 69.476 0.107 8.99 1.65 10.01
5/29/2022 4:00:00 PM 20.89 69.602 0.107 8.98 1.71 9.97
5/29/2022 4:15:00 PM 20.96 69.728 0.107 8.97 1.72 9.92
5/29/2022 4:30:00 PM 20.97 69.746 0.107 8.95 1.83 9.88
5/29/2022 4:45:00 PM 20.94 69.692 0.107 8.92 1.65 9.82
5/29/2022 5:00:00 PM 20.88 69.584 0.107 8.88 1.86 9.76
5/29/2022 5:15:00 PM 20.8 69.44 0.107 8.83 1.68 9.69
5/29/2022 5:30:00 PM 20.68 69.224 0.107 8.77 1.81 9.62
5/29/2022 5:45:00 PM 20.54 68.972 0.107 8.67 2.04 9.53
5/29/2022 6:00:00 PM 20.38 68.684 0.107 8.54 1.74 9.41
5/29/2022 6:15:00 PM 20.23 68.414 0.107 8.39 1.9 9.3
5/29/2022 6:30:00 PM 20.08 68.144 0.107 8.21 1.78 9.19
5/29/2022 6:45:00 PM 19.9 67.82 0.107 8.01 1.66 9.07
5/29/2022 7:00:00 PM 19.76 67.568 0.107 7.86 1.74 8.99
5/29/2022 7:15:00 PM 19.57 67.226 0.108 7.7 1.85 8.86
5/29/2022 7:30:00 PM 19.36 66.848 0.108 7.58 1.69 8.75
5/29/2022 7:45:00 PM 19.2 66.56 0.108 7.51 1.76 8.7
5/29/2022 8:00:00 PM 19.04 66.272 0.108 7.44 1.83 8.64
5/29/2022 8:15:00 PM 18.89 66.002 0.108 7.39 1.69 8.59
5/29/2022 8:30:00 PM 18.73 65.714 0.108 7.35 1.83 8.53
5/29/2022 8:45:00 PM 18.59 65.462 0.109 7.32 1.83 8.48
5/29/2022 9:00:00 PM 18.46 65.228 0.109 7.27 1.99 8.45
5/29/2022 9:15:00 PM 18.32 64.976 0.109 7.24 6.28 8.44
5/29/2022 9:30:00 PM 18.19 64.742 0.109 7.26 2 8.44
5/29/2022 9:45:00 PM 18.06 64.508 0.109 7.21 6.8 8.44
5/29/2022 10:00:00 PM 17.94 64.292 0.109 7.21 1.91 8.46
5/29/2022 10:15:00 PM 17.81 64.058 0.109 7.2 1.9 8.49
5/29/2022 10:30:00 PM 17.69 63.842 0.109 7.19 6.7 8.51
5/29/2022 10:45:00 PM 17.57 63.626 0.109 7.2 1.93 8.53
5/29/2022 11:00:00 PM 17.46 63.428 0.109 7.18 1.94 8.55
5/29/2022 11:15:00 PM 17.35 63.23 0.109 7.18 1.98 8.57
5/29/2022 11:30:00 PM 17.25 63.05 0.109 7.17 6.54 8.6
5/29/2022 11:45:00 PM 17.16 62.888 0.109 7.17 1.97 8.62
5/30/2022 12:00:00 AM 17.06 62.708 0.109 7.17 1.91 8.64
5/30/2022 12:15:00 AM 16.96 62.528 0.11 7.16 1.84 8.65
5/30/2022 12:30:00 AM 16.86 62.348 0.11 7.16 1.87 8.67
5/30/2022 12:45:00 AM 16.77 62.186 0.11 7.16 1.95 8.7
5/30/2022 1:00:00 AM 16.67 62.006 0.11 7.17 1.8 8.71
5/30/2022 1:15:00 AM 16.58 61.844 0.11 7.16 1.95 8.73
5/30/2022 1:30:00 AM 16.48 61.664 0.11 7.16 1.77 8.76
5/30/2022 1:45:00 AM 16.39 61.502 0.11 7.15 2.08 8.78
5/30/2022 2:00:00 AM 16.3 61.34 0.11 7.18 1.81 8.79
5/30/2022 2:15:00 AM 16.21 61.178 0.11 7.15 1.88 8.81
5/30/2022 2:30:00 AM 16.12 61.016 0.11 7.15 6.78 8.83
5/30/2022 2:45:00 AM 16.04 60.872 0.11 7.16 1.9 8.85
5/30/2022 3:00:00 AM 15.96 60.728 0.111 7.16 2.02 8.87
5/30/2022 3:15:00 AM 15.87 60.566 0.111 7.17 1.84 8.89
5/30/2022 3:30:00 AM 15.79 60.422 0.111 7.16 1.77 8.91
5/30/2022 3:45:00 AM 15.7 60.26 0.111 7.16 1.83 8.93
5/30/2022 4:00:00 AM 15.62 60.116 0.111 7.16 1.88 8.94
5/30/2022 4:15:00 AM 15.53 59.954 0.111 7.16 1.85 8.96
5/30/2022 4:30:00 AM 15.45 59.81 0.111 7.16 1.8 8.99
5/30/2022 4:45:00 AM 15.36 59.648 0.111 7.16 6.72 9.01
5/30/2022 5:00:00 AM 15.27 59.486 0.111 7.16 1.78 9.02
5/30/2022 5:15:00 AM 15.18 59.324 0.112 7.16 1.71 9.05
5/30/2022 5:30:00 AM 15.09 59.162 0.112 7.16 6.86 9.07
5/30/2022 5:45:00 AM 15 59 0.112 7.16 6.84 9.1
5/30/2022 6:00:00 AM 14.91 58.838 0.112 7.18 1.77 9.17
5/30/2022 6:15:00 AM 14.83 58.694 0.112 7.19 1.7 9.27
5/30/2022 6:30:00 AM 14.75 58.55 0.112 7.22 1.51 9.37
5/30/2022 6:45:00 AM 14.69 58.442 0.112 7.25 1.6 9.5
5/30/2022 7:00:00 AM 14.64 58.352 0.112 7.29 1.64 9.64
5/30/2022 7:15:00 AM 14.61 58.298 0.112 7.33 1.58 9.79
5/30/2022 7:30:00 AM 14.61 58.298 0.111 7.38 1.55 9.96
5/30/2022 7:45:00 AM 14.64 58.352 0.111 7.43 1.67 10.08
5/30/2022 8:00:00 AM 14.68 58.424 0.111 7.48 1.55 10.19
5/30/2022 8:15:00 AM 14.74 58.532 0.111 7.54 1.66 10.26
5/30/2022 8:30:00 AM 14.81 58.658 0.111 7.57 1.71 10.32
5/30/2022 8:45:00 AM 14.88 58.784 0.111 7.63 1.75 10.39
5/30/2022 9:00:00 AM 15.01 59.018 0.11 7.71 1.56 10.48
5/30/2022 9:15:00 AM 15.17 59.306 0.11 7.78 1.63 10.54
5/30/2022 9:30:00 AM 15.35 59.63 0.11 7.88 1.62 10.62
5/30/2022 9:45:00 AM 15.48 59.864 0.11 8.03 1.65 10.73
5/30/2022 10:00:00 AM 15.7 60.26 0.109 8.19 1.6 10.82
5/30/2022 10:15:00 AM 15.96 60.728 0.109 8.3 1.5 10.8
5/30/2022 10:30:00 AM 16.17 61.106 0.109 8.4 1.65 10.79
5/30/2022 10:45:00 AM 16.33 61.394 0.109 8.5 1.75 10.8
5/30/2022 11:00:00 AM 16.65 61.97 0.109 8.62 1.63 10.86
5/30/2022 11:15:00 AM 16.92 62.456 0.109 8.71 1.54 10.85
5/30/2022 11:30:00 AM 17.24 63.032 0.109 8.75 1.68 10.78
5/30/2022 11:45:00 AM 17.52 63.536 0.109 8.75 1.88 10.68
5/30/2022 12:00:00 PM 17.79 64.022 0.109 8.76 1.64 10.62
5/30/2022 12:15:00 PM 18.07 64.526 0.109 8.79 1.75 10.58
5/30/2022 12:30:00 PM 18.42 65.156 0.109 8.82 1.69 10.54
5/30/2022 12:45:00 PM 18.79 65.82201 0.109 8.87 1.75 10.5
5/30/2022 1:00:00 PM 19.19 66.542 0.109 8.9 1.82 10.44
5/30/2022 1:15:00 PM 19.58 67.244 0.109 8.94 1.7 10.39
5/30/2022 1:30:00 PM 19.94 67.892 0.109 8.98 1.8 10.34
5/30/2022 1:45:00 PM 20.29 68.522 0.109 9 1.55 10.29
5/30/2022 2:00:00 PM 20.62 69.116 0.109 9.03 2.01 10.24
5/30/2022 2:15:00 PM 20.91 69.638 0.109 9.05 2 10.19
5/30/2022 2:30:00 PM 21.19 70.142 0.109 9.07 1.91 10.15
5/30/2022 2:45:00 PM 21.44 70.592 0.109 9.1 1.76 10.09
5/30/2022 3:00:00 PM 21.67 71.006 0.109 9.1 1.79 10.04
5/30/2022 3:15:00 PM 21.87 71.366 0.109 9.11 2.01 10
5/30/2022 3:30:00 PM 22.06 71.708 0.109 9.11 1.93 9.94
5/30/2022 3:45:00 PM 22.21 71.978 0.109 9.11 1.97 9.89
5/30/2022 4:00:00 PM 22.34 72.212 0.109 9.11 1.92 9.83
5/30/2022 4:15:00 PM 22.43 72.374 0.109 9.1 2 9.78
5/30/2022 4:30:00 PM 22.47 72.446 0.109 9.08 1.72 9.71
5/30/2022 4:45:00 PM 22.48 72.464 0.109 9.06 2.02 9.64
5/30/2022 5:00:00 PM 22.45 72.41 0.109 9.02 1.66 9.57
5/30/2022 5:15:00 PM 22.39 72.302 0.109 8.97 2.24 9.5
5/30/2022 5:30:00 PM 22.3 72.14 0.109 8.91 2.06 9.41
5/30/2022 5:45:00 PM 22.18 71.924 0.109 8.82 2.02 9.29
5/30/2022 6:00:00 PM 22.04 71.672 0.109 8.7 2.43 9.17
5/30/2022 6:15:00 PM 21.9 71.42 0.109 8.56 1.72 9.04
5/30/2022 6:30:00 PM 21.74 71.132 0.109 8.38 2.31 8.92
5/30/2022 6:45:00 PM 21.59 70.862 0.109 8.16 2.39 8.78
5/30/2022 7:00:00 PM 21.44 70.592 0.109 7.97 1.78 8.69
5/30/2022 7:15:00 PM 21.26 70.268 0.11 7.78 1.78 8.56
5/30/2022 7:30:00 PM 21.06 69.908 0.11 7.63 1.69 8.44
5/30/2022 7:45:00 PM 20.89 69.602 0.11 7.53 1.96 8.37
5/30/2022 8:00:00 PM 20.74 69.332 0.11 7.46 2.16 8.3
5/30/2022 8:15:00 PM 20.59 69.062 0.11 7.4 1.76 8.23
5/30/2022 8:30:00 PM 20.43 68.774 0.111 7.33 7.6 8.15
5/30/2022 8:45:00 PM 20.28 68.504 0.111 7.29 1.78 8.09
5/30/2022 9:00:00 PM 20.15 68.27 0.111 7.25 1.75 8.05
5/30/2022 9:15:00 PM 20.01 68.018 0.111 7.23 1.81 8.04
5/30/2022 9:30:00 PM 19.88 67.784 0.111 7.21 2 8.04
5/30/2022 9:45:00 PM 19.76 67.568 0.111 7.2 1.82 8.05
5/30/2022 10:00:00 PM 19.63 67.334 0.111 7.18 2.12 8.07
5/30/2022 10:15:00 PM 19.5 67.1 0.111 7.17 1.95 8.09
5/30/2022 10:30:00 PM 19.37 66.866 0.111 7.17 1.94 8.12
5/30/2022 10:45:00 PM 19.24 66.632 0.111 7.16 1.78 8.14
5/30/2022 11:00:00 PM 19.12 66.416 0.111 7.16 1.69 8.17
5/30/2022 11:15:00 PM 19 66.2 0.111 7.15 1.79 8.19
5/30/2022 11:30:00 PM 18.88 65.984 0.111 7.15 1.89 8.22
5/30/2022 11:45:00 PM 18.77 65.786 0.111 7.15 1.7 8.23
5/31/2022 12:00:00 AM 18.66 65.588 0.112 7.15 1.9 8.26
5/31/2022 12:15:00 AM 18.55 65.39 0.112 7.15 2.24 8.28
5/31/2022 12:30:00 AM 18.44 65.192 0.112 7.16 1.75 8.3
5/31/2022 12:45:00 AM 18.34 65.012 0.112 7.14 1.93 8.32
5/31/2022 1:00:00 AM 18.23 64.814 0.112 7.14 1.93 8.34
5/31/2022 1:15:00 AM 18.13 64.634 0.112 7.15 1.81 8.36
5/31/2022 1:30:00 AM 18.04 64.472 0.112 7.14 1.81 8.39
5/31/2022 1:45:00 AM 17.94 64.292 0.112 7.14 1.89 8.41
5/31/2022 2:00:00 AM 17.84 64.112 0.112 7.14 1.82 8.43
5/31/2022 2:15:00 AM 17.75 63.95 0.112 7.14 1.74 8.45
5/31/2022 2:30:00 AM 17.65 63.77 0.112 7.14 1.76 8.47
5/31/2022 2:45:00 AM 17.56 63.608 0.112 7.14 1.99 8.49
5/31/2022 3:00:00 AM 17.47 63.446 0.112 7.15 1.96 8.5
5/31/2022 3:15:00 AM 17.39 63.302 0.113 7.14 1.74 8.53
5/31/2022 3:30:00 AM 17.3 63.14 0.113 7.14 1.76 8.54
5/31/2022 3:45:00 AM 17.23 63.014 0.113 7.14 1.77 8.56
5/31/2022 4:00:00 AM 17.15 62.87 0.113 7.14 1.87 8.58
5/31/2022 4:15:00 AM 17.08 62.744 0.113 7.14 1.74 8.58
5/31/2022 4:30:00 AM 17.01 62.618 0.113 7.14 1.79 8.59
5/31/2022 4:45:00 AM 16.96 62.528 0.113 7.14 2.33 8.61
5/31/2022 5:00:00 AM 16.89 62.402 0.113 7.14 1.74 8.62
5/31/2022 5:15:00 AM 16.83 62.294 0.113 7.15 1.91 8.65
5/31/2022 5:30:00 AM 16.77 62.186 0.114 7.17 1.81 8.66
5/31/2022 5:45:00 AM 16.69 62.042 0.114 7.15 1.83 8.69
5/31/2022 6:00:00 AM 16.62 61.916 0.114 7.18 1.67 8.75
5/31/2022 6:15:00 AM 16.54 61.772 0.114 7.16 6.66 8.83
5/31/2022 6:30:00 AM 16.47 61.646 0.114 7.19 1.62 8.94
5/31/2022 6:45:00 AM 16.41 61.538 0.114 7.23 1.57 9.06
5/31/2022 7:00:00 AM 16.36 61.448 0.114 7.26 1.52 9.18
5/31/2022 7:15:00 AM 16.32 61.376 0.114 7.29 6.47 9.34
5/31/2022 7:30:00 AM 16.32 61.376 0.114 7.37 1.52 9.51
5/31/2022 7:45:00 AM 16.34 61.412 0.114 7.4 1.56 9.65
5/31/2022 8:00:00 AM 16.37 61.466 0.113 7.45 1.59 9.76
5/31/2022 8:15:00 AM 16.4 61.52 0.113 7.5 1.78 9.83
5/31/2022 8:30:00 AM 16.45 61.61 0.113 7.57 1.55 9.91
5/31/2022 8:45:00 AM 16.52 61.736 0.113 7.58 1.61 9.99
5/31/2022 9:00:00 AM 16.61 61.898 0.113 7.65 1.54 10.06
5/31/2022 9:15:00 AM 16.72 62.096 0.113 7.71 1.47 10.12
5/31/2022 9:30:00 AM 16.85 62.33 0.113 7.78 1.72 10.17
5/31/2022 9:45:00 AM 17.01 62.618 0.113 7.85 1.74 10.21
5/31/2022 10:00:00 AM 17.2 62.96 0.112 7.93 1.66 10.25
5/31/2022 10:15:00 AM 17.42 63.356 0.112 8.04 1.62 10.27
5/31/2022 10:30:00 AM 17.69 63.842 0.112 8.11 1.59 10.28
5/31/2022 10:45:00 AM 18 64.4 0.112 8.22 1.69 10.28
5/31/2022 11:00:00 AM 18.32 64.976 0.112 8.28 1.65 10.28
5/31/2022 11:15:00 AM 18.57 65.426 0.112 8.35 1.81 10.23
5/31/2022 11:30:00 AM 18.78 65.804 0.111 8.39 1.73 10.17
5/31/2022 11:45:00 AM 18.98 66.164 0.111 8.5 1.59 10.22
5/31/2022 12:00:00 PM 19.45 67.01 0.111 8.67 1.61 10.34
5/31/2022 12:15:00 PM 19.89 67.802 0.111 8.77 6.54 10.35
5/31/2022 12:30:00 PM 20.11 68.198 0.111 8.8 1.63 10.21
5/31/2022 12:45:00 PM 20.47 68.846 0.111 8.85 6.58 10.23
5/31/2022 1:00:00 PM 20.78 69.404 0.111 8.91 6.2 10.23
5/31/2022 1:15:00 PM 21.01 69.818 0.111 8.96 1.66 10.19
5/31/2022 1:30:00 PM 21.26 70.268 0.111 9.02 1.75 10.23
5/31/2022 1:45:00 PM 21.68 71.024 0.111 9.08 1.65 10.23
5/31/2022 2:00:00 PM 21.71 71.078 0.111 9.08 1.85 10.05
5/31/2022 2:15:00 PM 21.79 71.222 0.111 9.08 1.82 9.92
5/31/2022 2:30:00 PM 21.85 71.33 0.111 9.07 1.71 9.86
5/31/2022 2:45:00 PM 22.06 71.708 0.111 9.09 1.71 9.89
5/31/2022 3:00:00 PM 22.21 71.978 0.111 9.09 1.68 9.81
5/31/2022 3:15:00 PM 22.43 72.374 0.111 9.09 1.69 9.81
5/31/2022 3:30:00 PM 22.65 72.77 0.111 9.11 6.63 9.82
5/31/2022 3:45:00 PM 22.68 72.824 0.111 9.11 1.63 9.78
5/31/2022 4:00:00 PM 22.72 72.896 0.111 9.1 1.74 9.66
5/31/2022 4:15:00 PM 22.9 73.22 0.112 9.12 1.62 9.71
5/31/2022 4:30:00 PM 22.95 73.31 0.112 9.11 1.68 9.66
5/31/2022 4:45:00 PM 22.98 73.364 0.112 9.1 1.63 9.61
5/31/2022 5:00:00 PM 22.97 73.346 0.111 9.08 1.63 9.55
5/31/2022 5:15:00 PM 22.92 73.256 0.111 9.04 1.6 9.46
5/31/2022 5:30:00 PM 22.85 73.13 0.112 8.99 1.55 9.38
5/31/2022 5:45:00 PM 22.69 72.842 0.112 8.89 1.6 9.17
5/31/2022 6:00:00 PM 22.54 72.57201 0.112 8.78 1.73 9.07
5/31/2022 6:15:00 PM 22.39 72.302 0.112 8.65 1.63 8.95
5/31/2022 6:30:00 PM 22.21 71.978 0.112 8.47 1.57 8.8
5/31/2022 6:45:00 PM 22.06 71.708 0.112 8.24 1.68 8.65
5/31/2022 7:00:00 PM 21.91 71.438 0.112 8.03 1.8 8.57
5/31/2022 7:15:00 PM 21.73 71.114 0.112 7.84 1.69 8.47
5/31/2022 7:30:00 PM 21.59 70.862 0.112 7.71 1.7 8.43
5/31/2022 7:45:00 PM 21.47 70.646 0.112 7.62 1.72 8.36
5/31/2022 8:00:00 PM 21.35 70.43 0.113 7.54 1.51 8.26
5/31/2022 8:15:00 PM 21.21 70.17799 0.113 7.45 1.68 8.14
5/31/2022 8:30:00 PM 21.07 69.926 0.113 7.38 1.64 8.05
5/31/2022 8:45:00 PM 20.92 69.656 0.113 7.33 1.7 7.96
5/31/2022 9:00:00 PM 20.79 69.422 0.113 7.3 1.86 7.9
5/31/2022 9:15:00 PM 20.66 69.188 0.113 7.24 1.77 7.87
5/31/2022 9:30:00 PM 20.54 68.972 0.113 7.24 1.77 7.86
5/31/2022 9:45:00 PM 20.43 68.774 0.114 7.2 1.67 7.86
5/31/2022 10:00:00 PM 20.31 68.558 0.114 7.19 1.78 7.87
5/31/2022 10:15:00 PM 20.2 68.36 0.114 7.19 1.81 7.89
5/31/2022 10:30:00 PM 20.08 68.144 0.114 7.2 1.73 7.92
5/31/2022 10:45:00 PM 19.96 67.92799 0.114 7.17 1.89 7.93
5/31/2022 11:00:00 PM 19.84 67.712 0.114 7.17 1.83 7.96
5/31/2022 11:15:00 PM 19.72 67.496 0.114 7.17 2.05 7.98
5/31/2022 11:30:00 PM 19.6 67.28 0.114 7.16 1.86 8.01
5/31/2022 11:45:00 PM 19.48 67.064 0.114 7.17 2.13 8.03
6/1/2022 12:00:00 AM 19.37 66.866 0.114 7.16 1.76 8.05
6/1/2022 12:15:00 AM 19.26 66.668 0.114 7.15 6.22 8.08
6/1/2022 12:30:00 AM 19.14 66.452 0.114 7.15 1.78 8.09
6/1/2022 12:45:00 AM 19.04 66.272 0.114 7.16 1.93 8.12
6/1/2022 1:00:00 AM 18.92 66.056 0.114 7.15 2.2 8.14
6/1/2022 1:15:00 AM 18.81 65.858 0.114 7.15 1.87 8.16
6/1/2022 1:30:00 AM 18.71 65.67799 0.114 7.14 1.71 8.19
6/1/2022 1:45:00 AM 18.6 65.48 0.114 7.17 1.86 8.2
6/1/2022 2:00:00 AM 18.5 65.3 0.114 7.16 1.74 8.23
6/1/2022 2:15:00 AM 18.4 65.12 0.115 7.15 1.79 8.25
6/1/2022 2:30:00 AM 18.31 64.958 0.115 7.15 1.71 8.27
6/1/2022 2:45:00 AM 18.22 64.796 0.115 7.17 1.66 8.29
6/1/2022 3:00:00 AM 18.12 64.616 0.115 7.14 1.64 8.3
6/1/2022 3:15:00 AM 18.04 64.472 0.115 7.15 1.84 8.33
6/1/2022 3:30:00 AM 17.95 64.31 0.115 7.14 1.81 8.35
6/1/2022 3:45:00 AM 17.86 64.148 0.115 7.14 1.86 8.36
6/1/2022 4:00:00 AM 17.78 64.004 0.115 7.15 1.69 8.38
6/1/2022 4:15:00 AM 17.69 63.842 0.115 7.14 1.74 8.39
6/1/2022 4:30:00 AM 17.61 63.698 0.115 7.15 1.89 8.41
6/1/2022 4:45:00 AM 17.54 63.572 0.115 7.15 1.89 8.43
6/1/2022 5:00:00 AM 17.48 63.464 0.115 7.15 1.8 8.44
6/1/2022 5:15:00 AM 17.4 63.32 0.115 7.15 1.86 8.46
6/1/2022 5:30:00 AM 17.33 63.194 0.116 7.15 1.76 8.47
6/1/2022 5:45:00 AM 17.26 63.068 0.116 7.15 1.83 8.5
6/1/2022 6:00:00 AM 17.19 62.942 0.116 7.16 1.71 8.56
6/1/2022 6:15:00 AM 17.12 62.816 0.116 7.18 1.83 8.64
6/1/2022 6:30:00 AM 17.07 62.726 0.116 7.2 1.73 8.75
6/1/2022 6:45:00 AM 17.02 62.636 0.116 7.23 1.73 8.87
6/1/2022 7:00:00 AM 16.98 62.564 0.116 7.26 1.87 8.99
6/1/2022 7:15:00 AM 16.96 62.528 0.116 7.31 1.88 9.14
6/1/2022 7:30:00 AM 16.97 62.546 0.116 7.36 1.72 9.31
6/1/2022 7:45:00 AM 16.99 62.582 0.116 7.41 1.82 9.47
6/1/2022 8:00:00 AM 17.04 62.672 0.116 7.47 1.56 9.58
6/1/2022 8:15:00 AM 17.08 62.744 0.116 7.52 1.86 9.67
6/1/2022 8:30:00 AM 17.14 62.852 0.116 7.59 2.59 9.75
6/1/2022 8:45:00 AM 17.22 62.996 0.116 7.62 1.74 9.82
6/1/2022 9:00:00 AM 17.32 63.176 0.115 7.69 2.45 9.9
6/1/2022 9:15:00 AM 17.43 63.374 0.115 7.76 1.66 9.95
6/1/2022 9:30:00 AM 17.58 63.644 0.115 7.83 1.84 10
6/1/2022 9:45:00 AM 17.75 63.95 0.115 7.9 1.71 10.04
6/1/2022 10:00:00 AM 17.96 64.328 0.115 7.98 1.55 10.07
6/1/2022 10:15:00 AM 18.17 64.706 0.115 8.07 1.64 10.1
6/1/2022 10:30:00 AM 18.43 65.174 0.114 8.17 1.64 10.14
6/1/2022 10:45:00 AM 18.7 65.66 0.114 8.29 1.73 10.18
6/1/2022 11:00:00 AM 18.98 66.164 0.114 8.4 1.78 10.2
6/1/2022 11:15:00 AM 19.25 66.65 0.114 8.47 1.7 10.16
6/1/2022 11:30:00 AM 19.47 67.046 0.114 8.55 1.6 10.08
6/1/2022 11:45:00 AM 19.76 67.568 0.114 8.6 1.6 10.08
6/1/2022 12:00:00 PM 20.08 68.144 0.113 8.7 1.6 10.11
6/1/2022 12:15:00 PM 20.4 68.72 0.113 8.78 1.73 10.14
6/1/2022 12:30:00 PM 20.73 69.314 0.113 8.88 1.63 10.17
6/1/2022 12:45:00 PM 20.97 69.746 0.113 8.91 1.66 10.13
6/1/2022 1:00:00 PM 21.05 69.89 0.113 8.93 1.74 10.01
6/1/2022 1:15:00 PM 21.31 70.358 0.113 8.98 1.63 10.07
6/1/2022 1:30:00 PM 21.48 70.664 0.113 9.04 1.69 10.12
6/1/2022 1:45:00 PM 21.42 70.556 0.113 8.99 1.7 9.78
6/1/2022 2:00:00 PM 21.72 71.096 0.113 9.01 1.61 9.88
6/1/2022 2:15:00 PM 21.68 71.024 0.113 8.97 1.65 9.64
6/1/2022 2:30:00 PM 21.79 71.222 0.113 8.95 1.67 9.67
6/1/2022 2:45:00 PM 22.06 71.708 0.113 9.01 1.88 9.81
6/1/2022 3:00:00 PM 22.17 71.906 0.113 9.02 1.7 9.83
6/1/2022 3:15:00 PM 22.41 72.338 0.113 9.06 1.71 9.85
6/1/2022 3:30:00 PM 22.54 72.57201 0.114 9.06 1.63 9.73
6/1/2022 3:45:00 PM 22.52 72.536 0.113 9.03 1.66 9.54
6/1/2022 4:00:00 PM 22.58 72.644 0.113 9.02 1.64 9.56
6/1/2022 4:15:00 PM 22.5 72.5 0.113 9.01 1.75 9.52
6/1/2022 4:30:00 PM 22.46 72.42799 0.113 9.01 1.67 9.56
6/1/2022 4:45:00 PM 22.44 72.392 0.113 9.01 1.79 9.52
6/1/2022 5:00:00 PM 22.38 72.284 0.113 8.97 1.7 9.41
6/1/2022 5:15:00 PM 22.33 72.194 0.113 8.93 1.66 9.35
6/1/2022 5:30:00 PM 22.19 71.942 0.113 8.78 1.7 9.05
6/1/2022 5:45:00 PM 22.01 71.618 0.114 8.53 1.86 8.68
6/1/2022 6:00:00 PM 21.82 71.276 0.114 8.17 1.7 8.41
6/1/2022 6:15:00 PM 21.65 70.97 0.115 7.87 1.66 8.28
6/1/2022 6:30:00 PM 21.52 70.736 0.115 7.77 1.69 8.34
6/1/2022 6:45:00 PM 21.4 70.52 0.115 7.67 1.62 8.27
6/1/2022 7:00:00 PM 21.29 70.32201 0.113 7.55 2.23 8.18
6/1/2022 7:15:00 PM 21.19 70.142 0.114 7.49 1.96 8.08
6/1/2022 7:30:00 PM 21.07 69.926 0.114 7.45 2.14 8.04
6/1/2022 7:45:00 PM 20.96 69.728 0.114 7.41 1.9 8.04
6/1/2022 8:00:00 PM 20.86 69.548 0.114 7.38 1.77 8.01
6/1/2022 8:15:00 PM 20.76 69.368 0.115 7.35 1.74 7.99
6/1/2022 8:30:00 PM 20.67 69.206 0.115 7.32 1.82 7.93
6/1/2022 8:45:00 PM 20.56 69.008 0.115 7.27 1.57 7.88
6/1/2022 9:00:00 PM 20.46 68.828 0.115 7.28 1.68 7.85
6/1/2022 9:15:00 PM 20.35 68.63 0.115 7.21 1.84 7.83
6/1/2022 9:30:00 PM 20.25 68.45 0.115 7.21 1.8 7.82
6/1/2022 9:45:00 PM 20.14 68.252 0.116 7.2 1.85 7.83
6/1/2022 10:00:00 PM 20.04 68.07201 0.116 7.19 1.71 7.85
6/1/2022 10:15:00 PM 19.95 67.91 0.116 7.18 1.69 7.86
6/1/2022 10:30:00 PM 19.86 67.748 0.116 7.18 1.8 7.89
6/1/2022 10:45:00 PM 19.77 67.586 0.115 7.17 6.38 7.92
6/1/2022 11:00:00 PM 19.68 67.424 0.115 7.16 1.92 7.9
6/1/2022 11:15:00 PM 19.6 67.28 0.114 7.15 1.95 7.88
6/1/2022 11:30:00 PM 19.53 67.154 0.114 7.14 2.07 7.89
6/1/2022 11:45:00 PM 19.45 67.01 0.114 7.14 2.09 7.88
6/2/2022 12:00:00 AM 19.38 66.884 0.114 7.13 2.05 7.9
6/2/2022 12:15:00 AM 19.3 66.74 0.114 7.12 1.83 7.93
6/2/2022 12:30:00 AM 19.23 66.614 0.115 7.12 2.21 7.96
6/2/2022 12:45:00 AM 19.16 66.488 0.115 7.12 1.96 8
6/2/2022 1:00:00 AM 19.09 66.362 0.115 7.13 2.01 8.03
6/2/2022 1:15:00 AM 19.02 66.236 0.115 7.14 2.1 8.04
6/2/2022 1:30:00 AM 18.95 66.11 0.115 7.13 2.02 8.05
6/2/2022 1:45:00 AM 18.88 65.984 0.115 7.13 1.92 8.07
6/2/2022 2:00:00 AM 18.82 65.876 0.115 7.13 1.89 8.08
6/2/2022 2:15:00 AM 18.76 65.768 0.115 7.14 1.95 8.1
6/2/2022 2:30:00 AM 18.71 65.67799 0.114 7.13 1.98 8.12
6/2/2022 2:45:00 AM 18.66 65.588 0.115 7.13 1.81 8.13
6/2/2022 3:00:00 AM 18.6 65.48 0.115 7.14 1.8 8.14
6/2/2022 3:15:00 AM 18.55 65.39 0.115 7.13 1.78 8.16
6/2/2022 3:30:00 AM 18.49 65.282 0.115 7.12 1.9 8.16
6/2/2022 3:45:00 AM 18.44 65.192 0.115 7.13 1.71 8.18
6/2/2022 4:00:00 AM 18.39 65.102 0.115 7.12 1.79 8.19
6/2/2022 4:15:00 AM 18.34 65.012 0.115 7.11 1.84 8.2
6/2/2022 4:30:00 AM 18.3 64.94 0.115 7.11 1.88 8.22
6/2/2022 4:45:00 AM 18.25 64.85 0.116 7.11 1.91 8.23
6/2/2022 5:00:00 AM 18.21 64.778 0.116 7.14 2.02 8.24
6/2/2022 5:15:00 AM 18.17 64.706 0.116 7.11 1.98 8.26
6/2/2022 5:30:00 AM 18.13 64.634 0.116 7.13 1.9 8.27
6/2/2022 5:45:00 AM 18.09 64.562 0.117 7.13 1.97 8.29
6/2/2022 6:00:00 AM 18.05 64.49 0.117 7.15 2.1 8.31
6/2/2022 6:15:00 AM 18.01 64.418 0.117 7.14 1.97 8.36
6/2/2022 6:30:00 AM 17.97 64.346 0.118 7.15 1.9 8.4
6/2/2022 6:45:00 AM 17.94 64.292 0.118 7.17 1.95 8.46
6/2/2022 7:00:00 AM 17.91 64.238 0.118 7.18 2.01 8.51
6/2/2022 7:15:00 AM 17.87 64.166 0.118 7.2 1.93 8.53
6/2/2022 7:30:00 AM 17.84 64.112 0.119 7.22 2.02 8.57
6/2/2022 7:45:00 AM 17.81 64.058 0.119 7.26 1.97 8.65
6/2/2022 8:00:00 AM 17.8 64.04 0.119 7.3 1.79 8.83
6/2/2022 8:15:00 AM 17.79 64.022 0.119 7.35 1.84 8.98
6/2/2022 8:30:00 AM 17.8 64.04 0.118 7.41 1.86 9.17
6/2/2022 8:45:00 AM 17.82 64.076 0.118 7.47 1.81 9.34
6/2/2022 9:00:00 AM 17.84 64.112 0.118 7.53 1.84 9.48
6/2/2022 9:15:00 AM 17.88 64.184 0.118 7.6 1.8 9.59
6/2/2022 9:30:00 AM 17.93 64.274 0.118 7.69 1.78 9.7
6/2/2022 9:45:00 AM 17.95 64.31 0.118 7.73 1.76 9.71
6/2/2022 10:00:00 AM 17.97 64.346 0.118 7.75 1.71 9.68
6/2/2022 10:15:00 AM 18 64.4 0.117 7.8 1.71 9.73
6/2/2022 10:30:00 AM 18.04 64.472 0.117 7.84 1.75 9.79
6/2/2022 10:45:00 AM 18.08 64.544 0.117 7.92 1.75 9.84
6/2/2022 11:00:00 AM 18.16 64.688 0.117 8.03 1.78 9.94
6/2/2022 11:15:00 AM 18.23 64.814 0.117 8.13 1.75 10.01
6/2/2022 11:30:00 AM 18.37 65.066 0.117 8.26 1.82 10.11
6/2/2022 11:45:00 AM 18.43 65.174 0.117 8.33 1.79 10.08
6/2/2022 12:00:00 PM 18.47 65.246 0.117 8.29 1.82 9.95
6/2/2022 12:15:00 PM 18.51 65.318 0.117 8.33 1.68 9.97
6/2/2022 12:30:00 PM 18.53 65.354 0.117 8.32 1.75 9.88
6/2/2022 12:45:00 PM 18.6 65.48 0.117 8.31 1.72 9.87
6/2/2022 1:00:00 PM 18.67 65.606 0.117 8.38 1.65 9.94
6/2/2022 1:15:00 PM 18.81 65.858 0.117 8.49 1.74 10.06
6/2/2022 1:30:00 PM 18.95 66.11 0.117 8.59 1.71 10.14
6/2/2022 1:45:00 PM 19.05 66.29 0.117 8.65 1.72 10.14
6/2/2022 2:00:00 PM 19.13 66.434 0.117 8.69 1.72 10.12
6/2/2022 2:15:00 PM 19.17 66.506 0.117 8.69 1.82 10.03
6/2/2022 2:30:00 PM 19.23 66.614 0.117 8.68 1.8 9.94
6/2/2022 2:45:00 PM 19.25 66.65 0.117 8.62 1.71 9.79
6/2/2022 3:00:00 PM 19.31 66.758 0.117 8.61 1.7 9.81
6/2/2022 3:15:00 PM 19.34 66.812 0.117 8.62 1.83 9.78
6/2/2022 3:30:00 PM 19.39 66.902 0.117 8.61 1.67 9.75
6/2/2022 3:45:00 PM 19.52 67.136 0.117 8.63 1.68 9.82
6/2/2022 4:00:00 PM 19.65 67.37 0.117 8.66 1.66 9.85
6/2/2022 4:15:00 PM 19.86 67.748 0.117 8.68 1.81 9.83
6/2/2022 4:30:00 PM 20.06 68.108 0.117 8.7 1.62 9.76
6/2/2022 4:45:00 PM 20.09 68.162 0.117 8.65 1.72 9.66
6/2/2022 5:00:00 PM 20.14 68.252 0.117 8.62 1.69 9.61
6/2/2022 5:15:00 PM 20.15 68.27 0.117 8.58 1.71 9.56
6/2/2022 5:30:00 PM 20.21 68.378 0.117 8.52 1.68 9.48
6/2/2022 5:45:00 PM 20.18 68.324 0.117 8.4 1.63 9.28
6/2/2022 6:00:00 PM 20.03 68.054 0.118 8.22 1.66 9.17
6/2/2022 6:15:00 PM 19.9 67.82 0.118 8.12 1.68 9.15
6/2/2022 6:30:00 PM 19.79 67.622 0.118 7.98 1.59 9.04
6/2/2022 6:45:00 PM 19.77 67.586 0.118 7.89 1.69 8.96
6/2/2022 7:00:00 PM 19.68 67.424 0.118 7.79 1.65 8.88
6/2/2022 7:15:00 PM 19.56 67.208 0.118 7.7 1.59 8.78
6/2/2022 7:30:00 PM 19.45 67.01 0.118 7.6 1.72 8.68
6/2/2022 7:45:00 PM 19.4 66.92 0.118 7.54 1.81 8.6
6/2/2022 8:00:00 PM 19.34 66.812 0.119 7.47 5.93 8.49
6/2/2022 8:15:00 PM 19.27 66.686 0.119 7.4 1.78 8.36
6/2/2022 8:30:00 PM 19.2 66.56 0.119 7.35 1.72 8.25
6/2/2022 8:45:00 PM 19.14 66.452 0.119 7.31 1.76 8.18
6/2/2022 9:00:00 PM 19.07 66.326 0.118 7.29 2.32 8.16
6/2/2022 9:15:00 PM 19.01 66.218 0.117 7.24 2.17 8.1
6/2/2022 9:30:00 PM 18.94 66.092 0.117 7.23 2.39 8.09
6/2/2022 9:45:00 PM 18.88 65.984 0.117 7.22 2.25 8.09
6/2/2022 10:00:00 PM 18.8 65.84 0.116 7.2 2.46 8.08
6/2/2022 10:15:00 PM 18.72 65.696 0.116 7.2 2.54 8.08
6/2/2022 10:30:00 PM 18.64 65.552 0.111 7.2 2.35 8.11
6/2/2022 10:45:00 PM 18.57 65.426 0.117 7.21 2.1 8.14
6/2/2022 11:00:00 PM 18.49 65.282 0.117 7.19 6.93 8.16
6/2/2022 11:15:00 PM 18.42 65.156 0.117 7.19 2.13 8.18
6/2/2022 11:30:00 PM 18.33 64.994 0.117 7.18 2.3 8.19
6/2/2022 11:45:00 PM 18.24 64.832 0.117 7.18 2.3 8.21
6/3/2022 12:00:00 AM 18.16 64.688 0.117 7.18 2.19 8.23
6/3/2022 12:15:00 AM 18.08 64.544 0.117 7.2 2.07 8.26
6/3/2022 12:30:00 AM 17.99 64.382 0.117 7.19 2.01 8.28
6/3/2022 12:45:00 AM 17.9 64.22 0.117 7.18 2.2 8.3
6/3/2022 1:00:00 AM 17.82 64.076 0.117 7.18 2.05 8.33
6/3/2022 1:15:00 AM 17.74 63.932 0.117 7.19 2.12 8.36
6/3/2022 1:30:00 AM 17.67 63.806 0.116 7.19 6.82 8.38
6/3/2022 1:45:00 AM 17.59 63.662 0.116 7.18 2.22 8.4
6/3/2022 2:00:00 AM 17.5 63.5 0.116 7.19 2.18 8.43
6/3/2022 2:15:00 AM 17.42 63.356 0.115 7.2 2.2 8.46
6/3/2022 2:30:00 AM 17.33 63.194 0.114 7.18 2.26 8.49
6/3/2022 2:45:00 AM 17.25 63.05 0.113 7.23 2.53 8.52
6/3/2022 3:00:00 AM 17.16 62.888 0.113 7.17 2.56 8.55
6/3/2022 3:15:00 AM 17.07 62.726 0.112 7.19 2.64 8.57
6/3/2022 3:30:00 AM 16.99 62.582 0.111 7.17 2.4 8.59
6/3/2022 3:45:00 AM 16.92 62.456 0.111 7.18 2.5 8.61
6/3/2022 4:00:00 AM 16.85 62.33 0.111 7.17 2.31 8.62
6/3/2022 4:15:00 AM 16.77 62.186 0.112 7.17 2.27 8.64
6/3/2022 4:30:00 AM 16.7 62.06 0.113 7.18 2.59 8.65
6/3/2022 4:45:00 AM 16.62 61.916 0.113 7.18 2.74 8.66
6/3/2022 5:00:00 AM 16.55 61.79 0.114 7.18 3.03 8.67
6/3/2022 5:15:00 AM 16.47 61.646 0.114 7.19 2.89 8.69
6/3/2022 5:30:00 AM 16.4 61.52 0.115 7.19 2.72 8.7
6/3/2022 5:45:00 AM 16.34 61.412 0.115 7.19 2.57 8.73
6/3/2022 6:00:00 AM 16.27 61.286 0.115 7.2 7.2 8.77
6/3/2022 6:15:00 AM 16.18 61.124 0.116 7.21 2.35 8.85
6/3/2022 6:30:00 AM 16.11 60.998 0.116 7.24 2.31 8.93
6/3/2022 6:45:00 AM 16.04 60.872 0.116 7.27 2.26 9.02
6/3/2022 7:00:00 AM 15.99 60.782 0.116 7.29 7.08 9.12
6/3/2022 7:15:00 AM 15.94 60.692 0.117 7.31 6.81 9.2
6/3/2022 7:30:00 AM 15.9 60.62 0.117 7.35 1.96 9.31
6/3/2022 7:45:00 AM 15.89 60.602 0.116 7.38 1.89 9.42
6/3/2022 8:00:00 AM 15.88 60.584 0.116 7.42 2 9.49
6/3/2022 8:15:00 AM 15.88 60.584 0.116 7.47 1.88 9.56
6/3/2022 8:30:00 AM 15.91 60.638 0.116 7.47 1.84 9.6
6/3/2022 8:45:00 AM 15.94 60.692 0.116 7.51 1.92 9.66
6/3/2022 9:00:00 AM 16 60.8 0.116 7.52 1.78 9.71
6/3/2022 9:15:00 AM 16.07 60.926 0.115 7.55 1.84 9.75
6/3/2022 9:30:00 AM 16.16 61.088 0.115 7.58 6.48 9.79
6/3/2022 9:45:00 AM 16.28 61.304 0.115 7.62 1.81 9.82
6/3/2022 10:00:00 AM 16.43 61.574 0.115 7.63 1.86 9.85
6/3/2022 10:15:00 AM 16.61 61.898 0.115 7.68 1.82 9.87
6/3/2022 10:30:00 AM 16.81 62.258 0.114 7.72 1.8 9.87
6/3/2022 10:45:00 AM 17.05 62.69 0.115 7.76 1.8 9.88
6/3/2022 11:00:00 AM 17.31 63.158 0.115 7.79 1.78 9.87
6/3/2022 11:15:00 AM 17.59 63.662 0.115 7.84 1.79 9.86
6/3/2022 11:30:00 AM 17.87 64.166 0.115 7.87 1.75 9.84
6/3/2022 11:45:00 AM 18.18 64.724 0.115 7.92 1.81 9.83
6/3/2022 12:00:00 PM 18.47 65.246 0.115 7.98 1.79 9.81
6/3/2022 12:15:00 PM 18.8 65.84 0.116 8.02 1.75 9.79
6/3/2022 12:30:00 PM 19.14 66.452 0.116 8.08 1.76 9.76
6/3/2022 12:45:00 PM 19.48 67.064 0.116 8.13 1.8 9.73
6/3/2022 1:00:00 PM 19.78 67.604 0.116 8.2 1.71 9.69
6/3/2022 1:15:00 PM 20.02 68.036 0.117 8.22 1.79 9.67
6/3/2022 1:30:00 PM 20.31 68.558 0.117 8.29 1.87 9.61
6/3/2022 1:45:00 PM 20.44 68.792 0.117 8.27 6.57 9.52
6/3/2022 2:00:00 PM 20.56 69.008 0.117 8.33 1.79 9.46
6/3/2022 2:15:00 PM 20.61 69.098 0.118 8.31 6.76 9.46
6/3/2022 2:30:00 PM 20.65 69.17 0.118 8.35 1.69 9.46
6/3/2022 2:45:00 PM 20.53 68.954 0.118 8.28 1.8 9.38
6/3/2022 3:00:00 PM 20.7 69.26 0.118 8.33 1.72 9.39
6/3/2022 3:15:00 PM 20.84 69.512 0.118 8.34 1.87 9.39
6/3/2022 3:30:00 PM 21 69.8 0.118 8.38 1.86 9.42
6/3/2022 3:45:00 PM 21.06 69.908 0.119 8.38 1.84 9.3
6/3/2022 4:00:00 PM 21.2 70.16 0.119 8.34 1.79 9.28
6/3/2022 4:15:00 PM 21.14 70.052 0.119 8.31 1.93 9.22
6/3/2022 4:30:00 PM 21.27 70.286 0.119 8.35 1.93 9.3
6/3/2022 4:45:00 PM 21.3 70.34 0.119 8.38 1.83 9.26
6/3/2022 5:00:00 PM 21.29 70.32201 0.119 8.27 1.86 9.14
6/3/2022 5:15:00 PM 21.11 69.998 0.12 8.15 1.86 8.99
6/3/2022 5:30:00 PM 20.94 69.692 0.12 8.05 1.83 8.98
6/3/2022 5:45:00 PM 20.79 69.422 0.12 7.97 1.81 8.94
6/3/2022 6:00:00 PM 20.64 69.152 0.12 7.9 1.69 8.9
6/3/2022 6:15:00 PM 20.47 68.846 0.121 7.83 1.62 8.85
6/3/2022 6:30:00 PM 20.31 68.558 0.12 7.78 1.75 8.85
6/3/2022 6:45:00 PM 20.19 68.342 0.121 7.7 1.65 8.75
6/3/2022 7:00:00 PM 20.07 68.126 0.121 7.63 1.64 8.64
6/3/2022 7:15:00 PM 19.9 67.82 0.121 7.56 1.69 8.56
6/3/2022 7:30:00 PM 19.63 67.334 0.121 7.48 1.72 8.44
6/3/2022 7:45:00 PM 19.41 66.938 0.122 7.42 1.9 8.39
6/3/2022 8:00:00 PM 19.21 66.578 0.122 7.39 1.67 8.37
6/3/2022 8:15:00 PM 19.03 66.254 0.122 7.36 1.64 8.35
6/3/2022 8:30:00 PM 18.85 65.93 0.122 7.33 1.68 8.32
6/3/2022 8:45:00 PM 18.68 65.624 0.122 7.3 6.19 8.28
6/3/2022 9:00:00 PM 18.52 65.336 0.122 7.29 1.74 8.26
6/3/2022 9:15:00 PM 18.38 65.084 0.122 7.25 1.94 8.25
6/3/2022 9:30:00 PM 18.24 64.832 0.122 7.24 1.74 8.26
6/3/2022 9:45:00 PM 18.1 64.58 0.122 7.24 1.81 8.28
6/3/2022 10:00:00 PM 17.97 64.346 0.122 7.23 1.79 8.3
6/3/2022 10:15:00 PM 17.83 64.094 0.122 7.22 6.69 8.32
6/3/2022 10:30:00 PM 17.7 63.86 0.122 7.23 1.69 8.35
6/3/2022 10:45:00 PM 17.56 63.608 0.122 7.22 1.78 8.37
6/3/2022 11:00:00 PM 17.42 63.356 0.122 7.23 1.97 8.41
6/3/2022 11:15:00 PM 17.29 63.122 0.122 7.21 1.77 8.44
6/3/2022 11:30:00 PM 17.16 62.888 0.122 7.21 1.66 8.47
6/3/2022 11:45:00 PM 17.03 62.654 0.122 7.2 1.69 8.5
6/4/2022 12:00:00 AM 16.91 62.438 0.122 7.21 1.68 8.52
6/4/2022 12:15:00 AM 16.79 62.222 0.122 7.21 1.65 8.54
6/4/2022 12:30:00 AM 16.68 62.024 0.122 7.2 6.58 8.57
6/4/2022 12:45:00 AM 16.56 61.808 0.122 7.21 1.74 8.59
6/4/2022 1:00:00 AM 16.45 61.61 0.121 7.21 1.74 8.62
6/4/2022 1:15:00 AM 16.34 61.412 0.121 7.21 1.66 8.64
6/4/2022 1:30:00 AM 16.24 61.232 0.121 7.21 1.94 8.67
6/4/2022 1:45:00 AM 16.13 61.034 0.121 7.19 1.7 8.69
6/4/2022 2:00:00 AM 16.03 60.854 0.121 7.21 1.71 8.71
6/4/2022 2:15:00 AM 15.92 60.656 0.121 7.2 1.87 8.73
6/4/2022 2:30:00 AM 15.82 60.476 0.121 7.2 6.33 8.76
6/4/2022 2:45:00 AM 15.72 60.296 0.121 7.19 1.64 8.78
6/4/2022 3:00:00 AM 15.62 60.116 0.121 7.2 1.75 8.81
6/4/2022 3:15:00 AM 15.52 59.936 0.121 7.2 1.72 8.83
6/4/2022 3:30:00 AM 15.42 59.756 0.121 7.2 1.72 8.85
6/4/2022 3:45:00 AM 15.32 59.576 0.121 7.2 1.62 8.87
6/4/2022 4:00:00 AM 15.22 59.396 0.121 7.2 1.74 8.89
6/4/2022 4:15:00 AM 15.12 59.216 0.121 7.2 1.68 8.92
6/4/2022 4:30:00 AM 15.02 59.036 0.121 7.2 1.73 8.95
6/4/2022 4:45:00 AM 14.91 58.838 0.121 7.2 1.73 8.97
6/4/2022 5:00:00 AM 14.8 58.64 0.121 7.2 1.66 9
6/4/2022 5:15:00 AM 14.7 58.46 0.121 7.2 1.68 9.02
6/4/2022 5:30:00 AM 14.58 58.244 0.121 7.2 1.72 9.05
6/4/2022 5:45:00 AM 14.47 58.046 0.122 7.22 1.68 9.1
6/4/2022 6:00:00 AM 14.36 57.848 0.122 7.21 1.68 9.17
6/4/2022 6:15:00 AM 14.25 57.65 0.122 7.23 1.59 9.25
6/4/2022 6:30:00 AM 14.14 57.452 0.122 7.25 1.68 9.34
6/4/2022 6:45:00 AM 14.05 57.29 0.122 7.26 1.57 9.44
6/4/2022 7:00:00 AM 14 57.2 0.122 7.29 1.61 9.54
6/4/2022 7:15:00 AM 13.98 57.164 0.122 7.33 1.71 9.66
6/4/2022 7:30:00 AM 13.99 57.182 0.122 7.36 1.49 9.78
6/4/2022 7:45:00 AM 14.04 57.272 0.122 7.39 1.63 9.9
6/4/2022 8:00:00 AM 14.09 57.362 0.122 7.43 1.52 9.97
6/4/2022 8:15:00 AM 14.15 57.47 0.122 7.46 1.55 10.03
6/4/2022 8:30:00 AM 14.22 57.596 0.122 7.49 1.47 10.07
6/4/2022 8:45:00 AM 14.32 57.776 0.122 7.52 1.58 10.11
6/4/2022 9:00:00 AM 14.44 57.992 0.122 7.55 1.48 10.14
6/4/2022 9:15:00 AM 14.58 58.244 0.122 7.57 1.58 10.17
6/4/2022 9:30:00 AM 14.75 58.55 0.121 7.6 1.51 10.18
6/4/2022 9:45:00 AM 14.93 58.874 0.121 7.62 6.06 10.18
6/4/2022 10:00:00 AM 15.14 59.252 0.121 7.67 1.6 10.18
6/4/2022 10:15:00 AM 15.38 59.684 0.121 7.68 1.54 10.17
6/4/2022 10:30:00 AM 15.65 60.17 0.121 7.73 1.6 10.15
6/4/2022 10:45:00 AM 15.95 60.71 0.121 7.74 1.65 10.13
6/4/2022 11:00:00 AM 16.27 61.286 0.121 7.78 1.57 10.1
6/4/2022 11:15:00 AM 16.61 61.898 0.12 7.82 1.56 10.07
6/4/2022 11:30:00 AM 16.95 62.51 0.12 7.84 1.63 10.02
6/4/2022 11:45:00 AM 17.29 63.122 0.12 7.88 1.65 9.99
6/4/2022 12:00:00 PM 17.64 63.752 0.12 7.92 1.62 9.95
6/4/2022 12:15:00 PM 17.99 64.382 0.12 7.96 1.75 9.91
6/4/2022 12:30:00 PM 18.32 64.976 0.12 8 1.72 9.86
6/4/2022 12:45:00 PM 18.65 65.57 0.12 8.05 1.69 9.82
6/4/2022 1:00:00 PM 18.98 66.164 0.12 8.07 1.66 9.77
6/4/2022 1:15:00 PM 19.28 66.704 0.12 8.11 1.75 9.72
6/4/2022 1:30:00 PM 19.61 67.298 0.12 8.15 1.7 9.68
6/4/2022 1:45:00 PM 19.9 67.82 0.12 8.22 1.66 9.63
6/4/2022 2:00:00 PM 20.17 68.306 0.12 8.22 1.68 9.59
6/4/2022 2:15:00 PM 20.47 68.846 0.12 8.26 1.66 9.54
6/4/2022 2:30:00 PM 20.75 69.35 0.12 8.29 1.79 9.49
6/4/2022 2:45:00 PM 20.97 69.746 0.12 8.31 1.71 9.45
6/4/2022 3:00:00 PM 21.17 70.106 0.12 8.34 1.65 9.4
6/4/2022 3:15:00 PM 21.32 70.376 0.12 8.36 1.69 9.38
6/4/2022 3:30:00 PM 21.44 70.592 0.12 8.38 1.7 9.34
6/4/2022 3:45:00 PM 21.53 70.754 0.12 8.38 1.7 9.3
6/4/2022 4:00:00 PM 21.61 70.898 0.12 8.38 1.71 9.26
6/4/2022 4:15:00 PM 21.62 70.916 0.12 8.36 1.7 9.22
6/4/2022 4:30:00 PM 21.64 70.952 0.12 8.34 6.2 9.18
6/4/2022 4:45:00 PM 21.63 70.934 0.12 8.32 1.77 9.15
6/4/2022 5:00:00 PM 21.6 70.88 0.121 8.26 1.69 9.1
6/4/2022 5:15:00 PM 21.48 70.664 0.121 8.2 1.71 9.03
6/4/2022 5:30:00 PM 21.31 70.358 0.121 8.13 1.71 8.99
6/4/2022 5:45:00 PM 21.14 70.052 0.121 8.03 1.7 8.91
6/4/2022 6:00:00 PM 20.91 69.638 0.121 7.94 1.63 8.82
6/4/2022 6:15:00 PM 20.7 69.26 0.121 7.79 1.71 8.73
6/4/2022 6:30:00 PM 20.48 68.864 0.122 7.7 1.68 8.64
6/4/2022 6:45:00 PM 20.26 68.468 0.122 7.61 1.67 8.54
6/4/2022 7:00:00 PM 20.08 68.144 0.122 7.55 1.65 8.48
6/4/2022 7:15:00 PM 19.91 67.838 0.122 7.51 1.64 8.43
6/4/2022 7:30:00 PM 19.65 67.37 0.122 7.45 1.66 8.33
6/4/2022 7:45:00 PM 19.4 66.92 0.122 7.41 1.62 8.29
6/4/2022 8:00:00 PM 19.17 66.506 0.122 7.37 1.7 8.28
6/4/2022 8:15:00 PM 18.95 66.11 0.122 7.35 1.78 8.28
6/4/2022 8:30:00 PM 18.73 65.714 0.122 7.32 1.64 8.27
6/4/2022 8:45:00 PM 18.53 65.354 0.123 7.3 6.55 8.26
6/4/2022 9:00:00 PM 18.32 64.976 0.123 7.28 1.73 8.25
6/4/2022 9:15:00 PM 18.12 64.616 0.123 7.26 7.19 8.26
6/4/2022 9:30:00 PM 17.92 64.256 0.123 7.25 2.16 8.28
6/4/2022 9:45:00 PM 17.74 63.932 0.123 7.24 2.3 8.3
6/4/2022 10:00:00 PM 17.57 63.626 0.122 7.23 2.34 8.34
6/4/2022 10:15:00 PM 17.4 63.32 0.122 7.23 2.28 8.37
6/4/2022 10:30:00 PM 17.24 63.032 0.122 7.22 6.88 8.41
6/4/2022 10:45:00 PM 17.08 62.744 0.122 7.21 2.26 8.44
6/4/2022 11:00:00 PM 16.93 62.474 0.122 7.21 1.97 8.48
6/4/2022 11:15:00 PM 16.78 62.204 0.122 7.21 1.9 8.52
6/4/2022 11:30:00 PM 16.63 61.934 0.122 7.21 1.87 8.55
6/4/2022 11:45:00 PM 16.5 61.7 0.122 7.21 1.95 8.59
6/5/2022 12:00:00 AM 16.37 61.466 0.122 7.2 6.35 8.62
6/5/2022 12:15:00 AM 16.24 61.232 0.122 7.2 6.85 8.65
6/5/2022 12:30:00 AM 16.11 60.998 0.122 7.2 1.78 8.67
6/5/2022 12:45:00 AM 15.99 60.782 0.122 7.24 1.77 8.7
6/5/2022 1:00:00 AM 15.86 60.548 0.122 7.19 1.82 8.73
6/5/2022 1:15:00 AM 15.73 60.314 0.122 7.2 1.72 8.76
6/5/2022 1:30:00 AM 15.61 60.098 0.122 7.2 1.69 8.79
6/5/2022 1:45:00 AM 15.49 59.882 0.122 7.2 1.81 8.82
6/5/2022 2:00:00 AM 15.37 59.666 0.122 7.2 1.81 8.84
6/5/2022 2:15:00 AM 15.24 59.432 0.121 7.2 1.73 8.88
6/5/2022 2:30:00 AM 15.11 59.198 0.121 7.2 1.75 8.91
6/5/2022 2:45:00 AM 14.98 58.964 0.121 7.21 1.72 8.94
6/5/2022 3:00:00 AM 14.85 58.73 0.121 7.19 1.73 8.98
6/5/2022 3:15:00 AM 14.72 58.496 0.121 7.24 2.36 9.01
6/5/2022 3:30:00 AM 14.58 58.244 0.122 7.19 1.93 9.05
6/5/2022 3:45:00 AM 14.45 58.01 0.122 7.2 1.67 9.08
6/5/2022 4:00:00 AM 14.32 57.776 0.122 7.2 1.69 9.12
6/5/2022 4:15:00 AM 14.18 57.524 0.122 7.2 1.77 9.16
6/5/2022 4:30:00 AM 14.03 57.254 0.122 7.2 1.68 9.19
6/5/2022 4:45:00 AM 13.93 57.074 0.122 7.2 1.71 9.22
6/5/2022 5:00:00 AM 13.83 56.894 0.122 7.2 1.69 9.25
6/5/2022 5:15:00 AM 13.73 56.714 0.122 7.2 1.77 9.27
6/5/2022 5:30:00 AM 13.63 56.534 0.122 7.2 1.67 9.3
6/5/2022 5:45:00 AM 13.54 56.372 0.122 7.2 1.65 9.34
6/5/2022 6:00:00 AM 13.45 56.21 0.122 7.22 1.67 9.39
6/5/2022 6:15:00 AM 13.36 56.048 0.122 7.23 1.64 9.46
6/5/2022 6:30:00 AM 13.28 55.904 0.122 7.23 1.77 9.54
6/5/2022 6:45:00 AM 13.2 55.76 0.122 7.25 6.56 9.61
6/5/2022 7:00:00 AM 13.15 55.67 0.122 7.3 1.65 9.72
6/5/2022 7:15:00 AM 13.12 55.616 0.122 7.32 1.72 9.83
6/5/2022 7:30:00 AM 13.14 55.652 0.121 7.35 1.71 9.97
6/5/2022 7:45:00 AM 13.19 55.742 0.121 7.39 1.6 10.09
6/5/2022 8:00:00 AM 13.24 55.832 0.121 7.43 1.64 10.18
6/5/2022 8:15:00 AM 13.27 55.886 0.121 7.46 1.6 10.24
6/5/2022 8:30:00 AM 13.33 55.994 0.121 7.5 1.71 10.31
6/5/2022 8:45:00 AM 13.39 56.102 0.121 7.54 1.53 10.4
6/5/2022 9:00:00 AM 13.48 56.264 0.121 7.59 1.74 10.47
6/5/2022 9:15:00 AM 13.59 56.462 0.121 7.64 1.6 10.55
6/5/2022 9:30:00 AM 13.71 56.678 0.12 7.7 1.63 10.61
6/5/2022 9:45:00 AM 13.83 56.894 0.12 7.76 1.58 10.64
6/5/2022 10:00:00 AM 14 57.2 0.12 7.8 1.61 10.66
6/5/2022 10:15:00 AM 14.2 57.56 0.12 7.87 1.6 10.67
6/5/2022 10:30:00 AM 14.35 57.83 0.12 7.92 1.58 10.66
6/5/2022 10:45:00 AM 14.6 58.28 0.12 7.99 1.58 10.68
6/5/2022 11:00:00 AM 14.82 58.676 0.12 8.11 1.58 10.7
6/5/2022 11:15:00 AM 15.01 59.018 0.12 8.14 1.62 10.69
6/5/2022 11:30:00 AM 15.28 59.504 0.12 8.21 1.73 10.69
6/5/2022 11:45:00 AM 15.45 59.81 0.12 8.26 1.57 10.65
6/5/2022 12:00:00 PM 15.66 60.188 0.12 8.32 1.55 10.62
6/5/2022 12:15:00 PM 15.92 60.656 0.12 8.33 1.85 10.57
6/5/2022 12:30:00 PM 16.16 61.088 0.12 8.36 1.59 10.52
6/5/2022 12:45:00 PM 16.47 61.646 0.12 8.38 1.64 10.45
6/5/2022 1:00:00 PM 16.73 62.114 0.119 8.38 1.56 10.38
6/5/2022 1:15:00 PM 17.03 62.654 0.119 8.39 1.67 10.31
6/5/2022 1:30:00 PM 17.39 63.302 0.119 8.42 1.68 10.24
6/5/2022 1:45:00 PM 17.72 63.896 0.119 8.4 1.77 10.15
6/5/2022 2:00:00 PM 18.08 64.544 0.119 8.4 1.7 10.05
6/5/2022 2:15:00 PM 18.42 65.156 0.119 8.39 1.54 9.96
6/5/2022 2:30:00 PM 18.75 65.75 0.119 8.38 1.71 9.87
6/5/2022 2:45:00 PM 19.07 66.326 0.119 8.41 1.7 9.79
6/5/2022 3:00:00 PM 19.29 66.722 0.119 8.37 1.71 9.74
6/5/2022 3:15:00 PM 19.55 67.19 0.119 8.38 1.8 9.68
6/5/2022 3:30:00 PM 19.72 67.496 0.12 8.36 1.65 9.61
6/5/2022 3:45:00 PM 19.87 67.766 0.12 8.34 1.66 9.54
6/5/2022 4:00:00 PM 20.05 68.09 0.12 8.33 1.63 9.5
6/5/2022 4:15:00 PM 20.12 68.216 0.12 8.33 1.61 9.44
6/5/2022 4:30:00 PM 20.21 68.378 0.12 8.28 1.66 9.4
6/5/2022 4:45:00 PM 20.22 68.396 0.12 8.24 1.8 9.34
6/5/2022 5:00:00 PM 20.19 68.342 0.12 8.18 1.63 9.29
6/5/2022 5:15:00 PM 20.14 68.252 0.12 8.14 1.77 9.25
6/5/2022 5:30:00 PM 20.05 68.09 0.121 8.06 1.77 9.19
6/5/2022 5:45:00 PM 19.95 67.91 0.121 7.98 6.67 9.13
6/5/2022 6:00:00 PM 19.77 67.586 0.121 7.87 1.81 9.03
6/5/2022 6:15:00 PM 19.58 67.244 0.121 7.77 1.7 8.95
6/5/2022 6:30:00 PM 19.41 66.938 0.121 7.69 1.76 8.85
6/5/2022 6:45:00 PM 19.22 66.596 0.122 7.61 1.74 8.75
6/5/2022 7:00:00 PM 19.07 66.326 0.122 7.54 1.79 8.69
6/5/2022 7:15:00 PM 18.91 66.038 0.122 7.5 1.64 8.65
6/5/2022 7:30:00 PM 18.67 65.606 0.122 7.46 1.66 8.57
6/5/2022 7:45:00 PM 18.43 65.174 0.122 7.41 1.66 8.53
6/5/2022 8:00:00 PM 18.26 64.868 0.122 7.4 1.68 8.54
6/5/2022 8:15:00 PM 18.12 64.616 0.122 7.36 1.64 8.52
6/5/2022 8:30:00 PM 18 64.4 0.122 7.37 1.63 8.48
6/5/2022 8:45:00 PM 17.88 64.184 0.122 7.3 1.78 8.43
6/5/2022 9:00:00 PM 17.76 63.968 0.123 7.28 1.67 8.4
6/5/2022 9:15:00 PM 17.64 63.752 0.123 7.26 1.76 8.38
6/5/2022 9:30:00 PM 17.53 63.554 0.122 7.25 1.77 8.38
6/5/2022 9:45:00 PM 17.41 63.338 0.122 7.24 1.66 8.39
6/5/2022 10:00:00 PM 17.3 63.14 0.122 7.23 1.77 8.42
6/5/2022 10:15:00 PM 17.18 62.924 0.122 7.23 1.68 8.44
6/5/2022 10:30:00 PM 17.07 62.726 0.122 7.22 1.64 8.46
6/5/2022 10:45:00 PM 16.96 62.528 0.122 7.22 1.73 8.49
6/5/2022 11:00:00 PM 16.85 62.33 0.122 7.22 1.6 8.51
6/5/2022 11:15:00 PM 16.75 62.15 0.122 7.21 1.7 8.53
6/5/2022 11:30:00 PM 16.64 61.952 0.122 7.21 2.15 8.55
6/5/2022 11:45:00 PM 16.53 61.754 0.122 7.24 1.63 8.59
6/6/2022 12:00:00 AM 16.42 61.556 0.122 7.19 1.71 8.61
6/6/2022 12:15:00 AM 16.31 61.358 0.122 7.2 2.78 8.63
6/6/2022 12:30:00 AM 16.2 61.16 0.122 7.2 1.65 8.66
6/6/2022 12:45:00 AM 16.09 60.962 0.122 7.21 1.8 8.68
6/6/2022 1:00:00 AM 15.98 60.764 0.122 7.2 1.65 8.7
6/6/2022 1:15:00 AM 15.87 60.566 0.122 7.2 1.85 8.73
6/6/2022 1:30:00 AM 15.76 60.368 0.122 7.2 6.44 8.75
6/6/2022 1:45:00 AM 15.65 60.17 0.122 7.2 1.72 8.77
6/6/2022 2:00:00 AM 15.55 59.99 0.122 7.2 1.75 8.79
6/6/2022 2:15:00 AM 15.45 59.81 0.122 7.19 1.61 8.82
6/6/2022 2:30:00 AM 15.34 59.612 0.122 7.2 1.71 8.84
6/6/2022 2:45:00 AM 15.23 59.414 0.122 7.2 1.73 8.87
6/6/2022 3:00:00 AM 15.12 59.216 0.121 7.2 1.74 8.9
6/6/2022 3:15:00 AM 15.01 59.018 0.121 7.19 6.07 8.92
6/6/2022 3:30:00 AM 14.9 58.82 0.121 7.2 1.89 8.96
6/6/2022 3:45:00 AM 14.79 58.622 0.121 7.19 1.67 8.98
6/6/2022 4:00:00 AM 14.67 58.406 0.121 7.2 1.64 9.02
6/6/2022 4:15:00 AM 14.55 58.19 0.121 7.2 1.85 9.04
6/6/2022 4:30:00 AM 14.44 57.992 0.121 7.2 1.87 9.08
6/6/2022 4:45:00 AM 14.32 57.776 0.121 7.2 1.7 9.11
6/6/2022 5:00:00 AM 14.2 57.56 0.122 7.2 1.7 9.14
6/6/2022 5:15:00 AM 14.08 57.344 0.122 7.19 1.75 9.18
6/6/2022 5:30:00 AM 13.99 57.182 0.122 7.19 1.69 9.2
6/6/2022 5:45:00 AM 13.9 57.02 0.122 7.2 1.73 9.24
6/6/2022 6:00:00 AM 13.83 56.894 0.122 7.22 1.72 9.29
6/6/2022 6:15:00 AM 13.75 56.75 0.121 7.21 1.72 9.36
6/6/2022 6:30:00 AM 13.69 56.642 0.121 7.23 1.69 9.44
6/6/2022 6:45:00 AM 13.63 56.534 0.121 7.25 6.5 9.51
6/6/2022 7:00:00 AM 13.59 56.462 0.121 7.27 2.09 9.61
6/6/2022 7:15:00 AM 13.59 56.462 0.121 7.3 1.83 9.71
6/6/2022 7:30:00 AM 13.61 56.498 0.121 7.33 1.77 9.84
6/6/2022 7:45:00 AM 13.68 56.624 0.121 7.39 1.63 9.94
6/6/2022 8:00:00 AM 13.75 56.75 0.121 7.39 1.66 10.01
6/6/2022 8:15:00 AM 13.84 56.912 0.121 7.42 1.57 10.06
6/6/2022 8:30:00 AM 13.93 57.074 0.121 7.45 1.66 10.11
6/6/2022 8:45:00 AM 14.04 57.272 0.121 7.47 1.64 10.13
6/6/2022 9:00:00 AM 14.17 57.506 0.121 7.5 1.64 10.17
6/6/2022 9:15:00 AM 14.33 57.794 0.121 7.53 1.59 10.19
6/6/2022 9:30:00 AM 14.5 58.1 0.121 7.55 1.65 10.2
6/6/2022 9:45:00 AM 14.72 58.496 0.121 7.58 1.63 10.2
6/6/2022 10:00:00 AM 14.95 58.91 0.121 7.62 1.71 10.19
6/6/2022 10:15:00 AM 15.18 59.324 0.12 7.66 1.64 10.19
6/6/2022 10:30:00 AM 15.45 59.81 0.12 7.68 1.92 10.18
6/6/2022 10:45:00 AM 15.73 60.314 0.12 7.72 1.76 10.16
6/6/2022 11:00:00 AM 16.06 60.908 0.12 7.76 1.74 10.16
6/6/2022 11:15:00 AM 16.46 61.628 0.12 7.84 1.76 10.18
6/6/2022 11:30:00 AM 16.92 62.456 0.12 7.91 1.71 10.19
6/6/2022 11:45:00 AM 17.32 63.176 0.12 7.98 1.68 10.15
6/6/2022 12:00:00 PM 17.63 63.734 0.12 8.02 6.53 10.06
6/6/2022 12:15:00 PM 18.05 64.49 0.12 8.06 1.75 9.99
6/6/2022 12:30:00 PM 18.15 64.67 0.12 8.03 1.72 9.85
6/6/2022 12:45:00 PM 18.48 65.264 0.12 8.07 1.79 9.81
6/6/2022 1:00:00 PM 18.93 66.074 0.12 8.11 1.83 9.79
6/6/2022 1:15:00 PM 19.08 66.344 0.12 8.13 1.8 9.73
6/6/2022 1:30:00 PM 19.45 67.01 0.12 8.17 1.71 9.69
6/6/2022 1:45:00 PM 19.76 67.568 0.12 8.21 1.86 9.65
6/6/2022 2:00:00 PM 20.04 68.07201 0.12 8.24 6.46 9.61
6/6/2022 2:15:00 PM 20.27 68.486 0.12 8.28 1.92 9.57
6/6/2022 2:30:00 PM 20.37 68.666 0.12 8.29 1.74 9.47
6/6/2022 2:45:00 PM 20.51 68.918 0.12 8.32 2.28 9.44
6/6/2022 3:00:00 PM 20.71 69.278 0.12 8.34 1.82 9.46
6/6/2022 3:15:00 PM 20.72 69.296 0.12 8.36 1.72 9.4
6/6/2022 3:30:00 PM 20.72 69.296 0.12 8.33 1.71 9.33
6/6/2022 3:45:00 PM 20.86 69.548 0.12 8.34 1.94 9.34
6/6/2022 4:00:00 PM 20.95 69.71 0.12 8.35 1.77 9.31
6/6/2022 4:15:00 PM 20.93 69.674 0.12 8.29 1.78 9.2
6/6/2022 4:30:00 PM 21.07 69.926 0.12 8.28 1.85 9.18
6/6/2022 4:45:00 PM 20.98 69.764 0.12 8.23 1.93 9.11
6/6/2022 5:00:00 PM 20.87 69.566 0.121 8.17 1.96 9.08
6/6/2022 5:15:00 PM 20.79 69.422 0.121 8.13 2 9.06
6/6/2022 5:30:00 PM 20.77 69.386 0.121 8.12 1.84 9.07
6/6/2022 5:45:00 PM 20.72 69.296 0.121 8.07 1.81 9.04
6/6/2022 6:00:00 PM 20.67 69.206 0.121 8 6.36 8.95
6/6/2022 6:15:00 PM 20.57 69.026 0.121 7.91 1.69 8.88
6/6/2022 6:30:00 PM 20.45 68.81 0.121 7.81 1.88 8.78
6/6/2022 6:45:00 PM 20.34 68.612 0.121 7.73 6.83 8.68
6/6/2022 7:00:00 PM 20.24 68.432 0.122 7.66 1.91 8.63
6/6/2022 7:15:00 PM 20.11 68.198 0.122 7.61 1.74 8.58
6/6/2022 7:30:00 PM 19.97 67.946 0.122 7.55 1.89 8.51
6/6/2022 7:45:00 PM 19.82 67.676 0.122 7.49 2.16 8.41
6/6/2022 8:00:00 PM 19.66 67.388 0.123 7.43 1.78 8.29
6/6/2022 8:15:00 PM 19.51 67.118 0.123 7.37 1.83 8.2
6/6/2022 8:30:00 PM 19.36 66.848 0.123 7.33 1.89 8.14
6/6/2022 8:45:00 PM 19.22 66.596 0.123 7.3 1.97 8.08
6/6/2022 9:00:00 PM 19.08 66.344 0.123 7.27 2.01 8.07
6/6/2022 9:15:00 PM 18.94 66.092 0.123 7.25 1.95 8.07
6/6/2022 9:30:00 PM 18.83 65.894 0.123 7.23 2.05 8.06
6/6/2022 9:45:00 PM 18.71 65.67799 0.123 7.23 1.97 8.08
6/6/2022 10:00:00 PM 18.6 65.48 0.123 7.21 1.92 8.09
6/6/2022 10:15:00 PM 18.49 65.282 0.123 7.21 1.85 8.11
6/6/2022 10:30:00 PM 18.39 65.102 0.123 7.2 2.07 8.14
6/6/2022 10:45:00 PM 18.3 64.94 0.123 7.2 2.08 8.16
6/6/2022 11:00:00 PM 18.21 64.778 0.123 7.19 2.06 8.18
6/6/2022 11:15:00 PM 18.12 64.616 0.123 7.19 2.08 8.2
6/6/2022 11:30:00 PM 18.03 64.454 0.123 7.19 2 8.21
6/6/2022 11:45:00 PM 17.94 64.292 0.123 7.19 2.04 8.23
6/7/2022 12:00:00 AM 17.85 64.13 0.123 7.19 2 8.26
6/7/2022 12:15:00 AM 17.75 63.95 0.123 7.19 1.99 8.27
6/7/2022 12:30:00 AM 17.66 63.788 0.123 7.19 1.85 8.3
6/7/2022 12:45:00 AM 17.59 63.662 0.123 7.19 1.99 8.31
6/7/2022 1:00:00 AM 17.52 63.536 0.123 7.19 6.59 8.33
6/7/2022 1:15:00 AM 17.45 63.41 0.123 7.19 2.02 8.35
6/7/2022 1:30:00 AM 17.39 63.302 0.123 7.19 2.15 8.36
6/7/2022 1:45:00 AM 17.34 63.212 0.123 7.19 2.06 8.37
6/7/2022 2:00:00 AM 17.28 63.104 0.123 7.19 1.98 8.38
6/7/2022 2:15:00 AM 17.21 62.978 0.123 7.19 1.94 8.41
6/7/2022 2:30:00 AM 17.15 62.87 0.123 7.19 2.03 8.42
6/7/2022 2:45:00 AM 17.08 62.744 0.123 7.19 2.13 8.43
6/7/2022 3:00:00 AM 17.02 62.636 0.123 7.19 2.02 8.43
6/7/2022 3:15:00 AM 16.97 62.546 0.123 7.18 2.04 8.45
6/7/2022 3:30:00 AM 16.91 62.438 0.123 7.19 1.96 8.46
6/7/2022 3:45:00 AM 16.85 62.33 0.123 7.19 2.08 8.48
6/7/2022 4:00:00 AM 16.79 62.222 0.123 7.19 1.98 8.49
6/7/2022 4:15:00 AM 16.73 62.114 0.123 7.19 2.17 8.52
6/7/2022 4:30:00 AM 16.66 61.988 0.123 7.19 2.04 8.52
6/7/2022 4:45:00 AM 16.59 61.862 0.123 7.21 2.07 8.54
6/7/2022 5:00:00 AM 16.51 61.718 0.123 7.19 2.1 8.56
6/7/2022 5:15:00 AM 16.43 61.574 0.123 7.19 2 8.57
6/7/2022 5:30:00 AM 16.37 61.466 0.123 7.2 2.22 8.59
6/7/2022 5:45:00 AM 16.31 61.358 0.123 7.2 2.21 8.62
6/7/2022 6:00:00 AM 16.25 61.25 0.123 7.21 2.01 8.67
6/7/2022 6:15:00 AM 16.2 61.16 0.123 7.22 2.09 8.74
6/7/2022 6:30:00 AM 16.16 61.088 0.122 7.24 2.05 8.81
6/7/2022 6:45:00 AM 16.12 61.016 0.122 7.26 1.95 8.89
6/7/2022 7:00:00 AM 16.1 60.98 0.122 7.28 1.96 8.98
6/7/2022 7:15:00 AM 16.09 60.962 0.122 7.3 2.11 9.04
6/7/2022 7:30:00 AM 16.08 60.944 0.122 7.32 2.24 9.09
6/7/2022 7:45:00 AM 16.09 60.962 0.122 7.34 1.96 9.18
6/7/2022 8:00:00 AM 16.1 60.98 0.122 7.36 1.97 9.25
6/7/2022 8:15:00 AM 16.12 61.016 0.122 7.41 1.9 9.37
6/7/2022 8:30:00 AM 16.17 61.106 0.121 7.44 1.91 9.49
6/7/2022 8:45:00 AM 16.22 61.196 0.121 7.49 2 9.59
6/7/2022 9:00:00 AM 16.26 61.268 0.121 7.51 2.08 9.62
6/7/2022 9:15:00 AM 16.3 61.34 0.121 7.54 1.94 9.63
6/7/2022 9:30:00 AM 16.36 61.448 0.121 7.57 2 9.67
6/7/2022 9:45:00 AM 16.4 61.52 0.121 7.59 1.92 9.69
6/7/2022 10:00:00 AM 16.43 61.574 0.121 7.6 1.97 9.68
6/7/2022 10:15:00 AM 16.46 61.628 0.121 7.6 1.91 9.65
6/7/2022 10:30:00 AM 16.52 61.736 0.121 7.62 6.65 9.66
6/7/2022 10:45:00 AM 16.57 61.826 0.121 7.65 2.32 9.69
6/7/2022 11:00:00 AM 16.61 61.898 0.121 7.65 1.99 9.66
6/7/2022 11:15:00 AM 16.73 62.114 0.121 7.67 1.93 9.71
6/7/2022 11:30:00 AM 16.91 62.438 0.121 7.75 2.04 9.83
6/7/2022 11:45:00 AM 17.03 62.654 0.121 7.83 2.07 9.9
6/7/2022 12:00:00 PM 17.12 62.816 0.121 7.88 1.97 9.92
6/7/2022 12:15:00 PM 17.18 62.924 0.121 7.87 1.93 9.81
6/7/2022 12:30:00 PM 17.19 62.942 0.121 7.79 2 9.63
6/7/2022 12:45:00 PM 17.23 63.014 0.121 7.78 1.96 9.62
6/7/2022 1:00:00 PM 17.22 62.996 0.121 7.73 2.21 9.51
6/7/2022 1:15:00 PM 17.21 62.978 0.121 7.69 2.13 9.43
6/7/2022 1:30:00 PM 17.21 62.978 0.121 7.64 2.29 9.36
6/7/2022 1:45:00 PM 17.24 63.032 0.121 7.63 2.46 9.36
6/7/2022 2:00:00 PM 17.25 63.05 0.121 7.63 2.05 9.39
6/7/2022 2:15:00 PM 17.26 63.068 0.12 7.64 2.38 9.43
6/7/2022 2:30:00 PM 17.26 63.068 0.12 7.64 2.24 9.4
6/7/2022 2:45:00 PM 17.22 62.996 0.12 7.56 2.3 9.21
6/7/2022 3:00:00 PM 17.2 62.96 0.12 7.5 2.29 9.1
6/7/2022 3:15:00 PM 17.18 62.924 0.119 7.47 2.42 9.05
6/7/2022 3:30:00 PM 17.15 62.87 0.119 7.45 2.59 9.07
6/7/2022 3:45:00 PM 17.13 62.834 0.119 7.44 2.33 9.07
6/7/2022 4:00:00 PM 17.12 62.816 0.119 7.42 2.42 9.01
6/7/2022 4:15:00 PM 17.11 62.798 0.119 7.4 2.3 8.94
6/7/2022 4:30:00 PM 17.1 62.78 0.119 7.38 2.43 8.9
6/7/2022 4:45:00 PM 17.1 62.78 0.119 7.38 2.44 8.93
6/7/2022 5:00:00 PM 17.09 62.762 0.118 7.39 2.37 8.97
6/7/2022 5:15:00 PM 17.08 62.744 0.119 7.38 2.6 8.93
6/7/2022 5:30:00 PM 17.07 62.726 0.119 7.36 2.46 8.89
6/7/2022 5:45:00 PM 17.05 62.69 0.119 7.34 2.36 8.86
6/7/2022 6:00:00 PM 17.04 62.672 0.119 7.34 2.38 8.87
6/7/2022 6:15:00 PM 17.02 62.636 0.119 7.34 2.37 8.89
6/7/2022 6:30:00 PM 17.01 62.618 0.119 7.33 2.48 8.88
6/7/2022 6:45:00 PM 17 62.6 0.12 7.36 2.44 8.87
6/7/2022 7:00:00 PM 16.99 62.582 0.12 7.32 2.55 8.86
6/7/2022 7:15:00 PM 16.97 62.546 0.12 7.32 2.46 8.85
6/7/2022 7:30:00 PM 16.95 62.51 0.119 7.3 2.51 8.82
6/7/2022 7:45:00 PM 16.92 62.456 0.119 7.29 2.56 8.78
6/7/2022 8:00:00 PM 16.89 62.402 0.119 7.28 2.45 8.75
6/7/2022 8:15:00 PM 16.86 62.348 0.12 7.26 2.39 8.72
6/7/2022 8:30:00 PM 16.82 62.276 0.119 7.26 2.36 8.71
6/7/2022 8:45:00 PM 16.79 62.222 0.119 7.23 2.53 8.68
6/7/2022 9:00:00 PM 16.75 62.15 0.119 7.22 2.61 8.65
6/7/2022 9:15:00 PM 16.72 62.096 0.119 7.2 2.58 8.63
6/7/2022 9:30:00 PM 16.68 62.024 0.119 7.19 2.61 8.63
6/7/2022 9:45:00 PM 16.65 61.97 0.119 7.19 2.79 8.64
6/7/2022 10:00:00 PM 16.62 61.916 0.119 7.17 2.76 8.64
6/7/2022 10:15:00 PM 16.59 61.862 0.119 7.17 2.51 8.65
6/7/2022 10:30:00 PM 16.57 61.826 0.119 7.17 2.55 8.65
6/7/2022 10:45:00 PM 16.54 61.772 0.119 7.16 2.62 8.65
6/7/2022 11:00:00 PM 16.52 61.736 0.12 7.16 2.52 8.66
6/7/2022 11:15:00 PM 16.5 61.7 0.12 7.15 2.64 8.68
6/7/2022 11:30:00 PM 16.47 61.646 0.12 7.15 2.48 8.68
6/7/2022 11:45:00 PM 16.45 61.61 0.12 7.15 2.46 8.68
6/8/2022 12:00:00 AM 16.44 61.592 0.12 7.14 2.49 8.69
6/8/2022 12:15:00 AM 16.42 61.556 0.12 7.14 2.49 8.69
6/8/2022 12:30:00 AM 16.4 61.52 0.12 7.15 2.56 8.7
6/8/2022 12:45:00 AM 16.38 61.484 0.121 7.15 2.71 8.71
6/8/2022 1:00:00 AM 16.36 61.448 0.121 7.16 2.51 8.72
6/8/2022 1:15:00 AM 16.34 61.412 0.121 7.17 2.42 8.72
6/8/2022 1:30:00 AM 16.31 61.358 0.121 7.15 2.55 8.73
6/8/2022 1:45:00 AM 16.28 61.304 0.121 7.16 2.49 8.74
6/8/2022 2:00:00 AM 16.24 61.232 0.121 7.15 2.76 8.74
6/8/2022 2:15:00 AM 16.21 61.178 0.122 7.15 2.43 8.76
6/8/2022 2:30:00 AM 16.18 61.124 0.122 7.16 2.49 8.76
6/8/2022 2:45:00 AM 16.13 61.034 0.122 7.16 2.67 8.78
6/8/2022 3:00:00 AM 16.08 60.944 0.122 7.17 2.55 8.79
6/8/2022 3:15:00 AM 16.04 60.872 0.122 7.17 2.55 8.8
6/8/2022 3:30:00 AM 16 60.8 0.122 7.18 2.5 8.8
6/8/2022 3:45:00 AM 15.96 60.728 0.123 7.18 2.47 8.82
6/8/2022 4:00:00 AM 15.92 60.656 0.123 7.19 2.52 8.83
6/8/2022 4:15:00 AM 15.87 60.566 0.123 7.2 2.62 8.84
6/8/2022 4:30:00 AM 15.81 60.458 0.123 7.21 2.58 8.85
6/8/2022 4:45:00 AM 15.76 60.368 0.123 7.23 2.58 8.86
6/8/2022 5:00:00 AM 15.7 60.26 0.123 7.22 2.73 8.87
6/8/2022 5:15:00 AM 15.64 60.152 0.123 7.22 2.46 8.88
6/8/2022 5:30:00 AM 15.59 60.062 0.123 7.23 2.66 8.9
6/8/2022 5:45:00 AM 15.53 59.954 0.123 7.23 2.47 8.93
6/8/2022 6:00:00 AM 15.47 59.846 0.123 7.23 2.43 8.97
6/8/2022 6:15:00 AM 15.42 59.756 0.123 7.25 2.37 9.03
6/8/2022 6:30:00 AM 15.35 59.63 0.123 7.26 2.36 9.08
6/8/2022 6:45:00 AM 15.3 59.54 0.123 7.27 2.41 9.14
6/8/2022 7:00:00 AM 15.24 59.432 0.123 7.28 2.32 9.2
6/8/2022 7:15:00 AM 15.21 59.378 0.123 7.3 6.8 9.27
6/8/2022 7:30:00 AM 15.21 59.378 0.123 7.33 2.28 9.35
6/8/2022 7:45:00 AM 15.25 59.45 0.123 7.36 2.29 9.43
6/8/2022 8:00:00 AM 15.31 59.558 0.123 7.38 2.26 9.49
6/8/2022 8:15:00 AM 15.37 59.666 0.123 7.4 2.26 9.51
6/8/2022 8:30:00 AM 15.43 59.774 0.123 7.42 2.26 9.56
6/8/2022 8:45:00 AM 15.53 59.954 0.123 7.44 2.22 9.6
6/8/2022 9:00:00 AM 15.54 59.972 0.123 7.46 2.17 9.62
6/8/2022 9:15:00 AM 15.63 60.134 0.123 7.47 6.58 9.65
6/8/2022 9:30:00 AM 15.76 60.368 0.123 7.49 2.26 9.7
6/8/2022 9:45:00 AM 15.77 60.386 0.123 7.51 2.26 9.7
6/8/2022 10:00:00 AM 15.93 60.674 0.123 7.53 2.21 9.72
6/8/2022 10:15:00 AM 16.16 61.088 0.123 7.56 2.23 9.77
6/8/2022 10:30:00 AM 16.31 61.358 0.123 7.6 2.19 9.76
6/8/2022 10:45:00 AM 16.58 61.844 0.123 7.62 6.81 9.76
6/8/2022 11:00:00 AM 16.8 62.24 0.123 7.64 2.28 9.73
6/8/2022 11:15:00 AM 16.99 62.582 0.123 7.66 2.35 9.7
6/8/2022 11:30:00 AM 17.23 63.014 0.123 7.69 2.35 9.7
6/8/2022 11:45:00 AM 17.6 63.68 0.123 7.72 2.32 9.66
6/8/2022 12:00:00 PM 17.95 64.31 0.123 7.74 2.32 9.62
6/8/2022 12:15:00 PM 18.27 64.886 0.124 7.75 2.29 9.56
6/8/2022 12:30:00 PM 18.42 65.156 0.124 7.75 2.28 9.5
6/8/2022 12:45:00 PM 18.66 65.588 0.124 7.78 2.32 9.49
6/8/2022 1:00:00 PM 19.03 66.254 0.124 7.8 2.21 9.48
6/8/2022 1:15:00 PM 19.15 66.47 0.124 7.82 2.25 9.44
6/8/2022 1:30:00 PM 19.46 67.028 0.124 7.83 2.31 9.4
6/8/2022 1:45:00 PM 19.6 67.28 0.124 7.83 2.23 9.35
6/8/2022 2:00:00 PM 19.91 67.838 0.124 7.83 2.22 9.3
6/8/2022 2:15:00 PM 20.13 68.234 0.124 7.82 6.61 9.21
6/8/2022 2:30:00 PM 20.32 68.576 0.124 7.81 6.68 9.13
6/8/2022 2:45:00 PM 20.61 69.098 0.124 7.81 2.22 9.08
6/8/2022 3:00:00 PM 20.91 69.638 0.124 7.8 2.35 9.01
6/8/2022 3:15:00 PM 21.22 70.196 0.125 7.79 2.38 8.93
6/8/2022 3:30:00 PM 21.47 70.646 0.125 7.78 2.39 8.85
6/8/2022 3:45:00 PM 21.66 70.988 0.125 7.78 2.27 8.8
6/8/2022 4:00:00 PM 21.77 71.186 0.125 7.76 2.43 8.75
6/8/2022 4:15:00 PM 21.84 71.312 0.125 7.74 2.26 8.69
6/8/2022 4:30:00 PM 21.85 71.33 0.125 7.73 2.5 8.66
6/8/2022 4:45:00 PM 21.83 71.294 0.125 7.71 2.3 8.62
6/8/2022 5:00:00 PM 21.8 71.24 0.125 7.69 2.37 8.57
6/8/2022 5:15:00 PM 21.72 71.096 0.126 7.66 2.37 8.55
6/8/2022 5:30:00 PM 21.55 70.79 0.126 7.64 2.39 8.53
6/8/2022 5:45:00 PM 21.4 70.52 0.126 7.61 2.44 8.49
6/8/2022 6:00:00 PM 21.25 70.25 0.126 7.58 2.27 8.43
6/8/2022 6:15:00 PM 21.09 69.962 0.126 7.53 2.37 8.37
6/8/2022 6:30:00 PM 20.91 69.638 0.126 7.49 2.39 8.31
6/8/2022 6:45:00 PM 20.72 69.296 0.126 7.45 2.35 8.25
6/8/2022 7:00:00 PM 20.58 69.044 0.126 7.44 2.36 8.26
6/8/2022 7:15:00 PM 20.42 68.756 0.126 7.43 7.04 8.28
6/8/2022 7:30:00 PM 20.24 68.432 0.126 7.4 2.43 8.23
6/8/2022 7:45:00 PM 20.1 68.18 0.126 7.38 2.5 8.21
6/8/2022 8:00:00 PM 19.96 67.92799 0.126 7.36 2.44 8.17
6/8/2022 8:15:00 PM 19.82 67.676 0.127 7.32 2.51 8.11
6/8/2022 8:30:00 PM 19.68 67.424 0.127 7.3 2.67 8.07
6/8/2022 8:45:00 PM 19.54 67.172 0.127 7.28 2.45 8.04
6/8/2022 9:00:00 PM 19.41 66.938 0.127 7.26 2.4 8.01
6/8/2022 9:15:00 PM 19.29 66.722 0.127 7.24 2.47 8.02
6/8/2022 9:30:00 PM 19.17 66.506 0.127 7.25 2.55 8.01
6/8/2022 9:45:00 PM 19.06 66.308 0.127 7.23 2.84 8.02
6/8/2022 10:00:00 PM 18.95 66.11 0.127 7.22 2.48 8.05
6/8/2022 10:15:00 PM 18.84 65.912 0.127 7.22 2.48 8.07
6/8/2022 10:30:00 PM 18.74 65.732 0.127 7.22 2.52 8.09
6/8/2022 10:45:00 PM 18.63 65.534 0.127 7.22 2.48 8.11
6/8/2022 11:00:00 PM 18.54 65.372 0.127 7.22 2.79 8.13
6/8/2022 11:15:00 PM 18.44 65.192 0.127 7.22 2.59 8.15
6/8/2022 11:30:00 PM 18.35 65.03 0.127 7.21 2.52 8.16
6/8/2022 11:45:00 PM 18.27 64.886 0.127 7.21 2.48 8.17
6/9/2022 12:00:00 AM 18.19 64.742 0.127 7.21 2.81 8.19
6/9/2022 12:15:00 AM 18.11 64.598 0.127 7.21 2.76 8.21
6/9/2022 12:30:00 AM 18.01 64.418 0.126 7.21 2.72 8.23
6/9/2022 12:45:00 AM 17.9 64.22 0.124 7.21 2.88 8.26
6/9/2022 1:00:00 AM 17.79 64.022 0.122 7.19 3.27 8.27
6/9/2022 1:15:00 AM 17.7 63.86 0.121 7.18 7.23 8.27
6/9/2022 1:30:00 AM 17.61 63.698 0.121 7.17 3.65 8.28
6/9/2022 1:45:00 AM 17.52 63.536 0.12 7.17 9.92 8.3
6/9/2022 2:00:00 AM 17.41 63.338 0.118 7.16 5.42 8.34
6/9/2022 2:15:00 AM 17.34 63.212 0.118 7.15 4.97 8.33
6/9/2022 2:30:00 AM 17.28 63.104 0.118 7.16 4.85 8.35
6/9/2022 2:45:00 AM 17.23 63.014 0.119 7.16 5.41 8.37
6/9/2022 3:00:00 AM 17.19 62.942 0.12 7.17 4.64 8.39
6/9/2022 3:15:00 AM 17.14 62.852 0.12 7.17 4.68 8.39
6/9/2022 3:30:00 AM 17.08 62.744 0.119 7.21 4.35 8.41
6/9/2022 3:45:00 AM 17.03 62.654 0.119 7.16 4.18 8.43
6/9/2022 4:00:00 AM 16.99 62.582 0.119 7.17 4.2 8.44
6/9/2022 4:15:00 AM 16.96 62.528 0.119 7.17 4.79 8.46
6/9/2022 4:30:00 AM 16.92 62.456 0.118 7.17 3.91 8.48
6/9/2022 4:45:00 AM 16.88 62.384 0.118 7.18 3.88 8.49
6/9/2022 5:00:00 AM 16.84 62.312 0.118 7.17 3.96 8.51
6/9/2022 5:15:00 AM 16.79 62.222 0.117 7.17 4.01 8.53
6/9/2022 5:30:00 AM 16.74 62.132 0.116 7.17 4.47 8.54
6/9/2022 5:45:00 AM 16.69 62.042 0.116 7.17 4.21 8.56
6/9/2022 6:00:00 AM 16.65 61.97 0.115 7.17 4.2 8.58
6/9/2022 6:15:00 AM 16.6 61.88 0.115 7.17 3.94 8.59
6/9/2022 6:30:00 AM 16.57 61.826 0.115 7.17 3.88 8.62
6/9/2022 6:45:00 AM 16.54 61.772 0.116 7.19 3.75 8.67
6/9/2022 7:00:00 AM 16.52 61.736 0.116 7.2 3.63 8.69
6/9/2022 7:15:00 AM 16.51 61.718 0.117 7.21 3.61 8.76
6/9/2022 7:30:00 AM 16.5 61.7 0.117 7.25 3.62 8.84
6/9/2022 7:45:00 AM 16.56 61.808 0.118 7.29 3.54 8.95
6/9/2022 8:00:00 AM 16.56 61.808 0.118 7.29 3.55 8.98
6/9/2022 8:15:00 AM 16.57 61.826 0.118 7.32 3.09 9.05
6/9/2022 8:30:00 AM 16.62 61.916 0.119 7.35 3.09 9.13
6/9/2022 8:45:00 AM 16.63 61.934 0.119 7.37 3.17 9.12
6/9/2022 9:00:00 AM 16.67 62.006 0.119 7.38 2.99 9.15
6/9/2022 9:15:00 AM 16.81 62.258 0.12 7.41 3.23 9.22
6/9/2022 9:30:00 AM 16.81 62.258 0.12 7.44 3.03 9.24
6/9/2022 9:45:00 AM 16.84 62.312 0.12 7.47 3.16 9.25
6/9/2022 10:00:00 AM 16.91 62.438 0.121 7.48 3.3 9.28
6/9/2022 10:15:00 AM 16.99 62.582 0.121 7.51 3.53 9.33
6/9/2022 10:30:00 AM 17.08 62.744 0.122 7.53 5.12 9.33
6/9/2022 10:45:00 AM 17.21 62.978 0.122 7.53 3.44 9.32
6/9/2022 11:00:00 AM 17.36 63.248 0.123 7.54 3.25 9.35
6/9/2022 11:15:00 AM 17.33 63.194 0.124 7.56 3.19 9.35
6/9/2022 11:30:00 AM 17.47 63.446 0.124 7.57 3.06 9.36
6/9/2022 11:45:00 AM 17.8 64.04 0.124 7.6 2.97 9.39
6/9/2022 12:00:00 PM 17.85 64.13 0.124 7.61 3.05 9.37
6/9/2022 12:15:00 PM 17.91 64.238 0.125 7.63 2.93 9.34
6/9/2022 12:30:00 PM 17.91 64.238 0.125 7.62 3.65 9.29
6/9/2022 12:45:00 PM 18.12 64.616 0.125 7.63 2.85 9.31
6/9/2022 1:00:00 PM 18.16 64.688 0.125 7.63 2.87 9.24
6/9/2022 1:15:00 PM 18.18 64.724 0.126 7.61 2.89 9.18
6/9/2022 1:30:00 PM 18.18 64.724 0.126 7.62 2.73 9.21
6/9/2022 1:45:00 PM 18.16 64.688 0.127 7.6 2.74 9.16
6/9/2022 2:00:00 PM 18.22 64.796 0.127 7.61 2.85 9.18
6/9/2022 2:15:00 PM 18.17 64.706 0.127 7.61 2.87 9.15
6/9/2022 2:30:00 PM 18.15 64.67 0.128 7.59 2.63 9.11
6/9/2022 2:45:00 PM 18.08 64.544 0.128 7.56 2.62 9.04
6/9/2022 3:00:00 PM 18.05 64.49 0.129 7.54 2.7 9.01
6/9/2022 3:15:00 PM 17.95 64.31 0.129 7.51 2.63 8.94
6/9/2022 3:30:00 PM 17.93 64.274 0.13 7.51 2.65 8.97
6/9/2022 3:45:00 PM 17.94 64.292 0.13 7.53 2.7 9.06
6/9/2022 4:00:00 PM 17.9 64.22 0.131 7.53 2.6 9.03
6/9/2022 4:15:00 PM 17.87 64.166 0.131 7.5 2.67 8.95
6/9/2022 4:30:00 PM 17.83 64.094 0.131 7.5 2.67 8.97
6/9/2022 4:45:00 PM 17.85 64.13 0.131 7.52 2.85 9.06
6/9/2022 5:00:00 PM 17.92 64.256 0.131 7.54 6.6 9.13
6/9/2022 5:15:00 PM 17.94 64.292 0.132 7.55 2.52 9.11
6/9/2022 5:30:00 PM 18.01 64.418 0.132 7.56 2.55 9.09
6/9/2022 5:45:00 PM 17.92 64.256 0.132 7.55 2.64 9.08
6/9/2022 6:00:00 PM 17.86 64.148 0.132 7.56 2.52 9.09
6/9/2022 6:15:00 PM 17.78 64.004 0.132 7.53 2.55 9.04
6/9/2022 6:30:00 PM 17.72 63.896 0.132 7.52 2.47 9.01
6/9/2022 6:45:00 PM 17.65 63.77 0.132 7.5 2.61 8.97
6/9/2022 7:00:00 PM 17.59 63.662 0.132 7.48 2.72 8.93
6/9/2022 7:15:00 PM 17.49 63.482 0.132 7.46 2.39 8.89
6/9/2022 7:30:00 PM 17.39 63.302 0.132 7.44 2.44 8.85
6/9/2022 7:45:00 PM 17.32 63.176 0.132 7.43 2.63 8.8
6/9/2022 8:00:00 PM 17.24 63.032 0.132 7.38 2.77 8.78
6/9/2022 8:15:00 PM 17.17 62.906 0.132 7.36 2.7 8.75
6/9/2022 8:30:00 PM 17.1 62.78 0.132 7.37 2.43 8.73
6/9/2022 8:45:00 PM 17.02 62.636 0.132 7.31 2.56 8.69
6/9/2022 9:00:00 PM 16.95 62.51 0.132 7.3 2.65 8.68
6/9/2022 9:15:00 PM 16.86 62.348 0.132 7.3 2.65 8.67
6/9/2022 9:30:00 PM 16.77 62.186 0.132 7.29 2.54 8.68
6/9/2022 9:45:00 PM 16.68 62.024 0.132 7.28 2.7 8.68
6/9/2022 10:00:00 PM 16.59 61.862 0.132 7.28 2.87 8.7
6/9/2022 10:15:00 PM 16.51 61.718 0.132 7.28 2.57 8.72
6/9/2022 10:30:00 PM 16.42 61.556 0.132 7.28 2.72 8.73
6/9/2022 10:45:00 PM 16.33 61.394 0.132 7.27 2.53 8.75
6/9/2022 11:00:00 PM 16.24 61.232 0.132 7.27 2.57 8.77
6/9/2022 11:15:00 PM 16.15 61.07 0.132 7.27 2.47 8.79
6/9/2022 11:30:00 PM 16.07 60.926 0.132 7.27 2.74 8.8
6/9/2022 11:45:00 PM 15.98 60.764 0.132 7.27 2.38 8.82
6/10/2022 12:00:00 AM 15.89 60.602 0.132 7.27 2.38 8.84
6/10/2022 12:15:00 AM 15.8 60.44 0.132 7.26 2.86 8.86
6/10/2022 12:30:00 AM 15.72 60.296 0.132 7.27 2.54 8.87
6/10/2022 12:45:00 AM 15.63 60.134 0.132 7.27 2.51 8.89
6/10/2022 1:00:00 AM 15.55 59.99 0.132 7.26 6.48 8.92
6/10/2022 1:15:00 AM 15.46 59.828 0.132 7.26 2.47 8.93
6/10/2022 1:30:00 AM 15.4 59.72 0.133 7.26 2.39 8.94
6/10/2022 1:45:00 AM 15.34 59.612 0.133 7.26 2.44 8.96
6/10/2022 2:00:00 AM 15.27 59.486 0.133 7.27 2.44 8.97
6/10/2022 2:15:00 AM 15.2 59.36 0.133 7.26 6.99 8.99
6/10/2022 2:30:00 AM 15.13 59.234 0.133 7.26 2.34 9
6/10/2022 2:45:00 AM 15.07 59.126 0.133 7.26 2.81 9.02
6/10/2022 3:00:00 AM 15 59 0.133 7.27 2.44 9.04
6/10/2022 3:15:00 AM 14.93 58.874 0.133 7.27 2.43 9.05
6/10/2022 3:30:00 AM 14.85 58.73 0.133 7.26 2.33 9.07
6/10/2022 3:45:00 AM 14.78 58.604 0.133 7.26 2.36 9.09
6/10/2022 4:00:00 AM 14.72 58.496 0.133 7.26 2.35 9.1
6/10/2022 4:15:00 AM 14.67 58.406 0.133 7.27 2.34 9.12
6/10/2022 4:30:00 AM 14.61 58.298 0.133 7.27 2.4 9.13
6/10/2022 4:45:00 AM 14.54 58.172 0.133 7.26 2.57 9.15
6/10/2022 5:00:00 AM 14.47 58.046 0.133 7.26 2.56 9.16
6/10/2022 5:15:00 AM 14.4 57.92 0.133 7.26 6.88 9.18
6/10/2022 5:30:00 AM 14.31 57.758 0.133 7.26 2.5 9.2
6/10/2022 5:45:00 AM 14.23 57.614 0.133 7.27 2.54 9.23
6/10/2022 6:00:00 AM 14.15 57.47 0.133 7.27 2.37 9.27
6/10/2022 6:15:00 AM 14.09 57.362 0.133 7.27 2.27 9.31
6/10/2022 6:30:00 AM 14.05 57.29 0.133 7.29 2.31 9.37
6/10/2022 6:45:00 AM 14.04 57.272 0.133 7.29 2.31 9.42
6/10/2022 7:00:00 AM 14.04 57.272 0.133 7.31 2.35 9.47
6/10/2022 7:15:00 AM 14.03 57.254 0.133 7.33 2.29 9.52
6/10/2022 7:30:00 AM 14.02 57.236 0.133 7.34 2.24 9.58
6/10/2022 7:45:00 AM 14.04 57.272 0.133 7.36 2.17 9.64
6/10/2022 8:00:00 AM 14.12 57.416 0.133 7.38 2.26 9.69
6/10/2022 8:15:00 AM 14.23 57.614 0.133 7.4 2.16 9.71
6/10/2022 8:30:00 AM 14.31 57.758 0.133 7.4 2.19 9.7
6/10/2022 8:45:00 AM 14.41 57.938 0.133 7.41 2.12 9.72
6/10/2022 9:00:00 AM 14.53 58.154 0.133 7.43 2.25 9.72
6/10/2022 9:15:00 AM 14.67 58.406 0.133 7.44 2.21 9.74
6/10/2022 9:30:00 AM 14.82 58.676 0.133 7.45 2.3 9.73
6/10/2022 9:45:00 AM 15.01 59.018 0.133 7.47 2.26 9.74
6/10/2022 10:00:00 AM 15.14 59.252 0.133 7.47 2.18 9.71
6/10/2022 10:15:00 AM 15.34 59.612 0.132 7.48 2.21 9.69
6/10/2022 10:30:00 AM 15.61 60.098 0.132 7.5 2.22 9.66
6/10/2022 10:45:00 AM